<?xml version="1.0" encoding="UTF-8" standalone="no" ?>
<gpx xmlns="http://www.topografix.com/GPX/1/1" xmlns:xsi="http://www.w3.org/2001/XMLSchema-instance" xsi:schemaLocation="http://www.topografix.com/GPX/1/1 http://www.topografix.com/GPX/1/1/gpx.xsd" version="1.1" creator="VisuGPX - https://www.visugpx.com">
  <metadata>
    <name>chapelle st gabriel 12,5</name>
    <desc><![CDATA[Parking près de la chapelle.. rando variée . Passage intéressant près des barres rocheuses.]]></desc>
  </metadata>
  <trk>
    <name><![CDATA[13_St Gabiel 12km]]></name>
    <trkseg>
      <trkpt lat="43.76676" lon="4.69435">
        <ele>-21.01</ele>
        <time>2025-04-04T11:48:05Z</time>
      </trkpt>
      <trkpt lat="43.76676" lon="4.69434">
        <ele>-21.01</ele>
        <time>2025-04-04T11:48:10Z</time>
      </trkpt>
      <trkpt lat="43.76674" lon="4.69432">
        <ele>-16.69</ele>
        <time>2025-04-04T11:48:14Z</time>
      </trkpt>
      <trkpt lat="43.76674" lon="4.69432">
        <ele>-13.8</ele>
        <time>2025-04-04T11:48:17Z</time>
      </trkpt>
      <trkpt lat="43.76673" lon="4.69431">
        <ele>-9.96</ele>
        <time>2025-04-04T11:48:21Z</time>
      </trkpt>
      <trkpt lat="43.76673" lon="4.69431">
        <ele>-7.55</ele>
        <time>2025-04-04T11:48:24Z</time>
      </trkpt>
      <trkpt lat="43.76672" lon="4.69431">
        <ele>-4.19</ele>
        <time>2025-04-04T11:48:28Z</time>
      </trkpt>
      <trkpt lat="43.76672" lon="4.69431">
        <ele>-1.3</ele>
        <time>2025-04-04T11:48:32Z</time>
      </trkpt>
      <trkpt lat="43.76672" lon="4.69431">
        <ele>4.46</ele>
        <time>2025-04-04T11:48:38Z</time>
      </trkpt>
      <trkpt lat="43.76673" lon="4.69431">
        <ele>7.35</ele>
        <time>2025-04-04T11:48:50Z</time>
      </trkpt>
      <trkpt lat="43.7667" lon="4.69432">
        <ele>16.96</ele>
        <time>2025-04-04T11:49:04Z</time>
      </trkpt>
      <trkpt lat="43.76671" lon="4.69433">
        <ele>16.96</ele>
        <time>2025-04-04T11:49:05Z</time>
      </trkpt>
      <trkpt lat="43.76668" lon="4.69432">
        <ele>16</ele>
        <time>2025-04-04T11:49:22Z</time>
      </trkpt>
      <trkpt lat="43.76671" lon="4.69429">
        <ele>16</ele>
        <time>2025-04-04T11:49:41Z</time>
      </trkpt>
      <trkpt lat="43.76669" lon="4.69428">
        <ele>16</ele>
        <time>2025-04-04T11:50:08Z</time>
      </trkpt>
      <trkpt lat="43.7667" lon="4.69428">
        <ele>16.96</ele>
        <time>2025-04-04T11:50:23Z</time>
      </trkpt>
      <trkpt lat="43.76672" lon="4.6943">
        <ele>16.96</ele>
        <time>2025-04-04T11:50:44Z</time>
      </trkpt>
      <trkpt lat="43.76672" lon="4.69428">
        <ele>16.96</ele>
        <time>2025-04-04T11:51:01Z</time>
      </trkpt>
      <trkpt lat="43.76672" lon="4.6943">
        <ele>16.96</ele>
        <time>2025-04-04T11:51:17Z</time>
      </trkpt>
      <trkpt lat="43.76665" lon="4.69429">
        <ele>17.44</ele>
        <time>2025-04-04T11:51:33Z</time>
      </trkpt>
      <trkpt lat="43.76664" lon="4.69428">
        <ele>15.52</ele>
        <time>2025-04-04T11:51:35Z</time>
      </trkpt>
      <trkpt lat="43.76662" lon="4.69427">
        <ele>19.36</ele>
        <time>2025-04-04T11:51:38Z</time>
      </trkpt>
      <trkpt lat="43.76662" lon="4.69427">
        <ele>17.44</ele>
        <time>2025-04-04T11:51:39Z</time>
      </trkpt>
      <trkpt lat="43.7666" lon="4.69427">
        <ele>16.48</ele>
        <time>2025-04-04T11:51:41Z</time>
      </trkpt>
      <trkpt lat="43.76656" lon="4.69435">
        <ele>17.92</ele>
        <time>2025-04-04T11:51:57Z</time>
      </trkpt>
      <trkpt lat="43.76656" lon="4.69454">
        <ele>19.36</ele>
        <time>2025-04-04T11:52:18Z</time>
      </trkpt>
      <trkpt lat="43.76656" lon="4.69462">
        <ele>18.88</ele>
        <time>2025-04-04T11:52:38Z</time>
      </trkpt>
      <trkpt lat="43.76669" lon="4.69548">
        <ele>31.38</ele>
        <time>2025-04-04T11:55:12Z</time>
      </trkpt>
      <trkpt lat="43.76666" lon="4.69554">
        <ele>32.34</ele>
        <time>2025-04-04T11:55:20Z</time>
      </trkpt>
      <trkpt lat="43.76666" lon="4.69568">
        <ele>33.3</ele>
        <time>2025-04-04T11:55:37Z</time>
      </trkpt>
      <trkpt lat="43.76668" lon="4.6958">
        <ele>36.67</ele>
        <time>2025-04-04T11:55:53Z</time>
      </trkpt>
      <trkpt lat="43.76666" lon="4.69592">
        <ele>39.07</ele>
        <time>2025-04-04T11:56:07Z</time>
      </trkpt>
      <trkpt lat="43.76664" lon="4.696">
        <ele>42.44</ele>
        <time>2025-04-04T11:56:18Z</time>
      </trkpt>
      <trkpt lat="43.76664" lon="4.696">
        <ele>42.44</ele>
        <time>2025-04-04T11:56:19Z</time>
      </trkpt>
      <trkpt lat="43.76664" lon="4.69603">
        <ele>45.8</ele>
        <time>2025-04-04T11:56:22Z</time>
      </trkpt>
      <trkpt lat="43.76663" lon="4.69606">
        <ele>50.61</ele>
        <time>2025-04-04T11:56:25Z</time>
      </trkpt>
      <trkpt lat="43.76663" lon="4.69607">
        <ele>50.61</ele>
        <time>2025-04-04T11:56:26Z</time>
      </trkpt>
      <trkpt lat="43.76662" lon="4.69611">
        <ele>53.49</ele>
        <time>2025-04-04T11:56:29Z</time>
      </trkpt>
      <trkpt lat="43.76661" lon="4.69613">
        <ele>54.45</ele>
        <time>2025-04-04T11:56:30Z</time>
      </trkpt>
      <trkpt lat="43.76661" lon="4.69619">
        <ele>58.3</ele>
        <time>2025-04-04T11:56:35Z</time>
      </trkpt>
      <trkpt lat="43.76661" lon="4.69625">
        <ele>64.07</ele>
        <time>2025-04-04T11:56:41Z</time>
      </trkpt>
      <trkpt lat="43.76661" lon="4.69626">
        <ele>64.07</ele>
        <time>2025-04-04T11:56:42Z</time>
      </trkpt>
      <trkpt lat="43.76661" lon="4.69632">
        <ele>67.43</ele>
        <time>2025-04-04T11:56:47Z</time>
      </trkpt>
      <trkpt lat="43.76661" lon="4.69635">
        <ele>70.79</ele>
        <time>2025-04-04T11:56:53Z</time>
      </trkpt>
      <trkpt lat="43.7666" lon="4.6964">
        <ele>73.68</ele>
        <time>2025-04-04T11:56:59Z</time>
      </trkpt>
      <trkpt lat="43.7666" lon="4.69645">
        <ele>76.08</ele>
        <time>2025-04-04T11:57:04Z</time>
      </trkpt>
      <trkpt lat="43.7666" lon="4.69659">
        <ele>79.45</ele>
        <time>2025-04-04T11:57:17Z</time>
      </trkpt>
      <trkpt lat="43.7666" lon="4.69673">
        <ele>80.89</ele>
        <time>2025-04-04T11:57:28Z</time>
      </trkpt>
      <trkpt lat="43.76658" lon="4.69695">
        <ele>82.33</ele>
        <time>2025-04-04T11:57:44Z</time>
      </trkpt>
      <trkpt lat="43.76658" lon="4.69698">
        <ele>82.33</ele>
        <time>2025-04-04T11:57:46Z</time>
      </trkpt>
      <trkpt lat="43.76659" lon="4.69706">
        <ele>83.29</ele>
        <time>2025-04-04T11:57:51Z</time>
      </trkpt>
      <trkpt lat="43.76661" lon="4.6971">
        <ele>83.77</ele>
        <time>2025-04-04T11:57:53Z</time>
      </trkpt>
      <trkpt lat="43.76661" lon="4.69715">
        <ele>83.29</ele>
        <time>2025-04-04T11:57:56Z</time>
      </trkpt>
      <trkpt lat="43.76662" lon="4.6973">
        <ele>85.21</ele>
        <time>2025-04-04T11:58:08Z</time>
      </trkpt>
      <trkpt lat="43.7666" lon="4.69749">
        <ele>87.62</ele>
        <time>2025-04-04T11:58:22Z</time>
      </trkpt>
      <trkpt lat="43.76655" lon="4.69748">
        <ele>88.1</ele>
        <time>2025-04-04T11:58:27Z</time>
      </trkpt>
      <trkpt lat="43.76651" lon="4.69752">
        <ele>88.1</ele>
        <time>2025-04-04T11:58:32Z</time>
      </trkpt>
      <trkpt lat="43.76647" lon="4.69762">
        <ele>89.06</ele>
        <time>2025-04-04T11:58:42Z</time>
      </trkpt>
      <trkpt lat="43.76642" lon="4.69781">
        <ele>90.02</ele>
        <time>2025-04-04T11:58:57Z</time>
      </trkpt>
      <trkpt lat="43.76643" lon="4.69786">
        <ele>90.02</ele>
        <time>2025-04-04T11:59:01Z</time>
      </trkpt>
      <trkpt lat="43.76643" lon="4.69804">
        <ele>90.98</ele>
        <time>2025-04-04T11:59:16Z</time>
      </trkpt>
      <trkpt lat="43.76648" lon="4.69817">
        <ele>91.94</ele>
        <time>2025-04-04T11:59:31Z</time>
      </trkpt>
      <trkpt lat="43.76643" lon="4.69821">
        <ele>92.42</ele>
        <time>2025-04-04T11:59:48Z</time>
      </trkpt>
      <trkpt lat="43.76638" lon="4.69832">
        <ele>93.39</ele>
        <time>2025-04-04T11:59:59Z</time>
      </trkpt>
      <trkpt lat="43.76636" lon="4.69837">
        <ele>93.39</ele>
        <time>2025-04-04T12:00:04Z</time>
      </trkpt>
      <trkpt lat="43.76629" lon="4.69842">
        <ele>93.39</ele>
        <time>2025-04-04T12:00:10Z</time>
      </trkpt>
      <trkpt lat="43.76622" lon="4.69849">
        <ele>93.39</ele>
        <time>2025-04-04T12:00:17Z</time>
      </trkpt>
      <trkpt lat="43.76613" lon="4.69864">
        <ele>93.39</ele>
        <time>2025-04-04T12:00:29Z</time>
      </trkpt>
      <trkpt lat="43.76602" lon="4.69879">
        <ele>93.87</ele>
        <time>2025-04-04T12:00:44Z</time>
      </trkpt>
      <trkpt lat="43.76597" lon="4.69884">
        <ele>94.35</ele>
        <time>2025-04-04T12:00:48Z</time>
      </trkpt>
      <trkpt lat="43.76587" lon="4.69906">
        <ele>94.35</ele>
        <time>2025-04-04T12:01:03Z</time>
      </trkpt>
      <trkpt lat="43.76593" lon="4.6992">
        <ele>94.83</ele>
        <time>2025-04-04T12:01:17Z</time>
      </trkpt>
      <trkpt lat="43.76611" lon="4.69932">
        <ele>94.35</ele>
        <time>2025-04-04T12:01:36Z</time>
      </trkpt>
      <trkpt lat="43.76631" lon="4.69942">
        <ele>94.83</ele>
        <time>2025-04-04T12:01:53Z</time>
      </trkpt>
      <trkpt lat="43.76638" lon="4.69945">
        <ele>94.83</ele>
        <time>2025-04-04T12:02:00Z</time>
      </trkpt>
      <trkpt lat="43.76659" lon="4.6995">
        <ele>94.83</ele>
        <time>2025-04-04T12:02:19Z</time>
      </trkpt>
      <trkpt lat="43.76671" lon="4.6995">
        <ele>95.31</ele>
        <time>2025-04-04T12:02:31Z</time>
      </trkpt>
      <trkpt lat="43.76688" lon="4.69953">
        <ele>95.79</ele>
        <time>2025-04-04T12:02:45Z</time>
      </trkpt>
      <trkpt lat="43.76691" lon="4.69954">
        <ele>95.79</ele>
        <time>2025-04-04T12:02:47Z</time>
      </trkpt>
      <trkpt lat="43.76695" lon="4.69953">
        <ele>95.79</ele>
        <time>2025-04-04T12:02:49Z</time>
      </trkpt>
      <trkpt lat="43.76697" lon="4.69952">
        <ele>95.79</ele>
        <time>2025-04-04T12:02:51Z</time>
      </trkpt>
      <trkpt lat="43.76704" lon="4.6995">
        <ele>95.79</ele>
        <time>2025-04-04T12:02:58Z</time>
      </trkpt>
      <trkpt lat="43.76706" lon="4.6995">
        <ele>95.79</ele>
        <time>2025-04-04T12:03:00Z</time>
      </trkpt>
      <trkpt lat="43.76708" lon="4.69951">
        <ele>94.35</ele>
        <time>2025-04-04T12:03:02Z</time>
      </trkpt>
      <trkpt lat="43.76724" lon="4.69948">
        <ele>93.39</ele>
        <time>2025-04-04T12:03:18Z</time>
      </trkpt>
      <trkpt lat="43.7674" lon="4.69945">
        <ele>92.42</ele>
        <time>2025-04-04T12:03:33Z</time>
      </trkpt>
      <trkpt lat="43.76747" lon="4.69941">
        <ele>91.94</ele>
        <time>2025-04-04T12:03:39Z</time>
      </trkpt>
      <trkpt lat="43.76764" lon="4.69937">
        <ele>89.06</ele>
        <time>2025-04-04T12:03:56Z</time>
      </trkpt>
      <trkpt lat="43.7678" lon="4.69934">
        <ele>87.14</ele>
        <time>2025-04-04T12:04:08Z</time>
      </trkpt>
      <trkpt lat="43.76789" lon="4.69936">
        <ele>86.66</ele>
        <time>2025-04-04T12:04:19Z</time>
      </trkpt>
      <trkpt lat="43.7679" lon="4.69936">
        <ele>86.18</ele>
        <time>2025-04-04T12:04:20Z</time>
      </trkpt>
      <trkpt lat="43.76791" lon="4.69937">
        <ele>86.18</ele>
        <time>2025-04-04T12:04:21Z</time>
      </trkpt>
      <trkpt lat="43.76807" lon="4.69936">
        <ele>83.77</ele>
        <time>2025-04-04T12:04:38Z</time>
      </trkpt>
      <trkpt lat="43.76825" lon="4.69929">
        <ele>81.85</ele>
        <time>2025-04-04T12:04:53Z</time>
      </trkpt>
      <trkpt lat="43.76836" lon="4.69919">
        <ele>80.89</ele>
        <time>2025-04-04T12:05:04Z</time>
      </trkpt>
      <trkpt lat="43.76839" lon="4.69916">
        <ele>79.93</ele>
        <time>2025-04-04T12:05:08Z</time>
      </trkpt>
      <trkpt lat="43.7684" lon="4.69916">
        <ele>79.93</ele>
        <time>2025-04-04T12:05:09Z</time>
      </trkpt>
      <trkpt lat="43.76857" lon="4.6991">
        <ele>78.48</ele>
        <time>2025-04-04T12:05:24Z</time>
      </trkpt>
      <trkpt lat="43.76869" lon="4.69898">
        <ele>77.52</ele>
        <time>2025-04-04T12:05:38Z</time>
      </trkpt>
      <trkpt lat="43.76877" lon="4.69893">
        <ele>77.04</ele>
        <time>2025-04-04T12:05:45Z</time>
      </trkpt>
      <trkpt lat="43.76879" lon="4.69892">
        <ele>77.04</ele>
        <time>2025-04-04T12:05:46Z</time>
      </trkpt>
      <trkpt lat="43.76885" lon="4.69888">
        <ele>77.04</ele>
        <time>2025-04-04T12:05:53Z</time>
      </trkpt>
      <trkpt lat="43.76889" lon="4.69883">
        <ele>77.04</ele>
        <time>2025-04-04T12:05:58Z</time>
      </trkpt>
      <trkpt lat="43.7689" lon="4.69882">
        <ele>77.04</ele>
        <time>2025-04-04T12:05:59Z</time>
      </trkpt>
      <trkpt lat="43.76891" lon="4.69881">
        <ele>77.04</ele>
        <time>2025-04-04T12:06:00Z</time>
      </trkpt>
      <trkpt lat="43.76892" lon="4.69879">
        <ele>76.56</ele>
        <time>2025-04-04T12:06:01Z</time>
      </trkpt>
      <trkpt lat="43.76893" lon="4.69878">
        <ele>76.56</ele>
        <time>2025-04-04T12:06:02Z</time>
      </trkpt>
      <trkpt lat="43.76894" lon="4.69877">
        <ele>76.56</ele>
        <time>2025-04-04T12:06:03Z</time>
      </trkpt>
      <trkpt lat="43.76909" lon="4.69861">
        <ele>75.6</ele>
        <time>2025-04-04T12:06:22Z</time>
      </trkpt>
      <trkpt lat="43.76911" lon="4.69862">
        <ele>75.12</ele>
        <time>2025-04-04T12:06:41Z</time>
      </trkpt>
      <trkpt lat="43.76909" lon="4.69865">
        <ele>75.6</ele>
        <time>2025-04-04T12:07:04Z</time>
      </trkpt>
      <trkpt lat="43.76908" lon="4.69866">
        <ele>75.12</ele>
        <time>2025-04-04T12:07:05Z</time>
      </trkpt>
      <trkpt lat="43.76897" lon="4.69882">
        <ele>75.12</ele>
        <time>2025-04-04T12:07:20Z</time>
      </trkpt>
      <trkpt lat="43.76902" lon="4.69885">
        <ele>76.56</ele>
        <time>2025-04-04T12:07:29Z</time>
      </trkpt>
      <trkpt lat="43.76919" lon="4.69878">
        <ele>77.52</ele>
        <time>2025-04-04T12:07:45Z</time>
      </trkpt>
      <trkpt lat="43.76938" lon="4.69893">
        <ele>77.52</ele>
        <time>2025-04-04T12:08:02Z</time>
      </trkpt>
      <trkpt lat="43.76946" lon="4.6992">
        <ele>78.48</ele>
        <time>2025-04-04T12:08:18Z</time>
      </trkpt>
      <trkpt lat="43.76941" lon="4.69942">
        <ele>79.45</ele>
        <time>2025-04-04T12:08:34Z</time>
      </trkpt>
      <trkpt lat="43.76933" lon="4.69958">
        <ele>81.85</ele>
        <time>2025-04-04T12:08:46Z</time>
      </trkpt>
      <trkpt lat="43.76932" lon="4.6996">
        <ele>80.89</ele>
        <time>2025-04-04T12:08:48Z</time>
      </trkpt>
      <trkpt lat="43.7693" lon="4.69964">
        <ele>80.89</ele>
        <time>2025-04-04T12:08:52Z</time>
      </trkpt>
      <trkpt lat="43.7693" lon="4.69966">
        <ele>80.89</ele>
        <time>2025-04-04T12:08:53Z</time>
      </trkpt>
      <trkpt lat="43.76917" lon="4.69979">
        <ele>82.81</ele>
        <time>2025-04-04T12:09:07Z</time>
      </trkpt>
      <trkpt lat="43.76916" lon="4.69979">
        <ele>82.81</ele>
        <time>2025-04-04T12:09:08Z</time>
      </trkpt>
      <trkpt lat="43.76896" lon="4.69981">
        <ele>84.25</ele>
        <time>2025-04-04T12:09:26Z</time>
      </trkpt>
      <trkpt lat="43.7688" lon="4.69981">
        <ele>85.21</ele>
        <time>2025-04-04T12:09:40Z</time>
      </trkpt>
      <trkpt lat="43.76862" lon="4.69989">
        <ele>87.14</ele>
        <time>2025-04-04T12:09:57Z</time>
      </trkpt>
      <trkpt lat="43.76861" lon="4.6999">
        <ele>87.14</ele>
        <time>2025-04-04T12:09:58Z</time>
      </trkpt>
      <trkpt lat="43.76861" lon="4.69991">
        <ele>87.62</ele>
        <time>2025-04-04T12:09:59Z</time>
      </trkpt>
      <trkpt lat="43.76859" lon="4.69994">
        <ele>87.62</ele>
        <time>2025-04-04T12:10:01Z</time>
      </trkpt>
      <trkpt lat="43.76857" lon="4.69995">
        <ele>87.62</ele>
        <time>2025-04-04T12:10:03Z</time>
      </trkpt>
      <trkpt lat="43.76856" lon="4.69996">
        <ele>87.62</ele>
        <time>2025-04-04T12:10:05Z</time>
      </trkpt>
      <trkpt lat="43.76842" lon="4.70015">
        <ele>90.02</ele>
        <time>2025-04-04T12:10:23Z</time>
      </trkpt>
      <trkpt lat="43.76827" lon="4.70026">
        <ele>91.46</ele>
        <time>2025-04-04T12:10:39Z</time>
      </trkpt>
      <trkpt lat="43.76825" lon="4.70027">
        <ele>91.46</ele>
        <time>2025-04-04T12:10:41Z</time>
      </trkpt>
      <trkpt lat="43.76825" lon="4.70029">
        <ele>91.46</ele>
        <time>2025-04-04T12:10:42Z</time>
      </trkpt>
      <trkpt lat="43.76823" lon="4.7003">
        <ele>92.42</ele>
        <time>2025-04-04T12:10:43Z</time>
      </trkpt>
      <trkpt lat="43.76819" lon="4.70035">
        <ele>92.42</ele>
        <time>2025-04-04T12:10:49Z</time>
      </trkpt>
      <trkpt lat="43.76818" lon="4.70036">
        <ele>92.42</ele>
        <time>2025-04-04T12:10:50Z</time>
      </trkpt>
      <trkpt lat="43.76817" lon="4.70037">
        <ele>92.9</ele>
        <time>2025-04-04T12:10:51Z</time>
      </trkpt>
      <trkpt lat="43.76815" lon="4.70042">
        <ele>93.39</ele>
        <time>2025-04-04T12:10:55Z</time>
      </trkpt>
      <trkpt lat="43.76813" lon="4.70051">
        <ele>93.87</ele>
        <time>2025-04-04T12:11:02Z</time>
      </trkpt>
      <trkpt lat="43.76813" lon="4.70052">
        <ele>94.83</ele>
        <time>2025-04-04T12:11:03Z</time>
      </trkpt>
      <trkpt lat="43.76811" lon="4.70069">
        <ele>95.79</ele>
        <time>2025-04-04T12:11:16Z</time>
      </trkpt>
      <trkpt lat="43.76807" lon="4.7009">
        <ele>97.23</ele>
        <time>2025-04-04T12:11:30Z</time>
      </trkpt>
      <trkpt lat="43.76806" lon="4.70092">
        <ele>97.23</ele>
        <time>2025-04-04T12:11:31Z</time>
      </trkpt>
      <trkpt lat="43.76805" lon="4.70096">
        <ele>97.71</ele>
        <time>2025-04-04T12:11:34Z</time>
      </trkpt>
      <trkpt lat="43.76803" lon="4.70113">
        <ele>98.19</ele>
        <time>2025-04-04T12:11:45Z</time>
      </trkpt>
      <trkpt lat="43.76803" lon="4.70115">
        <ele>98.19</ele>
        <time>2025-04-04T12:11:46Z</time>
      </trkpt>
      <trkpt lat="43.76803" lon="4.70117">
        <ele>98.19</ele>
        <time>2025-04-04T12:11:47Z</time>
      </trkpt>
      <trkpt lat="43.76806" lon="4.70142">
        <ele>98.19</ele>
        <time>2025-04-04T12:12:03Z</time>
      </trkpt>
      <trkpt lat="43.76801" lon="4.70166">
        <ele>97.71</ele>
        <time>2025-04-04T12:12:18Z</time>
      </trkpt>
      <trkpt lat="43.76791" lon="4.70186">
        <ele>99.63</ele>
        <time>2025-04-04T12:12:34Z</time>
      </trkpt>
      <trkpt lat="43.76782" lon="4.70205">
        <ele>100.6</ele>
        <time>2025-04-04T12:12:52Z</time>
      </trkpt>
      <trkpt lat="43.76772" lon="4.70222">
        <ele>103</ele>
        <time>2025-04-04T12:13:09Z</time>
      </trkpt>
      <trkpt lat="43.76757" lon="4.7023">
        <ele>103.96</ele>
        <time>2025-04-04T12:13:24Z</time>
      </trkpt>
      <trkpt lat="43.7674" lon="4.70231">
        <ele>105.88</ele>
        <time>2025-04-04T12:13:39Z</time>
      </trkpt>
      <trkpt lat="43.7673" lon="4.70232">
        <ele>105.88</ele>
        <time>2025-04-04T12:13:47Z</time>
      </trkpt>
      <trkpt lat="43.76714" lon="4.70226">
        <ele>107.32</ele>
        <time>2025-04-04T12:14:02Z</time>
      </trkpt>
      <trkpt lat="43.76713" lon="4.70225">
        <ele>107.32</ele>
        <time>2025-04-04T12:14:03Z</time>
      </trkpt>
      <trkpt lat="43.76712" lon="4.70225">
        <ele>107.32</ele>
        <time>2025-04-04T12:14:04Z</time>
      </trkpt>
      <trkpt lat="43.7671" lon="4.70224">
        <ele>107.32</ele>
        <time>2025-04-04T12:14:05Z</time>
      </trkpt>
      <trkpt lat="43.7669" lon="4.70218">
        <ele>107.81</ele>
        <time>2025-04-04T12:14:21Z</time>
      </trkpt>
      <trkpt lat="43.76673" lon="4.70216">
        <ele>107.81</ele>
        <time>2025-04-04T12:14:35Z</time>
      </trkpt>
      <trkpt lat="43.76653" lon="4.70221">
        <ele>107.81</ele>
        <time>2025-04-04T12:14:52Z</time>
      </trkpt>
      <trkpt lat="43.76636" lon="4.70236">
        <ele>108.29</ele>
        <time>2025-04-04T12:15:09Z</time>
      </trkpt>
      <trkpt lat="43.76629" lon="4.70251">
        <ele>107.81</ele>
        <time>2025-04-04T12:15:20Z</time>
      </trkpt>
      <trkpt lat="43.76627" lon="4.70272">
        <ele>107.81</ele>
        <time>2025-04-04T12:15:33Z</time>
      </trkpt>
      <trkpt lat="43.7663" lon="4.70284">
        <ele>107.81</ele>
        <time>2025-04-04T12:15:41Z</time>
      </trkpt>
      <trkpt lat="43.76634" lon="4.70305">
        <ele>107.32</ele>
        <time>2025-04-04T12:15:53Z</time>
      </trkpt>
      <trkpt lat="43.76634" lon="4.70307">
        <ele>107.32</ele>
        <time>2025-04-04T12:15:54Z</time>
      </trkpt>
      <trkpt lat="43.76634" lon="4.70309">
        <ele>107.81</ele>
        <time>2025-04-04T12:15:55Z</time>
      </trkpt>
      <trkpt lat="43.76634" lon="4.7031">
        <ele>107.81</ele>
        <time>2025-04-04T12:15:56Z</time>
      </trkpt>
      <trkpt lat="43.76634" lon="4.70312">
        <ele>107.81</ele>
        <time>2025-04-04T12:15:57Z</time>
      </trkpt>
      <trkpt lat="43.76634" lon="4.70314">
        <ele>107.81</ele>
        <time>2025-04-04T12:15:58Z</time>
      </trkpt>
      <trkpt lat="43.76632" lon="4.7033">
        <ele>107.81</ele>
        <time>2025-04-04T12:16:08Z</time>
      </trkpt>
      <trkpt lat="43.76627" lon="4.70351">
        <ele>107.32</ele>
        <time>2025-04-04T12:16:23Z</time>
      </trkpt>
      <trkpt lat="43.76629" lon="4.70377">
        <ele>107.32</ele>
        <time>2025-04-04T12:16:40Z</time>
      </trkpt>
      <trkpt lat="43.7663" lon="4.7038">
        <ele>107.32</ele>
        <time>2025-04-04T12:16:42Z</time>
      </trkpt>
      <trkpt lat="43.7663" lon="4.70382">
        <ele>107.32</ele>
        <time>2025-04-04T12:16:43Z</time>
      </trkpt>
      <trkpt lat="43.76635" lon="4.70404">
        <ele>108.77</ele>
        <time>2025-04-04T12:16:58Z</time>
      </trkpt>
      <trkpt lat="43.76634" lon="4.70427">
        <ele>109.73</ele>
        <time>2025-04-04T12:17:16Z</time>
      </trkpt>
      <trkpt lat="43.76632" lon="4.70457">
        <ele>111.65</ele>
        <time>2025-04-04T12:17:36Z</time>
      </trkpt>
      <trkpt lat="43.76632" lon="4.70461">
        <ele>111.65</ele>
        <time>2025-04-04T12:17:39Z</time>
      </trkpt>
      <trkpt lat="43.76621" lon="4.7048">
        <ele>112.61</ele>
        <time>2025-04-04T12:17:56Z</time>
      </trkpt>
      <trkpt lat="43.7661" lon="4.70495">
        <ele>113.09</ele>
        <time>2025-04-04T12:18:12Z</time>
      </trkpt>
      <trkpt lat="43.76611" lon="4.70507">
        <ele>112.61</ele>
        <time>2025-04-04T12:18:21Z</time>
      </trkpt>
      <trkpt lat="43.76612" lon="4.70508">
        <ele>112.61</ele>
        <time>2025-04-04T12:18:22Z</time>
      </trkpt>
      <trkpt lat="43.76619" lon="4.70528">
        <ele>114.53</ele>
        <time>2025-04-04T12:18:37Z</time>
      </trkpt>
      <trkpt lat="43.76619" lon="4.70532">
        <ele>114.53</ele>
        <time>2025-04-04T12:18:40Z</time>
      </trkpt>
      <trkpt lat="43.76619" lon="4.70559">
        <ele>116.46</ele>
        <time>2025-04-04T12:19:00Z</time>
      </trkpt>
      <trkpt lat="43.76618" lon="4.70579">
        <ele>117.42</ele>
        <time>2025-04-04T12:19:15Z</time>
      </trkpt>
      <trkpt lat="43.76619" lon="4.70586">
        <ele>117.9</ele>
        <time>2025-04-04T12:19:20Z</time>
      </trkpt>
      <trkpt lat="43.76625" lon="4.70604">
        <ele>118.86</ele>
        <time>2025-04-04T12:19:34Z</time>
      </trkpt>
      <trkpt lat="43.76628" lon="4.70613">
        <ele>118.86</ele>
        <time>2025-04-04T12:19:40Z</time>
      </trkpt>
      <trkpt lat="43.76629" lon="4.70616">
        <ele>119.34</ele>
        <time>2025-04-04T12:19:43Z</time>
      </trkpt>
      <trkpt lat="43.7663" lon="4.70618">
        <ele>119.34</ele>
        <time>2025-04-04T12:19:44Z</time>
      </trkpt>
      <trkpt lat="43.76631" lon="4.7062">
        <ele>119.34</ele>
        <time>2025-04-04T12:19:45Z</time>
      </trkpt>
      <trkpt lat="43.76638" lon="4.7065">
        <ele>120.3</ele>
        <time>2025-04-04T12:20:05Z</time>
      </trkpt>
      <trkpt lat="43.76639" lon="4.70675">
        <ele>121.26</ele>
        <time>2025-04-04T12:20:21Z</time>
      </trkpt>
      <trkpt lat="43.76638" lon="4.70698">
        <ele>121.74</ele>
        <time>2025-04-04T12:20:37Z</time>
      </trkpt>
      <trkpt lat="43.76637" lon="4.70718">
        <ele>123.19</ele>
        <time>2025-04-04T12:20:51Z</time>
      </trkpt>
      <trkpt lat="43.76637" lon="4.70719">
        <ele>123.19</ele>
        <time>2025-04-04T12:20:52Z</time>
      </trkpt>
      <trkpt lat="43.76635" lon="4.70741">
        <ele>124.63</ele>
        <time>2025-04-04T12:21:08Z</time>
      </trkpt>
      <trkpt lat="43.76633" lon="4.70763">
        <ele>126.07</ele>
        <time>2025-04-04T12:21:22Z</time>
      </trkpt>
      <trkpt lat="43.76633" lon="4.70789">
        <ele>127.51</ele>
        <time>2025-04-04T12:21:39Z</time>
      </trkpt>
      <trkpt lat="43.76634" lon="4.70815">
        <ele>128.47</ele>
        <time>2025-04-04T12:21:55Z</time>
      </trkpt>
      <trkpt lat="43.76635" lon="4.70836">
        <ele>128.47</ele>
        <time>2025-04-04T12:22:09Z</time>
      </trkpt>
      <trkpt lat="43.76636" lon="4.7085">
        <ele>129.43</ele>
        <time>2025-04-04T12:22:18Z</time>
      </trkpt>
      <trkpt lat="43.76636" lon="4.70852">
        <ele>129.92</ele>
        <time>2025-04-04T12:22:19Z</time>
      </trkpt>
      <trkpt lat="43.76638" lon="4.70872">
        <ele>130.88</ele>
        <time>2025-04-04T12:22:33Z</time>
      </trkpt>
      <trkpt lat="43.76636" lon="4.70903">
        <ele>132.8</ele>
        <time>2025-04-04T12:22:52Z</time>
      </trkpt>
      <trkpt lat="43.76627" lon="4.70927">
        <ele>133.28</ele>
        <time>2025-04-04T12:23:10Z</time>
      </trkpt>
      <trkpt lat="43.76615" lon="4.70941">
        <ele>134.72</ele>
        <time>2025-04-04T12:23:25Z</time>
      </trkpt>
      <trkpt lat="43.76604" lon="4.70954">
        <ele>135.68</ele>
        <time>2025-04-04T12:23:40Z</time>
      </trkpt>
      <trkpt lat="43.76604" lon="4.70956">
        <ele>135.68</ele>
        <time>2025-04-04T12:23:41Z</time>
      </trkpt>
      <trkpt lat="43.76603" lon="4.70958">
        <ele>135.68</ele>
        <time>2025-04-04T12:23:42Z</time>
      </trkpt>
      <trkpt lat="43.76603" lon="4.7096">
        <ele>135.68</ele>
        <time>2025-04-04T12:23:43Z</time>
      </trkpt>
      <trkpt lat="43.76603" lon="4.70961">
        <ele>135.68</ele>
        <time>2025-04-04T12:23:44Z</time>
      </trkpt>
      <trkpt lat="43.76601" lon="4.70975">
        <ele>137.13</ele>
        <time>2025-04-04T12:23:53Z</time>
      </trkpt>
      <trkpt lat="43.76601" lon="4.70981">
        <ele>135.68</ele>
        <time>2025-04-04T12:23:57Z</time>
      </trkpt>
      <trkpt lat="43.76597" lon="4.71011">
        <ele>137.61</ele>
        <time>2025-04-04T12:24:16Z</time>
      </trkpt>
      <trkpt lat="43.7659" lon="4.71032">
        <ele>137.13</ele>
        <time>2025-04-04T12:24:31Z</time>
      </trkpt>
      <trkpt lat="43.76587" lon="4.71036">
        <ele>139.05</ele>
        <time>2025-04-04T12:24:35Z</time>
      </trkpt>
      <trkpt lat="43.76577" lon="4.71055">
        <ele>140.01</ele>
        <time>2025-04-04T12:24:50Z</time>
      </trkpt>
      <trkpt lat="43.76572" lon="4.71062">
        <ele>140.97</ele>
        <time>2025-04-04T12:24:57Z</time>
      </trkpt>
      <trkpt lat="43.76571" lon="4.71063">
        <ele>140.97</ele>
        <time>2025-04-04T12:24:58Z</time>
      </trkpt>
      <trkpt lat="43.7656" lon="4.71084">
        <ele>141.93</ele>
        <time>2025-04-04T12:25:14Z</time>
      </trkpt>
      <trkpt lat="43.76559" lon="4.71085">
        <ele>141.93</ele>
        <time>2025-04-04T12:25:15Z</time>
      </trkpt>
      <trkpt lat="43.76558" lon="4.71086">
        <ele>142.41</ele>
        <time>2025-04-04T12:25:16Z</time>
      </trkpt>
      <trkpt lat="43.76557" lon="4.71087">
        <ele>142.41</ele>
        <time>2025-04-04T12:25:17Z</time>
      </trkpt>
      <trkpt lat="43.76556" lon="4.71088">
        <ele>142.41</ele>
        <time>2025-04-04T12:25:18Z</time>
      </trkpt>
      <trkpt lat="43.76555" lon="4.71088">
        <ele>142.41</ele>
        <time>2025-04-04T12:25:19Z</time>
      </trkpt>
      <trkpt lat="43.76544" lon="4.71101">
        <ele>144.34</ele>
        <time>2025-04-04T12:25:34Z</time>
      </trkpt>
      <trkpt lat="43.76543" lon="4.71103">
        <ele>144.34</ele>
        <time>2025-04-04T12:25:35Z</time>
      </trkpt>
      <trkpt lat="43.76532" lon="4.71117">
        <ele>145.78</ele>
        <time>2025-04-04T12:25:49Z</time>
      </trkpt>
      <trkpt lat="43.76527" lon="4.71124">
        <ele>146.74</ele>
        <time>2025-04-04T12:26:03Z</time>
      </trkpt>
      <trkpt lat="43.76517" lon="4.7114">
        <ele>148.18</ele>
        <time>2025-04-04T12:26:17Z</time>
      </trkpt>
      <trkpt lat="43.76508" lon="4.71156">
        <ele>149.62</ele>
        <time>2025-04-04T12:26:31Z</time>
      </trkpt>
      <trkpt lat="43.76496" lon="4.71172">
        <ele>151.06</ele>
        <time>2025-04-04T12:26:47Z</time>
      </trkpt>
      <trkpt lat="43.76486" lon="4.71188">
        <ele>151.06</ele>
        <time>2025-04-04T12:27:01Z</time>
      </trkpt>
      <trkpt lat="43.76473" lon="4.71203">
        <ele>152.99</ele>
        <time>2025-04-04T12:27:16Z</time>
      </trkpt>
      <trkpt lat="43.76472" lon="4.71204">
        <ele>152.99</ele>
        <time>2025-04-04T12:27:17Z</time>
      </trkpt>
      <trkpt lat="43.76462" lon="4.71215">
        <ele>153.47</ele>
        <time>2025-04-04T12:27:29Z</time>
      </trkpt>
      <trkpt lat="43.76455" lon="4.71229">
        <ele>153.95</ele>
        <time>2025-04-04T12:27:43Z</time>
      </trkpt>
      <trkpt lat="43.76449" lon="4.71235">
        <ele>152.99</ele>
        <time>2025-04-04T12:27:57Z</time>
      </trkpt>
      <trkpt lat="43.76449" lon="4.71235">
        <ele>152.99</ele>
        <time>2025-04-04T12:27:58Z</time>
      </trkpt>
      <trkpt lat="43.76449" lon="4.71235">
        <ele>153.47</ele>
        <time>2025-04-04T12:28:06Z</time>
      </trkpt>
      <trkpt lat="43.76447" lon="4.71233">
        <ele>153.95</ele>
        <time>2025-04-04T12:28:20Z</time>
      </trkpt>
      <trkpt lat="43.76447" lon="4.71231">
        <ele>153.47</ele>
        <time>2025-04-04T12:28:35Z</time>
      </trkpt>
      <trkpt lat="43.76444" lon="4.71231">
        <ele>152.99</ele>
        <time>2025-04-04T12:28:56Z</time>
      </trkpt>
      <trkpt lat="43.76446" lon="4.71231">
        <ele>152.99</ele>
        <time>2025-04-04T12:29:13Z</time>
      </trkpt>
      <trkpt lat="43.76446" lon="4.71231">
        <ele>153.95</ele>
        <time>2025-04-04T12:29:27Z</time>
      </trkpt>
      <trkpt lat="43.76447" lon="4.71232">
        <ele>153.95</ele>
        <time>2025-04-04T12:29:42Z</time>
      </trkpt>
      <trkpt lat="43.76446" lon="4.71231">
        <ele>153.47</ele>
        <time>2025-04-04T12:30:01Z</time>
      </trkpt>
      <trkpt lat="43.76451" lon="4.71234">
        <ele>153.47</ele>
        <time>2025-04-04T12:30:24Z</time>
      </trkpt>
      <trkpt lat="43.7645" lon="4.71239">
        <ele>153.47</ele>
        <time>2025-04-04T12:30:29Z</time>
      </trkpt>
      <trkpt lat="43.76448" lon="4.71247">
        <ele>152.99</ele>
        <time>2025-04-04T12:30:35Z</time>
      </trkpt>
      <trkpt lat="43.76447" lon="4.71249">
        <ele>152.99</ele>
        <time>2025-04-04T12:30:36Z</time>
      </trkpt>
      <trkpt lat="43.76447" lon="4.71251">
        <ele>152.99</ele>
        <time>2025-04-04T12:30:37Z</time>
      </trkpt>
      <trkpt lat="43.76443" lon="4.7127">
        <ele>152.99</ele>
        <time>2025-04-04T12:30:50Z</time>
      </trkpt>
      <trkpt lat="43.76441" lon="4.7129">
        <ele>153.47</ele>
        <time>2025-04-04T12:31:02Z</time>
      </trkpt>
      <trkpt lat="43.76437" lon="4.7131">
        <ele>153.95</ele>
        <time>2025-04-04T12:31:16Z</time>
      </trkpt>
      <trkpt lat="43.76435" lon="4.71332">
        <ele>154.43</ele>
        <time>2025-04-04T12:31:30Z</time>
      </trkpt>
      <trkpt lat="43.76432" lon="4.7135">
        <ele>154.91</ele>
        <time>2025-04-04T12:31:42Z</time>
      </trkpt>
      <trkpt lat="43.76432" lon="4.71351">
        <ele>154.91</ele>
        <time>2025-04-04T12:31:43Z</time>
      </trkpt>
      <trkpt lat="43.76432" lon="4.71353">
        <ele>154.91</ele>
        <time>2025-04-04T12:31:44Z</time>
      </trkpt>
      <trkpt lat="43.76431" lon="4.71374">
        <ele>155.39</ele>
        <time>2025-04-04T12:31:58Z</time>
      </trkpt>
      <trkpt lat="43.76431" lon="4.71377">
        <ele>155.39</ele>
        <time>2025-04-04T12:32:00Z</time>
      </trkpt>
      <trkpt lat="43.76431" lon="4.71378">
        <ele>155.87</ele>
        <time>2025-04-04T12:32:01Z</time>
      </trkpt>
      <trkpt lat="43.76431" lon="4.7138">
        <ele>155.87</ele>
        <time>2025-04-04T12:32:02Z</time>
      </trkpt>
      <trkpt lat="43.76431" lon="4.71399">
        <ele>156.35</ele>
        <time>2025-04-04T12:32:15Z</time>
      </trkpt>
      <trkpt lat="43.76429" lon="4.71424">
        <ele>157.31</ele>
        <time>2025-04-04T12:32:31Z</time>
      </trkpt>
      <trkpt lat="43.76427" lon="4.71438">
        <ele>157.31</ele>
        <time>2025-04-04T12:32:41Z</time>
      </trkpt>
      <trkpt lat="43.76426" lon="4.71439">
        <ele>157.31</ele>
        <time>2025-04-04T12:32:42Z</time>
      </trkpt>
      <trkpt lat="43.76423" lon="4.7146">
        <ele>158.27</ele>
        <time>2025-04-04T12:32:57Z</time>
      </trkpt>
      <trkpt lat="43.76421" lon="4.71479">
        <ele>159.24</ele>
        <time>2025-04-04T12:33:10Z</time>
      </trkpt>
      <trkpt lat="43.76419" lon="4.715">
        <ele>160.2</ele>
        <time>2025-04-04T12:33:24Z</time>
      </trkpt>
      <trkpt lat="43.76419" lon="4.7152">
        <ele>161.64</ele>
        <time>2025-04-04T12:33:38Z</time>
      </trkpt>
      <trkpt lat="43.76413" lon="4.71536">
        <ele>162.12</ele>
        <time>2025-04-04T12:33:52Z</time>
      </trkpt>
      <trkpt lat="43.76404" lon="4.7155">
        <ele>162.6</ele>
        <time>2025-04-04T12:34:05Z</time>
      </trkpt>
      <trkpt lat="43.76397" lon="4.71566">
        <ele>164.04</ele>
        <time>2025-04-04T12:34:17Z</time>
      </trkpt>
      <trkpt lat="43.76385" lon="4.71581">
        <ele>164.52</ele>
        <time>2025-04-04T12:34:34Z</time>
      </trkpt>
      <trkpt lat="43.76372" lon="4.71599">
        <ele>165</ele>
        <time>2025-04-04T12:34:50Z</time>
      </trkpt>
      <trkpt lat="43.76357" lon="4.71619">
        <ele>165.96</ele>
        <time>2025-04-04T12:35:07Z</time>
      </trkpt>
      <trkpt lat="43.76345" lon="4.71634">
        <ele>166.45</ele>
        <time>2025-04-04T12:35:21Z</time>
      </trkpt>
      <trkpt lat="43.76334" lon="4.71646">
        <ele>167.41</ele>
        <time>2025-04-04T12:35:35Z</time>
      </trkpt>
      <trkpt lat="43.76333" lon="4.71648">
        <ele>167.41</ele>
        <time>2025-04-04T12:35:37Z</time>
      </trkpt>
      <trkpt lat="43.7632" lon="4.71658">
        <ele>167.89</ele>
        <time>2025-04-04T12:35:50Z</time>
      </trkpt>
      <trkpt lat="43.7631" lon="4.71675">
        <ele>168.85</ele>
        <time>2025-04-04T12:36:04Z</time>
      </trkpt>
      <trkpt lat="43.76298" lon="4.71696">
        <ele>169.33</ele>
        <time>2025-04-04T12:36:22Z</time>
      </trkpt>
      <trkpt lat="43.76296" lon="4.717">
        <ele>169.33</ele>
        <time>2025-04-04T12:36:25Z</time>
      </trkpt>
      <trkpt lat="43.76291" lon="4.71721">
        <ele>170.29</ele>
        <time>2025-04-04T12:36:40Z</time>
      </trkpt>
      <trkpt lat="43.76286" lon="4.71742">
        <ele>171.25</ele>
        <time>2025-04-04T12:36:54Z</time>
      </trkpt>
      <trkpt lat="43.76286" lon="4.71744">
        <ele>171.25</ele>
        <time>2025-04-04T12:36:55Z</time>
      </trkpt>
      <trkpt lat="43.76285" lon="4.71746">
        <ele>170.77</ele>
        <time>2025-04-04T12:36:57Z</time>
      </trkpt>
      <trkpt lat="43.76285" lon="4.71748">
        <ele>171.25</ele>
        <time>2025-04-04T12:36:58Z</time>
      </trkpt>
      <trkpt lat="43.76283" lon="4.7176">
        <ele>171.25</ele>
        <time>2025-04-04T12:37:05Z</time>
      </trkpt>
      <trkpt lat="43.76281" lon="4.71767">
        <ele>172.21</ele>
        <time>2025-04-04T12:37:10Z</time>
      </trkpt>
      <trkpt lat="43.76277" lon="4.7179">
        <ele>172.69</ele>
        <time>2025-04-04T12:37:25Z</time>
      </trkpt>
      <trkpt lat="43.76273" lon="4.71805">
        <ele>173.66</ele>
        <time>2025-04-04T12:37:36Z</time>
      </trkpt>
      <trkpt lat="43.76269" lon="4.71819">
        <ele>174.62</ele>
        <time>2025-04-04T12:37:45Z</time>
      </trkpt>
      <trkpt lat="43.76265" lon="4.71842">
        <ele>175.58</ele>
        <time>2025-04-04T12:38:00Z</time>
      </trkpt>
      <trkpt lat="43.76263" lon="4.71861">
        <ele>176.54</ele>
        <time>2025-04-04T12:38:14Z</time>
      </trkpt>
      <trkpt lat="43.76261" lon="4.71874">
        <ele>177.02</ele>
        <time>2025-04-04T12:38:23Z</time>
      </trkpt>
      <trkpt lat="43.76261" lon="4.71875">
        <ele>177.02</ele>
        <time>2025-04-04T12:38:24Z</time>
      </trkpt>
      <trkpt lat="43.76257" lon="4.71892">
        <ele>177.98</ele>
        <time>2025-04-04T12:38:36Z</time>
      </trkpt>
      <trkpt lat="43.76254" lon="4.71914">
        <ele>178.46</ele>
        <time>2025-04-04T12:38:50Z</time>
      </trkpt>
      <trkpt lat="43.76253" lon="4.71919">
        <ele>178.46</ele>
        <time>2025-04-04T12:38:54Z</time>
      </trkpt>
      <trkpt lat="43.76252" lon="4.71921">
        <ele>178.94</ele>
        <time>2025-04-04T12:38:55Z</time>
      </trkpt>
      <trkpt lat="43.76248" lon="4.71947">
        <ele>178.94</ele>
        <time>2025-04-04T12:39:12Z</time>
      </trkpt>
      <trkpt lat="43.76241" lon="4.71969">
        <ele>180.38</ele>
        <time>2025-04-04T12:39:29Z</time>
      </trkpt>
      <trkpt lat="43.76231" lon="4.71982">
        <ele>180.87</ele>
        <time>2025-04-04T12:39:41Z</time>
      </trkpt>
      <trkpt lat="43.76215" lon="4.71995">
        <ele>182.31</ele>
        <time>2025-04-04T12:39:56Z</time>
      </trkpt>
      <trkpt lat="43.76208" lon="4.72004">
        <ele>182.79</ele>
        <time>2025-04-04T12:40:06Z</time>
      </trkpt>
      <trkpt lat="43.76205" lon="4.7201">
        <ele>183.27</ele>
        <time>2025-04-04T12:40:11Z</time>
      </trkpt>
      <trkpt lat="43.76204" lon="4.72011">
        <ele>183.27</ele>
        <time>2025-04-04T12:40:12Z</time>
      </trkpt>
      <trkpt lat="43.76203" lon="4.72011">
        <ele>183.27</ele>
        <time>2025-04-04T12:40:13Z</time>
      </trkpt>
      <trkpt lat="43.76201" lon="4.72016">
        <ele>183.75</ele>
        <time>2025-04-04T12:40:18Z</time>
      </trkpt>
      <trkpt lat="43.76193" lon="4.72036">
        <ele>185.67</ele>
        <time>2025-04-04T12:40:35Z</time>
      </trkpt>
      <trkpt lat="43.76189" lon="4.72055">
        <ele>187.11</ele>
        <time>2025-04-04T12:40:51Z</time>
      </trkpt>
      <trkpt lat="43.76189" lon="4.72067">
        <ele>187.59</ele>
        <time>2025-04-04T12:41:01Z</time>
      </trkpt>
      <trkpt lat="43.76189" lon="4.72068">
        <ele>188.08</ele>
        <time>2025-04-04T12:41:02Z</time>
      </trkpt>
      <trkpt lat="43.7619" lon="4.7207">
        <ele>187.59</ele>
        <time>2025-04-04T12:41:03Z</time>
      </trkpt>
      <trkpt lat="43.7619" lon="4.72074">
        <ele>188.08</ele>
        <time>2025-04-04T12:41:06Z</time>
      </trkpt>
      <trkpt lat="43.76193" lon="4.72098">
        <ele>189.52</ele>
        <time>2025-04-04T12:41:24Z</time>
      </trkpt>
      <trkpt lat="43.76194" lon="4.72109">
        <ele>190</ele>
        <time>2025-04-04T12:41:33Z</time>
      </trkpt>
      <trkpt lat="43.76194" lon="4.72129">
        <ele>190.96</ele>
        <time>2025-04-04T12:41:47Z</time>
      </trkpt>
      <trkpt lat="43.76194" lon="4.72142">
        <ele>191.44</ele>
        <time>2025-04-04T12:41:55Z</time>
      </trkpt>
      <trkpt lat="43.76195" lon="4.72164">
        <ele>191.92</ele>
        <time>2025-04-04T12:42:11Z</time>
      </trkpt>
      <trkpt lat="43.76196" lon="4.72172">
        <ele>192.4</ele>
        <time>2025-04-04T12:42:17Z</time>
      </trkpt>
      <trkpt lat="43.76196" lon="4.72173">
        <ele>192.4</ele>
        <time>2025-04-04T12:42:18Z</time>
      </trkpt>
      <trkpt lat="43.76197" lon="4.72187">
        <ele>193.36</ele>
        <time>2025-04-04T12:42:33Z</time>
      </trkpt>
      <trkpt lat="43.76198" lon="4.72187">
        <ele>193.84</ele>
        <time>2025-04-04T12:42:46Z</time>
      </trkpt>
      <trkpt lat="43.76198" lon="4.72191">
        <ele>193.84</ele>
        <time>2025-04-04T12:42:58Z</time>
      </trkpt>
      <trkpt lat="43.76198" lon="4.72193">
        <ele>193.84</ele>
        <time>2025-04-04T12:42:59Z</time>
      </trkpt>
      <trkpt lat="43.76198" lon="4.72194">
        <ele>193.84</ele>
        <time>2025-04-04T12:43:00Z</time>
      </trkpt>
      <trkpt lat="43.76199" lon="4.72198">
        <ele>193.84</ele>
        <time>2025-04-04T12:43:13Z</time>
      </trkpt>
      <trkpt lat="43.76197" lon="4.72203">
        <ele>193.84</ele>
        <time>2025-04-04T12:43:24Z</time>
      </trkpt>
      <trkpt lat="43.76196" lon="4.72211">
        <ele>193.84</ele>
        <time>2025-04-04T12:43:32Z</time>
      </trkpt>
      <trkpt lat="43.76195" lon="4.72217">
        <ele>193.84</ele>
        <time>2025-04-04T12:43:36Z</time>
      </trkpt>
      <trkpt lat="43.76196" lon="4.72238">
        <ele>194.8</ele>
        <time>2025-04-04T12:43:52Z</time>
      </trkpt>
      <trkpt lat="43.76195" lon="4.72241">
        <ele>195.28</ele>
        <time>2025-04-04T12:43:54Z</time>
      </trkpt>
      <trkpt lat="43.76195" lon="4.72244">
        <ele>195.28</ele>
        <time>2025-04-04T12:43:56Z</time>
      </trkpt>
      <trkpt lat="43.76195" lon="4.72256">
        <ele>196.25</ele>
        <time>2025-04-04T12:44:04Z</time>
      </trkpt>
      <trkpt lat="43.76196" lon="4.72258">
        <ele>196.25</ele>
        <time>2025-04-04T12:44:05Z</time>
      </trkpt>
      <trkpt lat="43.76196" lon="4.7226">
        <ele>196.25</ele>
        <time>2025-04-04T12:44:06Z</time>
      </trkpt>
      <trkpt lat="43.76196" lon="4.72261">
        <ele>196.25</ele>
        <time>2025-04-04T12:44:07Z</time>
      </trkpt>
      <trkpt lat="43.76195" lon="4.72281">
        <ele>197.21</ele>
        <time>2025-04-04T12:44:21Z</time>
      </trkpt>
      <trkpt lat="43.76195" lon="4.72305">
        <ele>197.69</ele>
        <time>2025-04-04T12:44:36Z</time>
      </trkpt>
      <trkpt lat="43.76193" lon="4.72326">
        <ele>198.17</ele>
        <time>2025-04-04T12:44:51Z</time>
      </trkpt>
      <trkpt lat="43.76193" lon="4.72329">
        <ele>198.17</ele>
        <time>2025-04-04T12:44:53Z</time>
      </trkpt>
      <trkpt lat="43.76193" lon="4.72331">
        <ele>198.17</ele>
        <time>2025-04-04T12:44:54Z</time>
      </trkpt>
      <trkpt lat="43.76193" lon="4.72333">
        <ele>198.65</ele>
        <time>2025-04-04T12:44:55Z</time>
      </trkpt>
      <trkpt lat="43.76192" lon="4.72345">
        <ele>198.17</ele>
        <time>2025-04-04T12:45:02Z</time>
      </trkpt>
      <trkpt lat="43.76192" lon="4.72347">
        <ele>198.65</ele>
        <time>2025-04-04T12:45:03Z</time>
      </trkpt>
      <trkpt lat="43.76192" lon="4.72349">
        <ele>198.65</ele>
        <time>2025-04-04T12:45:04Z</time>
      </trkpt>
      <trkpt lat="43.76192" lon="4.72351">
        <ele>198.65</ele>
        <time>2025-04-04T12:45:05Z</time>
      </trkpt>
      <trkpt lat="43.76193" lon="4.72353">
        <ele>199.13</ele>
        <time>2025-04-04T12:45:06Z</time>
      </trkpt>
      <trkpt lat="43.76193" lon="4.72355">
        <ele>199.13</ele>
        <time>2025-04-04T12:45:07Z</time>
      </trkpt>
      <trkpt lat="43.76193" lon="4.72377">
        <ele>200.09</ele>
        <time>2025-04-04T12:45:21Z</time>
      </trkpt>
      <trkpt lat="43.76192" lon="4.72384">
        <ele>200.09</ele>
        <time>2025-04-04T12:45:27Z</time>
      </trkpt>
      <trkpt lat="43.76192" lon="4.72386">
        <ele>200.57</ele>
        <time>2025-04-04T12:45:28Z</time>
      </trkpt>
      <trkpt lat="43.76192" lon="4.72388">
        <ele>200.57</ele>
        <time>2025-04-04T12:45:29Z</time>
      </trkpt>
      <trkpt lat="43.76192" lon="4.72389">
        <ele>200.57</ele>
        <time>2025-04-04T12:45:30Z</time>
      </trkpt>
      <trkpt lat="43.76192" lon="4.72391">
        <ele>200.57</ele>
        <time>2025-04-04T12:45:31Z</time>
      </trkpt>
      <trkpt lat="43.76192" lon="4.72395">
        <ele>200.57</ele>
        <time>2025-04-04T12:45:33Z</time>
      </trkpt>
      <trkpt lat="43.76192" lon="4.72397">
        <ele>200.57</ele>
        <time>2025-04-04T12:45:35Z</time>
      </trkpt>
      <trkpt lat="43.76189" lon="4.72419">
        <ele>201.53</ele>
        <time>2025-04-04T12:45:49Z</time>
      </trkpt>
      <trkpt lat="43.76186" lon="4.72446">
        <ele>202.01</ele>
        <time>2025-04-04T12:46:06Z</time>
      </trkpt>
      <trkpt lat="43.76182" lon="4.72461">
        <ele>202.49</ele>
        <time>2025-04-04T12:46:15Z</time>
      </trkpt>
      <trkpt lat="43.76183" lon="4.72467">
        <ele>202.49</ele>
        <time>2025-04-04T12:46:19Z</time>
      </trkpt>
      <trkpt lat="43.76181" lon="4.72473">
        <ele>202.49</ele>
        <time>2025-04-04T12:46:23Z</time>
      </trkpt>
      <trkpt lat="43.76181" lon="4.72474">
        <ele>202.49</ele>
        <time>2025-04-04T12:46:24Z</time>
      </trkpt>
      <trkpt lat="43.76182" lon="4.72476">
        <ele>202.98</ele>
        <time>2025-04-04T12:46:25Z</time>
      </trkpt>
      <trkpt lat="43.76182" lon="4.72478">
        <ele>202.98</ele>
        <time>2025-04-04T12:46:26Z</time>
      </trkpt>
      <trkpt lat="43.76182" lon="4.7248">
        <ele>203.46</ele>
        <time>2025-04-04T12:46:27Z</time>
      </trkpt>
      <trkpt lat="43.76186" lon="4.72504">
        <ele>202.98</ele>
        <time>2025-04-04T12:46:42Z</time>
      </trkpt>
      <trkpt lat="43.76189" lon="4.72522">
        <ele>202.98</ele>
        <time>2025-04-04T12:46:56Z</time>
      </trkpt>
      <trkpt lat="43.76191" lon="4.72543">
        <ele>202.98</ele>
        <time>2025-04-04T12:47:10Z</time>
      </trkpt>
      <trkpt lat="43.76189" lon="4.72562">
        <ele>202.98</ele>
        <time>2025-04-04T12:47:22Z</time>
      </trkpt>
      <trkpt lat="43.76188" lon="4.72565">
        <ele>201.53</ele>
        <time>2025-04-04T12:47:25Z</time>
      </trkpt>
      <trkpt lat="43.76181" lon="4.72588">
        <ele>200.57</ele>
        <time>2025-04-04T12:47:40Z</time>
      </trkpt>
      <trkpt lat="43.76176" lon="4.72606">
        <ele>199.61</ele>
        <time>2025-04-04T12:47:53Z</time>
      </trkpt>
      <trkpt lat="43.76172" lon="4.72612">
        <ele>199.13</ele>
        <time>2025-04-04T12:48:04Z</time>
      </trkpt>
      <trkpt lat="43.76171" lon="4.72613">
        <ele>199.13</ele>
        <time>2025-04-04T12:48:05Z</time>
      </trkpt>
      <trkpt lat="43.76167" lon="4.72618">
        <ele>199.13</ele>
        <time>2025-04-04T12:48:10Z</time>
      </trkpt>
      <trkpt lat="43.76167" lon="4.7262">
        <ele>199.13</ele>
        <time>2025-04-04T12:48:11Z</time>
      </trkpt>
      <trkpt lat="43.76166" lon="4.72621">
        <ele>199.13</ele>
        <time>2025-04-04T12:48:12Z</time>
      </trkpt>
      <trkpt lat="43.76165" lon="4.72623">
        <ele>199.13</ele>
        <time>2025-04-04T12:48:13Z</time>
      </trkpt>
      <trkpt lat="43.76164" lon="4.72624">
        <ele>198.65</ele>
        <time>2025-04-04T12:48:14Z</time>
      </trkpt>
      <trkpt lat="43.76152" lon="4.72636">
        <ele>197.69</ele>
        <time>2025-04-04T12:48:26Z</time>
      </trkpt>
      <trkpt lat="43.76143" lon="4.72644">
        <ele>197.21</ele>
        <time>2025-04-04T12:48:37Z</time>
      </trkpt>
      <trkpt lat="43.76142" lon="4.72645">
        <ele>197.21</ele>
        <time>2025-04-04T12:48:38Z</time>
      </trkpt>
      <trkpt lat="43.76128" lon="4.72657">
        <ele>196.25</ele>
        <time>2025-04-04T12:48:55Z</time>
      </trkpt>
      <trkpt lat="43.76113" lon="4.72664">
        <ele>194.8</ele>
        <time>2025-04-04T12:49:10Z</time>
      </trkpt>
      <trkpt lat="43.76094" lon="4.72668">
        <ele>194.8</ele>
        <time>2025-04-04T12:49:28Z</time>
      </trkpt>
      <trkpt lat="43.76082" lon="4.72676">
        <ele>195.77</ele>
        <time>2025-04-04T12:49:40Z</time>
      </trkpt>
      <trkpt lat="43.76067" lon="4.7269">
        <ele>196.25</ele>
        <time>2025-04-04T12:49:57Z</time>
      </trkpt>
      <trkpt lat="43.76066" lon="4.72691">
        <ele>196.73</ele>
        <time>2025-04-04T12:49:58Z</time>
      </trkpt>
      <trkpt lat="43.76065" lon="4.72692">
        <ele>196.73</ele>
        <time>2025-04-04T12:49:59Z</time>
      </trkpt>
      <trkpt lat="43.76061" lon="4.72695">
        <ele>196.73</ele>
        <time>2025-04-04T12:50:03Z</time>
      </trkpt>
      <trkpt lat="43.7606" lon="4.72695">
        <ele>196.73</ele>
        <time>2025-04-04T12:50:04Z</time>
      </trkpt>
      <trkpt lat="43.76057" lon="4.72698">
        <ele>197.21</ele>
        <time>2025-04-04T12:50:08Z</time>
      </trkpt>
      <trkpt lat="43.76046" lon="4.72707">
        <ele>197.69</ele>
        <time>2025-04-04T12:50:24Z</time>
      </trkpt>
      <trkpt lat="43.76052" lon="4.72703">
        <ele>197.69</ele>
        <time>2025-04-04T12:50:37Z</time>
      </trkpt>
      <trkpt lat="43.76057" lon="4.72698">
        <ele>197.69</ele>
        <time>2025-04-04T12:50:45Z</time>
      </trkpt>
      <trkpt lat="43.76068" lon="4.72689">
        <ele>195.77</ele>
        <time>2025-04-04T12:50:59Z</time>
      </trkpt>
      <trkpt lat="43.76068" lon="4.72688">
        <ele>195.77</ele>
        <time>2025-04-04T12:51:00Z</time>
      </trkpt>
      <trkpt lat="43.76069" lon="4.72687">
        <ele>196.25</ele>
        <time>2025-04-04T12:51:01Z</time>
      </trkpt>
      <trkpt lat="43.7607" lon="4.72686">
        <ele>195.77</ele>
        <time>2025-04-04T12:51:02Z</time>
      </trkpt>
      <trkpt lat="43.76074" lon="4.72681">
        <ele>195.77</ele>
        <time>2025-04-04T12:51:08Z</time>
      </trkpt>
      <trkpt lat="43.76074" lon="4.7268">
        <ele>195.77</ele>
        <time>2025-04-04T12:51:09Z</time>
      </trkpt>
      <trkpt lat="43.76082" lon="4.72673">
        <ele>195.28</ele>
        <time>2025-04-04T12:51:18Z</time>
      </trkpt>
      <trkpt lat="43.76095" lon="4.7267">
        <ele>194.8</ele>
        <time>2025-04-04T12:51:31Z</time>
      </trkpt>
      <trkpt lat="43.76095" lon="4.72686">
        <ele>193.84</ele>
        <time>2025-04-04T12:51:47Z</time>
      </trkpt>
      <trkpt lat="43.76094" lon="4.72688">
        <ele>193.84</ele>
        <time>2025-04-04T12:51:49Z</time>
      </trkpt>
      <trkpt lat="43.76093" lon="4.72689">
        <ele>193.36</ele>
        <time>2025-04-04T12:51:50Z</time>
      </trkpt>
      <trkpt lat="43.76093" lon="4.7269">
        <ele>193.36</ele>
        <time>2025-04-04T12:51:51Z</time>
      </trkpt>
      <trkpt lat="43.76084" lon="4.72702">
        <ele>191.92</ele>
        <time>2025-04-04T12:52:02Z</time>
      </trkpt>
      <trkpt lat="43.76083" lon="4.72703">
        <ele>191.44</ele>
        <time>2025-04-04T12:52:03Z</time>
      </trkpt>
      <trkpt lat="43.76082" lon="4.72704">
        <ele>191.44</ele>
        <time>2025-04-04T12:52:04Z</time>
      </trkpt>
      <trkpt lat="43.76081" lon="4.72704">
        <ele>191.44</ele>
        <time>2025-04-04T12:52:05Z</time>
      </trkpt>
      <trkpt lat="43.7608" lon="4.72705">
        <ele>191.44</ele>
        <time>2025-04-04T12:52:06Z</time>
      </trkpt>
      <trkpt lat="43.76061" lon="4.72718">
        <ele>190</ele>
        <time>2025-04-04T12:52:25Z</time>
      </trkpt>
      <trkpt lat="43.76053" lon="4.72725">
        <ele>189.52</ele>
        <time>2025-04-04T12:52:34Z</time>
      </trkpt>
      <trkpt lat="43.76052" lon="4.72726">
        <ele>189.52</ele>
        <time>2025-04-04T12:52:35Z</time>
      </trkpt>
      <trkpt lat="43.76037" lon="4.72738">
        <ele>188.56</ele>
        <time>2025-04-04T12:52:51Z</time>
      </trkpt>
      <trkpt lat="43.76032" lon="4.72744">
        <ele>188.56</ele>
        <time>2025-04-04T12:52:57Z</time>
      </trkpt>
      <trkpt lat="43.76031" lon="4.72744">
        <ele>188.56</ele>
        <time>2025-04-04T12:52:58Z</time>
      </trkpt>
      <trkpt lat="43.76018" lon="4.72761">
        <ele>188.56</ele>
        <time>2025-04-04T12:53:13Z</time>
      </trkpt>
      <trkpt lat="43.76012" lon="4.72769">
        <ele>188.08</ele>
        <time>2025-04-04T12:53:21Z</time>
      </trkpt>
      <trkpt lat="43.7601" lon="4.72771">
        <ele>188.08</ele>
        <time>2025-04-04T12:53:23Z</time>
      </trkpt>
      <trkpt lat="43.76009" lon="4.72772">
        <ele>188.08</ele>
        <time>2025-04-04T12:53:24Z</time>
      </trkpt>
      <trkpt lat="43.75991" lon="4.72788">
        <ele>187.11</ele>
        <time>2025-04-04T12:53:43Z</time>
      </trkpt>
      <trkpt lat="43.75968" lon="4.72797">
        <ele>185.67</ele>
        <time>2025-04-04T12:54:04Z</time>
      </trkpt>
      <trkpt lat="43.75953" lon="4.72806">
        <ele>185.19</ele>
        <time>2025-04-04T12:54:19Z</time>
      </trkpt>
      <trkpt lat="43.75934" lon="4.72817">
        <ele>183.75</ele>
        <time>2025-04-04T12:54:37Z</time>
      </trkpt>
      <trkpt lat="43.75913" lon="4.72828">
        <ele>181.83</ele>
        <time>2025-04-04T12:54:57Z</time>
      </trkpt>
      <trkpt lat="43.75909" lon="4.72829">
        <ele>181.35</ele>
        <time>2025-04-04T12:55:00Z</time>
      </trkpt>
      <trkpt lat="43.7589" lon="4.72839">
        <ele>179.42</ele>
        <time>2025-04-04T12:55:18Z</time>
      </trkpt>
      <trkpt lat="43.7587" lon="4.72855">
        <ele>178.46</ele>
        <time>2025-04-04T12:55:38Z</time>
      </trkpt>
      <trkpt lat="43.75858" lon="4.72864">
        <ele>175.58</ele>
        <time>2025-04-04T12:55:50Z</time>
      </trkpt>
      <trkpt lat="43.75856" lon="4.72866">
        <ele>177.02</ele>
        <time>2025-04-04T12:55:53Z</time>
      </trkpt>
      <trkpt lat="43.7585" lon="4.72871">
        <ele>175.58</ele>
        <time>2025-04-04T12:55:58Z</time>
      </trkpt>
      <trkpt lat="43.75839" lon="4.72885">
        <ele>174.14</ele>
        <time>2025-04-04T12:56:12Z</time>
      </trkpt>
      <trkpt lat="43.75831" lon="4.729">
        <ele>173.66</ele>
        <time>2025-04-04T12:56:25Z</time>
      </trkpt>
      <trkpt lat="43.75827" lon="4.72908">
        <ele>172.21</ele>
        <time>2025-04-04T12:56:30Z</time>
      </trkpt>
      <trkpt lat="43.75818" lon="4.72924">
        <ele>171.73</ele>
        <time>2025-04-04T12:56:44Z</time>
      </trkpt>
      <trkpt lat="43.75809" lon="4.72945">
        <ele>169.81</ele>
        <time>2025-04-04T12:57:01Z</time>
      </trkpt>
      <trkpt lat="43.75809" lon="4.72956">
        <ele>169.81</ele>
        <time>2025-04-04T12:57:08Z</time>
      </trkpt>
      <trkpt lat="43.75805" lon="4.72976">
        <ele>168.37</ele>
        <time>2025-04-04T12:57:21Z</time>
      </trkpt>
      <trkpt lat="43.75795" lon="4.73002">
        <ele>166.93</ele>
        <time>2025-04-04T12:57:38Z</time>
      </trkpt>
      <trkpt lat="43.75784" lon="4.73031">
        <ele>165.96</ele>
        <time>2025-04-04T12:57:57Z</time>
      </trkpt>
      <trkpt lat="43.75774" lon="4.73053">
        <ele>164.52</ele>
        <time>2025-04-04T12:58:13Z</time>
      </trkpt>
      <trkpt lat="43.75765" lon="4.7307">
        <ele>164.04</ele>
        <time>2025-04-04T12:58:30Z</time>
      </trkpt>
      <trkpt lat="43.75753" lon="4.73081">
        <ele>162.6</ele>
        <time>2025-04-04T12:58:41Z</time>
      </trkpt>
      <trkpt lat="43.75742" lon="4.73088">
        <ele>162.6</ele>
        <time>2025-04-04T12:58:52Z</time>
      </trkpt>
      <trkpt lat="43.75728" lon="4.73095">
        <ele>160.68</ele>
        <time>2025-04-04T12:59:06Z</time>
      </trkpt>
      <trkpt lat="43.75719" lon="4.73101">
        <ele>159.24</ele>
        <time>2025-04-04T12:59:19Z</time>
      </trkpt>
      <trkpt lat="43.75718" lon="4.73101">
        <ele>161.16</ele>
        <time>2025-04-04T12:59:21Z</time>
      </trkpt>
      <trkpt lat="43.75713" lon="4.73102">
        <ele>160.2</ele>
        <time>2025-04-04T12:59:40Z</time>
      </trkpt>
      <trkpt lat="43.75703" lon="4.73111">
        <ele>158.75</ele>
        <time>2025-04-04T12:59:55Z</time>
      </trkpt>
      <trkpt lat="43.75703" lon="4.73121">
        <ele>157.79</ele>
        <time>2025-04-04T13:00:09Z</time>
      </trkpt>
      <trkpt lat="43.75705" lon="4.73122">
        <ele>157.79</ele>
        <time>2025-04-04T13:00:22Z</time>
      </trkpt>
      <trkpt lat="43.75705" lon="4.73123">
        <ele>157.79</ele>
        <time>2025-04-04T13:00:37Z</time>
      </trkpt>
      <trkpt lat="43.75702" lon="4.73122">
        <ele>157.79</ele>
        <time>2025-04-04T13:00:54Z</time>
      </trkpt>
      <trkpt lat="43.75695" lon="4.73121">
        <ele>158.27</ele>
        <time>2025-04-04T13:01:12Z</time>
      </trkpt>
      <trkpt lat="43.75691" lon="4.73121">
        <ele>158.75</ele>
        <time>2025-04-04T13:01:16Z</time>
      </trkpt>
      <trkpt lat="43.75689" lon="4.73121">
        <ele>158.75</ele>
        <time>2025-04-04T13:01:18Z</time>
      </trkpt>
      <trkpt lat="43.75674" lon="4.73119">
        <ele>159.72</ele>
        <time>2025-04-04T13:01:32Z</time>
      </trkpt>
      <trkpt lat="43.75657" lon="4.73112">
        <ele>159.72</ele>
        <time>2025-04-04T13:01:50Z</time>
      </trkpt>
      <trkpt lat="43.75647" lon="4.7311">
        <ele>160.68</ele>
        <time>2025-04-04T13:01:59Z</time>
      </trkpt>
      <trkpt lat="43.75632" lon="4.73098">
        <ele>161.16</ele>
        <time>2025-04-04T13:02:16Z</time>
      </trkpt>
      <trkpt lat="43.75627" lon="4.73093">
        <ele>161.16</ele>
        <time>2025-04-04T13:02:21Z</time>
      </trkpt>
      <trkpt lat="43.75626" lon="4.73092">
        <ele>161.16</ele>
        <time>2025-04-04T13:02:22Z</time>
      </trkpt>
      <trkpt lat="43.75606" lon="4.73079">
        <ele>161.64</ele>
        <time>2025-04-04T13:02:39Z</time>
      </trkpt>
      <trkpt lat="43.75586" lon="4.73071">
        <ele>161.64</ele>
        <time>2025-04-04T13:02:58Z</time>
      </trkpt>
      <trkpt lat="43.75578" lon="4.73065">
        <ele>161.64</ele>
        <time>2025-04-04T13:03:15Z</time>
      </trkpt>
      <trkpt lat="43.75567" lon="4.73055">
        <ele>161.64</ele>
        <time>2025-04-04T13:03:29Z</time>
      </trkpt>
      <trkpt lat="43.75551" lon="4.73045">
        <ele>160.2</ele>
        <time>2025-04-04T13:03:47Z</time>
      </trkpt>
      <trkpt lat="43.7555" lon="4.73045">
        <ele>160.2</ele>
        <time>2025-04-04T13:03:49Z</time>
      </trkpt>
      <trkpt lat="43.75549" lon="4.73044">
        <ele>160.2</ele>
        <time>2025-04-04T13:03:51Z</time>
      </trkpt>
      <trkpt lat="43.75532" lon="4.73036">
        <ele>157.31</ele>
        <time>2025-04-04T13:04:07Z</time>
      </trkpt>
      <trkpt lat="43.75531" lon="4.73036">
        <ele>157.79</ele>
        <time>2025-04-04T13:04:08Z</time>
      </trkpt>
      <trkpt lat="43.75525" lon="4.73034">
        <ele>159.24</ele>
        <time>2025-04-04T13:04:14Z</time>
      </trkpt>
      <trkpt lat="43.75518" lon="4.73034">
        <ele>157.79</ele>
        <time>2025-04-04T13:04:19Z</time>
      </trkpt>
      <trkpt lat="43.75508" lon="4.73032">
        <ele>157.79</ele>
        <time>2025-04-04T13:04:29Z</time>
      </trkpt>
      <trkpt lat="43.75506" lon="4.73032">
        <ele>157.31</ele>
        <time>2025-04-04T13:04:30Z</time>
      </trkpt>
      <trkpt lat="43.7549" lon="4.73027">
        <ele>156.83</ele>
        <time>2025-04-04T13:04:43Z</time>
      </trkpt>
      <trkpt lat="43.75485" lon="4.73026">
        <ele>156.35</ele>
        <time>2025-04-04T13:04:47Z</time>
      </trkpt>
      <trkpt lat="43.75477" lon="4.73021">
        <ele>155.39</ele>
        <time>2025-04-04T13:04:57Z</time>
      </trkpt>
      <trkpt lat="43.75476" lon="4.7302">
        <ele>155.39</ele>
        <time>2025-04-04T13:04:58Z</time>
      </trkpt>
      <trkpt lat="43.75474" lon="4.73019">
        <ele>155.39</ele>
        <time>2025-04-04T13:04:59Z</time>
      </trkpt>
      <trkpt lat="43.75463" lon="4.73011">
        <ele>153.95</ele>
        <time>2025-04-04T13:05:09Z</time>
      </trkpt>
      <trkpt lat="43.75449" lon="4.73004">
        <ele>151.54</ele>
        <time>2025-04-04T13:05:23Z</time>
      </trkpt>
      <trkpt lat="43.75439" lon="4.72998">
        <ele>149.62</ele>
        <time>2025-04-04T13:05:34Z</time>
      </trkpt>
      <trkpt lat="43.75438" lon="4.72997">
        <ele>149.62</ele>
        <time>2025-04-04T13:05:35Z</time>
      </trkpt>
      <trkpt lat="43.75436" lon="4.72997">
        <ele>149.62</ele>
        <time>2025-04-04T13:05:36Z</time>
      </trkpt>
      <trkpt lat="43.75435" lon="4.72996">
        <ele>149.62</ele>
        <time>2025-04-04T13:05:37Z</time>
      </trkpt>
      <trkpt lat="43.75434" lon="4.72995">
        <ele>148.66</ele>
        <time>2025-04-04T13:05:38Z</time>
      </trkpt>
      <trkpt lat="43.75428" lon="4.72992">
        <ele>148.66</ele>
        <time>2025-04-04T13:05:44Z</time>
      </trkpt>
      <trkpt lat="43.75423" lon="4.72989">
        <ele>147.22</ele>
        <time>2025-04-04T13:05:49Z</time>
      </trkpt>
      <trkpt lat="43.75422" lon="4.72989">
        <ele>147.22</ele>
        <time>2025-04-04T13:05:50Z</time>
      </trkpt>
      <trkpt lat="43.75421" lon="4.72987">
        <ele>147.22</ele>
        <time>2025-04-04T13:06:01Z</time>
      </trkpt>
      <trkpt lat="43.75415" lon="4.72986">
        <ele>146.26</ele>
        <time>2025-04-04T13:06:29Z</time>
      </trkpt>
      <trkpt lat="43.75412" lon="4.72985">
        <ele>145.78</ele>
        <time>2025-04-04T13:06:43Z</time>
      </trkpt>
      <trkpt lat="43.75399" lon="4.7298">
        <ele>143.85</ele>
        <time>2025-04-04T13:06:57Z</time>
      </trkpt>
      <trkpt lat="43.75393" lon="4.7298">
        <ele>143.37</ele>
        <time>2025-04-04T13:07:14Z</time>
      </trkpt>
      <trkpt lat="43.75387" lon="4.7298">
        <ele>142.41</ele>
        <time>2025-04-04T13:07:21Z</time>
      </trkpt>
      <trkpt lat="43.75386" lon="4.72979">
        <ele>142.41</ele>
        <time>2025-04-04T13:07:22Z</time>
      </trkpt>
      <trkpt lat="43.75375" lon="4.72981">
        <ele>141.45</ele>
        <time>2025-04-04T13:07:37Z</time>
      </trkpt>
      <trkpt lat="43.75362" lon="4.72977">
        <ele>139.53</ele>
        <time>2025-04-04T13:07:51Z</time>
      </trkpt>
      <trkpt lat="43.75351" lon="4.72973">
        <ele>138.09</ele>
        <time>2025-04-04T13:08:03Z</time>
      </trkpt>
      <trkpt lat="43.75343" lon="4.72967">
        <ele>136.64</ele>
        <time>2025-04-04T13:08:13Z</time>
      </trkpt>
      <trkpt lat="43.75342" lon="4.72966">
        <ele>136.64</ele>
        <time>2025-04-04T13:08:14Z</time>
      </trkpt>
      <trkpt lat="43.75338" lon="4.72963">
        <ele>135.68</ele>
        <time>2025-04-04T13:08:18Z</time>
      </trkpt>
      <trkpt lat="43.75333" lon="4.72958">
        <ele>135.68</ele>
        <time>2025-04-04T13:08:25Z</time>
      </trkpt>
      <trkpt lat="43.75331" lon="4.72957">
        <ele>134.72</ele>
        <time>2025-04-04T13:08:26Z</time>
      </trkpt>
      <trkpt lat="43.75329" lon="4.72955">
        <ele>134.24</ele>
        <time>2025-04-04T13:08:29Z</time>
      </trkpt>
      <trkpt lat="43.75328" lon="4.72954">
        <ele>134.24</ele>
        <time>2025-04-04T13:08:30Z</time>
      </trkpt>
      <trkpt lat="43.75326" lon="4.72952">
        <ele>133.76</ele>
        <time>2025-04-04T13:08:32Z</time>
      </trkpt>
      <trkpt lat="43.75318" lon="4.72939">
        <ele>131.84</ele>
        <time>2025-04-04T13:08:45Z</time>
      </trkpt>
      <trkpt lat="43.75313" lon="4.72935">
        <ele>130.88</ele>
        <time>2025-04-04T13:08:54Z</time>
      </trkpt>
      <trkpt lat="43.75301" lon="4.7293">
        <ele>129.92</ele>
        <time>2025-04-04T13:09:06Z</time>
      </trkpt>
      <trkpt lat="43.75289" lon="4.72922">
        <ele>127.03</ele>
        <time>2025-04-04T13:09:20Z</time>
      </trkpt>
      <trkpt lat="43.75283" lon="4.7292">
        <ele>127.03</ele>
        <time>2025-04-04T13:09:34Z</time>
      </trkpt>
      <trkpt lat="43.75281" lon="4.7292">
        <ele>126.55</ele>
        <time>2025-04-04T13:09:36Z</time>
      </trkpt>
      <trkpt lat="43.75275" lon="4.72915">
        <ele>126.07</ele>
        <time>2025-04-04T13:09:51Z</time>
      </trkpt>
      <trkpt lat="43.75269" lon="4.72911">
        <ele>124.63</ele>
        <time>2025-04-04T13:10:01Z</time>
      </trkpt>
      <trkpt lat="43.75263" lon="4.72908">
        <ele>124.15</ele>
        <time>2025-04-04T13:10:13Z</time>
      </trkpt>
      <trkpt lat="43.75258" lon="4.729">
        <ele>123.19</ele>
        <time>2025-04-04T13:10:35Z</time>
      </trkpt>
      <trkpt lat="43.75246" lon="4.72892">
        <ele>121.26</ele>
        <time>2025-04-04T13:10:49Z</time>
      </trkpt>
      <trkpt lat="43.75244" lon="4.7289">
        <ele>120.3</ele>
        <time>2025-04-04T13:10:51Z</time>
      </trkpt>
      <trkpt lat="43.75232" lon="4.72882">
        <ele>119.34</ele>
        <time>2025-04-04T13:11:04Z</time>
      </trkpt>
      <trkpt lat="43.75224" lon="4.72875">
        <ele>117.42</ele>
        <time>2025-04-04T13:11:20Z</time>
      </trkpt>
      <trkpt lat="43.75213" lon="4.72861">
        <ele>115.98</ele>
        <time>2025-04-04T13:11:36Z</time>
      </trkpt>
      <trkpt lat="43.75211" lon="4.72855">
        <ele>115.01</ele>
        <time>2025-04-04T13:11:49Z</time>
      </trkpt>
      <trkpt lat="43.75207" lon="4.72847">
        <ele>114.05</ele>
        <time>2025-04-04T13:12:03Z</time>
      </trkpt>
      <trkpt lat="43.75199" lon="4.72842">
        <ele>113.09</ele>
        <time>2025-04-04T13:12:17Z</time>
      </trkpt>
      <trkpt lat="43.752" lon="4.7284">
        <ele>113.09</ele>
        <time>2025-04-04T13:12:30Z</time>
      </trkpt>
      <trkpt lat="43.75196" lon="4.72843">
        <ele>112.61</ele>
        <time>2025-04-04T13:12:51Z</time>
      </trkpt>
      <trkpt lat="43.75193" lon="4.72841">
        <ele>111.65</ele>
        <time>2025-04-04T13:13:07Z</time>
      </trkpt>
      <trkpt lat="43.75191" lon="4.72841">
        <ele>111.65</ele>
        <time>2025-04-04T13:13:10Z</time>
      </trkpt>
      <trkpt lat="43.75182" lon="4.72839">
        <ele>109.25</ele>
        <time>2025-04-04T13:13:23Z</time>
      </trkpt>
      <trkpt lat="43.75172" lon="4.72831">
        <ele>108.77</ele>
        <time>2025-04-04T13:13:37Z</time>
      </trkpt>
      <trkpt lat="43.75164" lon="4.72822">
        <ele>108.77</ele>
        <time>2025-04-04T13:13:53Z</time>
      </trkpt>
      <trkpt lat="43.75159" lon="4.72811">
        <ele>108.77</ele>
        <time>2025-04-04T13:14:05Z</time>
      </trkpt>
      <trkpt lat="43.75151" lon="4.72796">
        <ele>109.73</ele>
        <time>2025-04-04T13:14:19Z</time>
      </trkpt>
      <trkpt lat="43.75143" lon="4.72779">
        <ele>110.69</ele>
        <time>2025-04-04T13:14:33Z</time>
      </trkpt>
      <trkpt lat="43.7514" lon="4.72772">
        <ele>111.17</ele>
        <time>2025-04-04T13:14:45Z</time>
      </trkpt>
      <trkpt lat="43.75139" lon="4.72772">
        <ele>112.61</ele>
        <time>2025-04-04T13:14:50Z</time>
      </trkpt>
      <trkpt lat="43.75139" lon="4.72772">
        <ele>110.69</ele>
        <time>2025-04-04T13:14:52Z</time>
      </trkpt>
      <trkpt lat="43.7514" lon="4.72772">
        <ele>112.61</ele>
        <time>2025-04-04T13:14:56Z</time>
      </trkpt>
      <trkpt lat="43.7514" lon="4.72773">
        <ele>111.17</ele>
        <time>2025-04-04T13:15:00Z</time>
      </trkpt>
      <trkpt lat="43.7514" lon="4.72774">
        <ele>111.17</ele>
        <time>2025-04-04T13:15:18Z</time>
      </trkpt>
      <trkpt lat="43.75139" lon="4.72774">
        <ele>110.69</ele>
        <time>2025-04-04T13:15:32Z</time>
      </trkpt>
      <trkpt lat="43.75139" lon="4.72777">
        <ele>110.69</ele>
        <time>2025-04-04T13:15:54Z</time>
      </trkpt>
      <trkpt lat="43.75137" lon="4.72774">
        <ele>111.65</ele>
        <time>2025-04-04T13:16:06Z</time>
      </trkpt>
      <trkpt lat="43.75137" lon="4.72772">
        <ele>111.65</ele>
        <time>2025-04-04T13:16:19Z</time>
      </trkpt>
      <trkpt lat="43.75138" lon="4.72769">
        <ele>112.61</ele>
        <time>2025-04-04T13:16:37Z</time>
      </trkpt>
      <trkpt lat="43.75135" lon="4.72768">
        <ele>112.61</ele>
        <time>2025-04-04T13:17:00Z</time>
      </trkpt>
      <trkpt lat="43.75134" lon="4.72762">
        <ele>113.09</ele>
        <time>2025-04-04T13:17:06Z</time>
      </trkpt>
      <trkpt lat="43.75129" lon="4.72751">
        <ele>115.01</ele>
        <time>2025-04-04T13:17:18Z</time>
      </trkpt>
      <trkpt lat="43.75121" lon="4.72736">
        <ele>117.42</ele>
        <time>2025-04-04T13:17:34Z</time>
      </trkpt>
      <trkpt lat="43.75114" lon="4.72724">
        <ele>118.86</ele>
        <time>2025-04-04T13:17:48Z</time>
      </trkpt>
      <trkpt lat="43.75113" lon="4.7272">
        <ele>119.34</ele>
        <time>2025-04-04T13:17:52Z</time>
      </trkpt>
      <trkpt lat="43.75109" lon="4.72708">
        <ele>121.26</ele>
        <time>2025-04-04T13:18:05Z</time>
      </trkpt>
      <trkpt lat="43.75108" lon="4.72705">
        <ele>121.74</ele>
        <time>2025-04-04T13:18:09Z</time>
      </trkpt>
      <trkpt lat="43.75106" lon="4.727">
        <ele>122.22</ele>
        <time>2025-04-04T13:18:13Z</time>
      </trkpt>
      <trkpt lat="43.75105" lon="4.72697">
        <ele>122.22</ele>
        <time>2025-04-04T13:18:15Z</time>
      </trkpt>
      <trkpt lat="43.75101" lon="4.72692">
        <ele>122.71</ele>
        <time>2025-04-04T13:18:20Z</time>
      </trkpt>
      <trkpt lat="43.75098" lon="4.7268">
        <ele>124.63</ele>
        <time>2025-04-04T13:18:30Z</time>
      </trkpt>
      <trkpt lat="43.75098" lon="4.72671">
        <ele>126.07</ele>
        <time>2025-04-04T13:18:42Z</time>
      </trkpt>
      <trkpt lat="43.751" lon="4.72668">
        <ele>126.07</ele>
        <time>2025-04-04T13:18:46Z</time>
      </trkpt>
      <trkpt lat="43.75106" lon="4.72661">
        <ele>127.99</ele>
        <time>2025-04-04T13:18:59Z</time>
      </trkpt>
      <trkpt lat="43.7511" lon="4.72649">
        <ele>128.95</ele>
        <time>2025-04-04T13:19:12Z</time>
      </trkpt>
      <trkpt lat="43.75114" lon="4.72643">
        <ele>128.47</ele>
        <time>2025-04-04T13:19:26Z</time>
      </trkpt>
      <trkpt lat="43.75121" lon="4.72642">
        <ele>128.47</ele>
        <time>2025-04-04T13:19:40Z</time>
      </trkpt>
      <trkpt lat="43.75122" lon="4.72642">
        <ele>128.47</ele>
        <time>2025-04-04T13:19:41Z</time>
      </trkpt>
      <trkpt lat="43.7513" lon="4.72643">
        <ele>129.92</ele>
        <time>2025-04-04T13:19:53Z</time>
      </trkpt>
      <trkpt lat="43.75135" lon="4.72645">
        <ele>130.88</ele>
        <time>2025-04-04T13:20:01Z</time>
      </trkpt>
      <trkpt lat="43.75137" lon="4.72645">
        <ele>130.88</ele>
        <time>2025-04-04T13:20:02Z</time>
      </trkpt>
      <trkpt lat="43.75144" lon="4.72648">
        <ele>130.88</ele>
        <time>2025-04-04T13:20:09Z</time>
      </trkpt>
      <trkpt lat="43.75148" lon="4.7265">
        <ele>130.88</ele>
        <time>2025-04-04T13:20:14Z</time>
      </trkpt>
      <trkpt lat="43.75153" lon="4.72653">
        <ele>131.36</ele>
        <time>2025-04-04T13:20:20Z</time>
      </trkpt>
      <trkpt lat="43.75166" lon="4.72669">
        <ele>132.8</ele>
        <time>2025-04-04T13:20:36Z</time>
      </trkpt>
      <trkpt lat="43.75167" lon="4.72671">
        <ele>132.8</ele>
        <time>2025-04-04T13:20:38Z</time>
      </trkpt>
      <trkpt lat="43.75171" lon="4.72678">
        <ele>133.76</ele>
        <time>2025-04-04T13:20:44Z</time>
      </trkpt>
      <trkpt lat="43.75178" lon="4.7269">
        <ele>135.2</ele>
        <time>2025-04-04T13:20:56Z</time>
      </trkpt>
      <trkpt lat="43.75183" lon="4.727">
        <ele>137.13</ele>
        <time>2025-04-04T13:21:07Z</time>
      </trkpt>
      <trkpt lat="43.75191" lon="4.72713">
        <ele>139.05</ele>
        <time>2025-04-04T13:21:21Z</time>
      </trkpt>
      <trkpt lat="43.75196" lon="4.72724">
        <ele>140.01</ele>
        <time>2025-04-04T13:21:35Z</time>
      </trkpt>
      <trkpt lat="43.75201" lon="4.72737">
        <ele>142.41</ele>
        <time>2025-04-04T13:21:48Z</time>
      </trkpt>
      <trkpt lat="43.75206" lon="4.72746">
        <ele>143.85</ele>
        <time>2025-04-04T13:21:58Z</time>
      </trkpt>
      <trkpt lat="43.7521" lon="4.72752">
        <ele>144.34</ele>
        <time>2025-04-04T13:22:09Z</time>
      </trkpt>
      <trkpt lat="43.75213" lon="4.72759">
        <ele>145.78</ele>
        <time>2025-04-04T13:22:23Z</time>
      </trkpt>
      <trkpt lat="43.75217" lon="4.72766">
        <ele>146.74</ele>
        <time>2025-04-04T13:22:37Z</time>
      </trkpt>
      <trkpt lat="43.75219" lon="4.7277">
        <ele>147.22</ele>
        <time>2025-04-04T13:22:43Z</time>
      </trkpt>
      <trkpt lat="43.75226" lon="4.72777">
        <ele>148.66</ele>
        <time>2025-04-04T13:22:56Z</time>
      </trkpt>
      <trkpt lat="43.75231" lon="4.72781">
        <ele>150.1</ele>
        <time>2025-04-04T13:23:05Z</time>
      </trkpt>
      <trkpt lat="43.75232" lon="4.72782">
        <ele>150.1</ele>
        <time>2025-04-04T13:23:06Z</time>
      </trkpt>
      <trkpt lat="43.75236" lon="4.72787">
        <ele>151.54</ele>
        <time>2025-04-04T13:23:18Z</time>
      </trkpt>
      <trkpt lat="43.75242" lon="4.72791">
        <ele>152.99</ele>
        <time>2025-04-04T13:23:30Z</time>
      </trkpt>
      <trkpt lat="43.75243" lon="4.72791">
        <ele>152.99</ele>
        <time>2025-04-04T13:23:31Z</time>
      </trkpt>
      <trkpt lat="43.75248" lon="4.72795">
        <ele>153.95</ele>
        <time>2025-04-04T13:23:40Z</time>
      </trkpt>
      <trkpt lat="43.7525" lon="4.72795">
        <ele>153.95</ele>
        <time>2025-04-04T13:23:41Z</time>
      </trkpt>
      <trkpt lat="43.75258" lon="4.72801">
        <ele>155.87</ele>
        <time>2025-04-04T13:23:54Z</time>
      </trkpt>
      <trkpt lat="43.75265" lon="4.72803">
        <ele>156.83</ele>
        <time>2025-04-04T13:24:05Z</time>
      </trkpt>
      <trkpt lat="43.75268" lon="4.72804">
        <ele>157.31</ele>
        <time>2025-04-04T13:24:08Z</time>
      </trkpt>
      <trkpt lat="43.75271" lon="4.72805">
        <ele>158.27</ele>
        <time>2025-04-04T13:24:13Z</time>
      </trkpt>
      <trkpt lat="43.75276" lon="4.72806">
        <ele>159.72</ele>
        <time>2025-04-04T13:24:24Z</time>
      </trkpt>
      <trkpt lat="43.75277" lon="4.72807">
        <ele>159.72</ele>
        <time>2025-04-04T13:24:36Z</time>
      </trkpt>
      <trkpt lat="43.75279" lon="4.72806">
        <ele>159.72</ele>
        <time>2025-04-04T13:24:57Z</time>
      </trkpt>
      <trkpt lat="43.75286" lon="4.7281">
        <ele>160.2</ele>
        <time>2025-04-04T13:25:13Z</time>
      </trkpt>
      <trkpt lat="43.75286" lon="4.72809">
        <ele>160.2</ele>
        <time>2025-04-04T13:25:34Z</time>
      </trkpt>
      <trkpt lat="43.75296" lon="4.72815">
        <ele>161.64</ele>
        <time>2025-04-04T13:25:52Z</time>
      </trkpt>
      <trkpt lat="43.75305" lon="4.72817">
        <ele>163.56</ele>
        <time>2025-04-04T13:26:06Z</time>
      </trkpt>
      <trkpt lat="43.75314" lon="4.7282">
        <ele>165</ele>
        <time>2025-04-04T13:26:18Z</time>
      </trkpt>
      <trkpt lat="43.75324" lon="4.72822">
        <ele>167.89</ele>
        <time>2025-04-04T13:26:33Z</time>
      </trkpt>
      <trkpt lat="43.75334" lon="4.72826">
        <ele>168.85</ele>
        <time>2025-04-04T13:26:48Z</time>
      </trkpt>
      <trkpt lat="43.75348" lon="4.72827">
        <ele>171.25</ele>
        <time>2025-04-04T13:27:06Z</time>
      </trkpt>
      <trkpt lat="43.75363" lon="4.72829">
        <ele>173.17</ele>
        <time>2025-04-04T13:27:23Z</time>
      </trkpt>
      <trkpt lat="43.75378" lon="4.72834">
        <ele>175.1</ele>
        <time>2025-04-04T13:27:40Z</time>
      </trkpt>
      <trkpt lat="43.75391" lon="4.72837">
        <ele>177.02</ele>
        <time>2025-04-04T13:27:55Z</time>
      </trkpt>
      <trkpt lat="43.75405" lon="4.72839">
        <ele>178.94</ele>
        <time>2025-04-04T13:28:11Z</time>
      </trkpt>
      <trkpt lat="43.75419" lon="4.72845">
        <ele>180.38</ele>
        <time>2025-04-04T13:28:26Z</time>
      </trkpt>
      <trkpt lat="43.75435" lon="4.72849">
        <ele>181.35</ele>
        <time>2025-04-04T13:28:46Z</time>
      </trkpt>
      <trkpt lat="43.75446" lon="4.72851">
        <ele>182.79</ele>
        <time>2025-04-04T13:28:58Z</time>
      </trkpt>
      <trkpt lat="43.75459" lon="4.72854">
        <ele>184.23</ele>
        <time>2025-04-04T13:29:14Z</time>
      </trkpt>
      <trkpt lat="43.75461" lon="4.72854">
        <ele>184.23</ele>
        <time>2025-04-04T13:29:16Z</time>
      </trkpt>
      <trkpt lat="43.75463" lon="4.72855">
        <ele>184.23</ele>
        <time>2025-04-04T13:29:17Z</time>
      </trkpt>
      <trkpt lat="43.75473" lon="4.72861">
        <ele>185.19</ele>
        <time>2025-04-04T13:29:30Z</time>
      </trkpt>
      <trkpt lat="43.75484" lon="4.72866">
        <ele>186.15</ele>
        <time>2025-04-04T13:29:43Z</time>
      </trkpt>
      <trkpt lat="43.75493" lon="4.72871">
        <ele>186.63</ele>
        <time>2025-04-04T13:29:52Z</time>
      </trkpt>
      <trkpt lat="43.75496" lon="4.72873">
        <ele>187.59</ele>
        <time>2025-04-04T13:29:56Z</time>
      </trkpt>
      <trkpt lat="43.75498" lon="4.72874">
        <ele>187.59</ele>
        <time>2025-04-04T13:29:58Z</time>
      </trkpt>
      <trkpt lat="43.75499" lon="4.72875">
        <ele>187.59</ele>
        <time>2025-04-04T13:29:59Z</time>
      </trkpt>
      <trkpt lat="43.755" lon="4.72875">
        <ele>187.59</ele>
        <time>2025-04-04T13:30:00Z</time>
      </trkpt>
      <trkpt lat="43.75511" lon="4.72883">
        <ele>188.56</ele>
        <time>2025-04-04T13:30:15Z</time>
      </trkpt>
      <trkpt lat="43.75525" lon="4.72894">
        <ele>190.48</ele>
        <time>2025-04-04T13:30:31Z</time>
      </trkpt>
      <trkpt lat="43.75534" lon="4.72901">
        <ele>190.96</ele>
        <time>2025-04-04T13:30:46Z</time>
      </trkpt>
      <trkpt lat="43.75537" lon="4.72907">
        <ele>191.44</ele>
        <time>2025-04-04T13:31:00Z</time>
      </trkpt>
      <trkpt lat="43.7554" lon="4.72907">
        <ele>191.92</ele>
        <time>2025-04-04T13:31:28Z</time>
      </trkpt>
      <trkpt lat="43.7554" lon="4.72907">
        <ele>192.4</ele>
        <time>2025-04-04T13:32:03Z</time>
      </trkpt>
      <trkpt lat="43.75543" lon="4.72905">
        <ele>192.4</ele>
        <time>2025-04-04T13:32:21Z</time>
      </trkpt>
      <trkpt lat="43.7555" lon="4.7291">
        <ele>192.88</ele>
        <time>2025-04-04T13:32:37Z</time>
      </trkpt>
      <trkpt lat="43.75556" lon="4.72911">
        <ele>193.36</ele>
        <time>2025-04-04T13:32:58Z</time>
      </trkpt>
      <trkpt lat="43.75553" lon="4.72915">
        <ele>193.36</ele>
        <time>2025-04-04T13:33:19Z</time>
      </trkpt>
      <trkpt lat="43.75555" lon="4.72912">
        <ele>193.36</ele>
        <time>2025-04-04T13:33:36Z</time>
      </trkpt>
      <trkpt lat="43.75562" lon="4.72898">
        <ele>192.88</ele>
        <time>2025-04-04T13:33:49Z</time>
      </trkpt>
      <trkpt lat="43.75568" lon="4.72895">
        <ele>192.88</ele>
        <time>2025-04-04T13:33:56Z</time>
      </trkpt>
      <trkpt lat="43.75569" lon="4.72894">
        <ele>192.88</ele>
        <time>2025-04-04T13:33:57Z</time>
      </trkpt>
      <trkpt lat="43.7557" lon="4.72894">
        <ele>192.88</ele>
        <time>2025-04-04T13:33:58Z</time>
      </trkpt>
      <trkpt lat="43.75583" lon="4.72888">
        <ele>194.32</ele>
        <time>2025-04-04T13:34:14Z</time>
      </trkpt>
      <trkpt lat="43.75588" lon="4.72886">
        <ele>194.32</ele>
        <time>2025-04-04T13:34:20Z</time>
      </trkpt>
      <trkpt lat="43.75604" lon="4.7288">
        <ele>195.77</ele>
        <time>2025-04-04T13:34:35Z</time>
      </trkpt>
      <trkpt lat="43.75617" lon="4.72874">
        <ele>196.25</ele>
        <time>2025-04-04T13:34:50Z</time>
      </trkpt>
      <trkpt lat="43.75632" lon="4.72871">
        <ele>196.73</ele>
        <time>2025-04-04T13:35:03Z</time>
      </trkpt>
      <trkpt lat="43.75654" lon="4.72862">
        <ele>196.73</ele>
        <time>2025-04-04T13:35:22Z</time>
      </trkpt>
      <trkpt lat="43.75663" lon="4.72859">
        <ele>197.21</ele>
        <time>2025-04-04T13:35:36Z</time>
      </trkpt>
      <trkpt lat="43.75659" lon="4.7286">
        <ele>196.73</ele>
        <time>2025-04-04T13:35:41Z</time>
      </trkpt>
      <trkpt lat="43.75659" lon="4.72863">
        <ele>196.73</ele>
        <time>2025-04-04T13:35:53Z</time>
      </trkpt>
      <trkpt lat="43.75659" lon="4.72859">
        <ele>196.73</ele>
        <time>2025-04-04T13:36:15Z</time>
      </trkpt>
      <trkpt lat="43.75659" lon="4.72861">
        <ele>196.73</ele>
        <time>2025-04-04T13:36:32Z</time>
      </trkpt>
      <trkpt lat="43.75665" lon="4.72857">
        <ele>196.73</ele>
        <time>2025-04-04T13:36:43Z</time>
      </trkpt>
      <trkpt lat="43.75672" lon="4.72855">
        <ele>196.73</ele>
        <time>2025-04-04T13:36:54Z</time>
      </trkpt>
      <trkpt lat="43.75682" lon="4.72851">
        <ele>196.25</ele>
        <time>2025-04-04T13:37:08Z</time>
      </trkpt>
      <trkpt lat="43.75692" lon="4.72847">
        <ele>196.25</ele>
        <time>2025-04-04T13:37:19Z</time>
      </trkpt>
      <trkpt lat="43.75693" lon="4.72846">
        <ele>196.25</ele>
        <time>2025-04-04T13:37:20Z</time>
      </trkpt>
      <trkpt lat="43.75704" lon="4.72841">
        <ele>196.25</ele>
        <time>2025-04-04T13:37:36Z</time>
      </trkpt>
      <trkpt lat="43.75716" lon="4.72836">
        <ele>197.69</ele>
        <time>2025-04-04T13:37:49Z</time>
      </trkpt>
      <trkpt lat="43.75732" lon="4.72832">
        <ele>197.69</ele>
        <time>2025-04-04T13:38:05Z</time>
      </trkpt>
      <trkpt lat="43.75745" lon="4.72826">
        <ele>197.69</ele>
        <time>2025-04-04T13:38:18Z</time>
      </trkpt>
      <trkpt lat="43.75746" lon="4.72825">
        <ele>197.69</ele>
        <time>2025-04-04T13:38:19Z</time>
      </trkpt>
      <trkpt lat="43.75747" lon="4.72818">
        <ele>197.69</ele>
        <time>2025-04-04T13:38:24Z</time>
      </trkpt>
      <trkpt lat="43.75744" lon="4.7281">
        <ele>197.69</ele>
        <time>2025-04-04T13:38:30Z</time>
      </trkpt>
      <trkpt lat="43.75721" lon="4.72806">
        <ele>197.69</ele>
        <time>2025-04-04T13:38:51Z</time>
      </trkpt>
      <trkpt lat="43.75713" lon="4.72805">
        <ele>196.25</ele>
        <time>2025-04-04T13:38:58Z</time>
      </trkpt>
      <trkpt lat="43.75695" lon="4.728">
        <ele>195.77</ele>
        <time>2025-04-04T13:39:15Z</time>
      </trkpt>
      <trkpt lat="43.75679" lon="4.72789">
        <ele>195.28</ele>
        <time>2025-04-04T13:39:32Z</time>
      </trkpt>
      <trkpt lat="43.75662" lon="4.72775">
        <ele>194.8</ele>
        <time>2025-04-04T13:39:49Z</time>
      </trkpt>
      <trkpt lat="43.7564" lon="4.72757">
        <ele>193.84</ele>
        <time>2025-04-04T13:40:13Z</time>
      </trkpt>
      <trkpt lat="43.75626" lon="4.72743">
        <ele>193.84</ele>
        <time>2025-04-04T13:40:29Z</time>
      </trkpt>
      <trkpt lat="43.75619" lon="4.72738">
        <ele>194.8</ele>
        <time>2025-04-04T13:40:35Z</time>
      </trkpt>
      <trkpt lat="43.75605" lon="4.72723">
        <ele>193.36</ele>
        <time>2025-04-04T13:40:50Z</time>
      </trkpt>
      <trkpt lat="43.75591" lon="4.72711">
        <ele>193.36</ele>
        <time>2025-04-04T13:41:05Z</time>
      </trkpt>
      <trkpt lat="43.75578" lon="4.72698">
        <ele>192.88</ele>
        <time>2025-04-04T13:41:21Z</time>
      </trkpt>
      <trkpt lat="43.75567" lon="4.72687">
        <ele>192.4</ele>
        <time>2025-04-04T13:41:34Z</time>
      </trkpt>
      <trkpt lat="43.75558" lon="4.72675">
        <ele>191.92</ele>
        <time>2025-04-04T13:41:47Z</time>
      </trkpt>
      <trkpt lat="43.75557" lon="4.72675">
        <ele>191.92</ele>
        <time>2025-04-04T13:41:48Z</time>
      </trkpt>
      <trkpt lat="43.75555" lon="4.72674">
        <ele>191.92</ele>
        <time>2025-04-04T13:41:49Z</time>
      </trkpt>
      <trkpt lat="43.75538" lon="4.72659">
        <ele>190.96</ele>
        <time>2025-04-04T13:42:07Z</time>
      </trkpt>
      <trkpt lat="43.75517" lon="4.72644">
        <ele>190</ele>
        <time>2025-04-04T13:42:27Z</time>
      </trkpt>
      <trkpt lat="43.755" lon="4.72637">
        <ele>189.04</ele>
        <time>2025-04-04T13:42:43Z</time>
      </trkpt>
      <trkpt lat="43.75499" lon="4.72637">
        <ele>190.96</ele>
        <time>2025-04-04T13:42:44Z</time>
      </trkpt>
      <trkpt lat="43.75498" lon="4.72636">
        <ele>190.96</ele>
        <time>2025-04-04T13:42:45Z</time>
      </trkpt>
      <trkpt lat="43.75497" lon="4.72636">
        <ele>190.96</ele>
        <time>2025-04-04T13:42:46Z</time>
      </trkpt>
      <trkpt lat="43.75496" lon="4.72635">
        <ele>189.52</ele>
        <time>2025-04-04T13:42:47Z</time>
      </trkpt>
      <trkpt lat="43.75495" lon="4.72635">
        <ele>189.04</ele>
        <time>2025-04-04T13:42:48Z</time>
      </trkpt>
      <trkpt lat="43.75476" lon="4.72629">
        <ele>188.08</ele>
        <time>2025-04-04T13:43:07Z</time>
      </trkpt>
      <trkpt lat="43.75462" lon="4.72621">
        <ele>187.11</ele>
        <time>2025-04-04T13:43:23Z</time>
      </trkpt>
      <trkpt lat="43.75449" lon="4.72612">
        <ele>186.15</ele>
        <time>2025-04-04T13:43:39Z</time>
      </trkpt>
      <trkpt lat="43.75448" lon="4.72611">
        <ele>186.15</ele>
        <time>2025-04-04T13:43:40Z</time>
      </trkpt>
      <trkpt lat="43.75447" lon="4.7261">
        <ele>186.15</ele>
        <time>2025-04-04T13:43:41Z</time>
      </trkpt>
      <trkpt lat="43.75446" lon="4.72608">
        <ele>186.15</ele>
        <time>2025-04-04T13:43:42Z</time>
      </trkpt>
      <trkpt lat="43.75446" lon="4.72607">
        <ele>186.15</ele>
        <time>2025-04-04T13:43:43Z</time>
      </trkpt>
      <trkpt lat="43.75445" lon="4.72606">
        <ele>186.15</ele>
        <time>2025-04-04T13:43:44Z</time>
      </trkpt>
      <trkpt lat="43.75444" lon="4.72605">
        <ele>185.19</ele>
        <time>2025-04-04T13:43:45Z</time>
      </trkpt>
      <trkpt lat="43.75435" lon="4.7259">
        <ele>185.19</ele>
        <time>2025-04-04T13:43:58Z</time>
      </trkpt>
      <trkpt lat="43.75434" lon="4.72589">
        <ele>184.71</ele>
        <time>2025-04-04T13:43:59Z</time>
      </trkpt>
      <trkpt lat="43.75433" lon="4.72587">
        <ele>184.71</ele>
        <time>2025-04-04T13:44:01Z</time>
      </trkpt>
      <trkpt lat="43.75431" lon="4.72578">
        <ele>183.75</ele>
        <time>2025-04-04T13:44:07Z</time>
      </trkpt>
      <trkpt lat="43.75427" lon="4.72556">
        <ele>181.83</ele>
        <time>2025-04-04T13:44:22Z</time>
      </trkpt>
      <trkpt lat="43.75431" lon="4.72526">
        <ele>180.87</ele>
        <time>2025-04-04T13:44:40Z</time>
      </trkpt>
      <trkpt lat="43.7544" lon="4.72506">
        <ele>179.42</ele>
        <time>2025-04-04T13:44:57Z</time>
      </trkpt>
      <trkpt lat="43.75448" lon="4.7249">
        <ele>179.42</ele>
        <time>2025-04-04T13:45:13Z</time>
      </trkpt>
      <trkpt lat="43.75453" lon="4.72479">
        <ele>179.42</ele>
        <time>2025-04-04T13:45:25Z</time>
      </trkpt>
      <trkpt lat="43.75453" lon="4.72478">
        <ele>179.42</ele>
        <time>2025-04-04T13:45:26Z</time>
      </trkpt>
      <trkpt lat="43.75453" lon="4.72469">
        <ele>178.94</ele>
        <time>2025-04-04T13:45:42Z</time>
      </trkpt>
      <trkpt lat="43.75452" lon="4.72468">
        <ele>178.94</ele>
        <time>2025-04-04T13:45:59Z</time>
      </trkpt>
      <trkpt lat="43.75447" lon="4.72464">
        <ele>178.46</ele>
        <time>2025-04-04T13:46:17Z</time>
      </trkpt>
      <trkpt lat="43.75439" lon="4.72465">
        <ele>176.06</ele>
        <time>2025-04-04T13:46:32Z</time>
      </trkpt>
      <trkpt lat="43.75431" lon="4.72467">
        <ele>175.1</ele>
        <time>2025-04-04T13:46:50Z</time>
      </trkpt>
      <trkpt lat="43.75414" lon="4.7247">
        <ele>174.14</ele>
        <time>2025-04-04T13:47:06Z</time>
      </trkpt>
      <trkpt lat="43.7541" lon="4.72471">
        <ele>174.14</ele>
        <time>2025-04-04T13:47:10Z</time>
      </trkpt>
      <trkpt lat="43.75397" lon="4.72474">
        <ele>172.69</ele>
        <time>2025-04-04T13:47:25Z</time>
      </trkpt>
      <trkpt lat="43.75393" lon="4.72475">
        <ele>171.73</ele>
        <time>2025-04-04T13:47:29Z</time>
      </trkpt>
      <trkpt lat="43.75387" lon="4.72475">
        <ele>171.73</ele>
        <time>2025-04-04T13:47:35Z</time>
      </trkpt>
      <trkpt lat="43.75372" lon="4.72477">
        <ele>170.29</ele>
        <time>2025-04-04T13:47:49Z</time>
      </trkpt>
      <trkpt lat="43.75358" lon="4.72479">
        <ele>169.33</ele>
        <time>2025-04-04T13:48:04Z</time>
      </trkpt>
      <trkpt lat="43.75344" lon="4.7248">
        <ele>166.93</ele>
        <time>2025-04-04T13:48:20Z</time>
      </trkpt>
      <trkpt lat="43.75338" lon="4.72474">
        <ele>165</ele>
        <time>2025-04-04T13:48:30Z</time>
      </trkpt>
      <trkpt lat="43.75337" lon="4.72471">
        <ele>165</ele>
        <time>2025-04-04T13:48:32Z</time>
      </trkpt>
      <trkpt lat="43.7533" lon="4.72454">
        <ele>163.56</ele>
        <time>2025-04-04T13:48:48Z</time>
      </trkpt>
      <trkpt lat="43.75326" lon="4.72438">
        <ele>161.64</ele>
        <time>2025-04-04T13:49:01Z</time>
      </trkpt>
      <trkpt lat="43.75323" lon="4.7242">
        <ele>159.24</ele>
        <time>2025-04-04T13:49:14Z</time>
      </trkpt>
      <trkpt lat="43.75322" lon="4.72406">
        <ele>158.75</ele>
        <time>2025-04-04T13:49:25Z</time>
      </trkpt>
      <trkpt lat="43.75321" lon="4.72392">
        <ele>156.83</ele>
        <time>2025-04-04T13:49:37Z</time>
      </trkpt>
      <trkpt lat="43.7531" lon="4.72378">
        <ele>153.95</ele>
        <time>2025-04-04T13:49:53Z</time>
      </trkpt>
      <trkpt lat="43.75295" lon="4.72367">
        <ele>152.51</ele>
        <time>2025-04-04T13:50:10Z</time>
      </trkpt>
      <trkpt lat="43.7529" lon="4.72364">
        <ele>150.58</ele>
        <time>2025-04-04T13:50:16Z</time>
      </trkpt>
      <trkpt lat="43.75286" lon="4.72364">
        <ele>150.1</ele>
        <time>2025-04-04T13:50:28Z</time>
      </trkpt>
      <trkpt lat="43.75281" lon="4.72363">
        <ele>147.22</ele>
        <time>2025-04-04T13:50:38Z</time>
      </trkpt>
      <trkpt lat="43.7528" lon="4.72363">
        <ele>152.51</ele>
        <time>2025-04-04T13:50:39Z</time>
      </trkpt>
      <trkpt lat="43.7528" lon="4.72363">
        <ele>152.51</ele>
        <time>2025-04-04T13:50:40Z</time>
      </trkpt>
      <trkpt lat="43.75278" lon="4.72364">
        <ele>149.62</ele>
        <time>2025-04-04T13:50:43Z</time>
      </trkpt>
      <trkpt lat="43.75275" lon="4.72367">
        <ele>149.14</ele>
        <time>2025-04-04T13:50:59Z</time>
      </trkpt>
      <trkpt lat="43.75262" lon="4.72382">
        <ele>147.22</ele>
        <time>2025-04-04T13:51:18Z</time>
      </trkpt>
      <trkpt lat="43.75254" lon="4.72381">
        <ele>145.78</ele>
        <time>2025-04-04T13:51:27Z</time>
      </trkpt>
      <trkpt lat="43.75243" lon="4.72376">
        <ele>143.37</ele>
        <time>2025-04-04T13:51:40Z</time>
      </trkpt>
      <trkpt lat="43.75231" lon="4.72374">
        <ele>140.97</ele>
        <time>2025-04-04T13:51:57Z</time>
      </trkpt>
      <trkpt lat="43.75223" lon="4.72375">
        <ele>137.61</ele>
        <time>2025-04-04T13:52:08Z</time>
      </trkpt>
      <trkpt lat="43.7521" lon="4.72372">
        <ele>135.68</ele>
        <time>2025-04-04T13:52:24Z</time>
      </trkpt>
      <trkpt lat="43.75207" lon="4.72371">
        <ele>134.24</ele>
        <time>2025-04-04T13:52:27Z</time>
      </trkpt>
      <trkpt lat="43.75191" lon="4.72366">
        <ele>131.84</ele>
        <time>2025-04-04T13:52:44Z</time>
      </trkpt>
      <trkpt lat="43.75177" lon="4.72363">
        <ele>128.47</ele>
        <time>2025-04-04T13:53:00Z</time>
      </trkpt>
      <trkpt lat="43.75176" lon="4.72363">
        <ele>128.47</ele>
        <time>2025-04-04T13:53:02Z</time>
      </trkpt>
      <trkpt lat="43.75172" lon="4.72364">
        <ele>127.99</ele>
        <time>2025-04-04T13:53:06Z</time>
      </trkpt>
      <trkpt lat="43.75158" lon="4.72367">
        <ele>125.59</ele>
        <time>2025-04-04T13:53:21Z</time>
      </trkpt>
      <trkpt lat="43.75149" lon="4.72371">
        <ele>123.19</ele>
        <time>2025-04-04T13:53:35Z</time>
      </trkpt>
      <trkpt lat="43.75139" lon="4.72379">
        <ele>121.26</ele>
        <time>2025-04-04T13:53:49Z</time>
      </trkpt>
      <trkpt lat="43.75126" lon="4.72381">
        <ele>118.38</ele>
        <time>2025-04-04T13:54:05Z</time>
      </trkpt>
      <trkpt lat="43.75114" lon="4.72382">
        <ele>115.01</ele>
        <time>2025-04-04T13:54:23Z</time>
      </trkpt>
      <trkpt lat="43.75112" lon="4.72371">
        <ele>113.09</ele>
        <time>2025-04-04T13:54:35Z</time>
      </trkpt>
      <trkpt lat="43.75106" lon="4.72355">
        <ele>111.17</ele>
        <time>2025-04-04T13:54:52Z</time>
      </trkpt>
      <trkpt lat="43.75106" lon="4.72354">
        <ele>111.17</ele>
        <time>2025-04-04T13:54:53Z</time>
      </trkpt>
      <trkpt lat="43.75099" lon="4.72338">
        <ele>108.29</ele>
        <time>2025-04-04T13:55:11Z</time>
      </trkpt>
      <trkpt lat="43.7509" lon="4.72324">
        <ele>105.4</ele>
        <time>2025-04-04T13:55:27Z</time>
      </trkpt>
      <trkpt lat="43.75082" lon="4.72309">
        <ele>102.04</ele>
        <time>2025-04-04T13:55:42Z</time>
      </trkpt>
      <trkpt lat="43.75077" lon="4.72296">
        <ele>100.6</ele>
        <time>2025-04-04T13:55:57Z</time>
      </trkpt>
      <trkpt lat="43.7507" lon="4.72283">
        <ele>99.15</ele>
        <time>2025-04-04T13:56:12Z</time>
      </trkpt>
      <trkpt lat="43.75071" lon="4.72279">
        <ele>98.67</ele>
        <time>2025-04-04T13:56:37Z</time>
      </trkpt>
      <trkpt lat="43.75064" lon="4.72269">
        <ele>97.71</ele>
        <time>2025-04-04T13:56:50Z</time>
      </trkpt>
      <trkpt lat="43.75066" lon="4.72256">
        <ele>99.15</ele>
        <time>2025-04-04T13:57:01Z</time>
      </trkpt>
      <trkpt lat="43.75073" lon="4.72228">
        <ele>100.11</ele>
        <time>2025-04-04T13:57:21Z</time>
      </trkpt>
      <trkpt lat="43.75079" lon="4.72215">
        <ele>101.08</ele>
        <time>2025-04-04T13:57:32Z</time>
      </trkpt>
      <trkpt lat="43.75087" lon="4.72199">
        <ele>102.04</ele>
        <time>2025-04-04T13:57:47Z</time>
      </trkpt>
      <trkpt lat="43.75092" lon="4.72194">
        <ele>103.48</ele>
        <time>2025-04-04T13:57:54Z</time>
      </trkpt>
      <trkpt lat="43.75106" lon="4.72193">
        <ele>105.88</ele>
        <time>2025-04-04T13:58:09Z</time>
      </trkpt>
      <trkpt lat="43.75107" lon="4.72193">
        <ele>105.88</ele>
        <time>2025-04-04T13:58:10Z</time>
      </trkpt>
      <trkpt lat="43.75121" lon="4.7219">
        <ele>106.84</ele>
        <time>2025-04-04T13:58:23Z</time>
      </trkpt>
      <trkpt lat="43.75124" lon="4.72189">
        <ele>106.84</ele>
        <time>2025-04-04T13:58:27Z</time>
      </trkpt>
      <trkpt lat="43.75139" lon="4.72187">
        <ele>107.81</ele>
        <time>2025-04-04T13:58:41Z</time>
      </trkpt>
      <trkpt lat="43.75145" lon="4.72187">
        <ele>107.81</ele>
        <time>2025-04-04T13:58:48Z</time>
      </trkpt>
      <trkpt lat="43.75147" lon="4.72186">
        <ele>106.36</ele>
        <time>2025-04-04T13:58:50Z</time>
      </trkpt>
      <trkpt lat="43.75163" lon="4.72185">
        <ele>105.88</ele>
        <time>2025-04-04T13:59:06Z</time>
      </trkpt>
      <trkpt lat="43.7518" lon="4.7218">
        <ele>104.44</ele>
        <time>2025-04-04T13:59:24Z</time>
      </trkpt>
      <trkpt lat="43.75185" lon="4.72174">
        <ele>104.44</ele>
        <time>2025-04-04T13:59:39Z</time>
      </trkpt>
      <trkpt lat="43.75185" lon="4.72173">
        <ele>104.44</ele>
        <time>2025-04-04T13:59:41Z</time>
      </trkpt>
      <trkpt lat="43.75184" lon="4.72167">
        <ele>104.44</ele>
        <time>2025-04-04T13:59:46Z</time>
      </trkpt>
      <trkpt lat="43.75174" lon="4.7215">
        <ele>104.44</ele>
        <time>2025-04-04T14:00:01Z</time>
      </trkpt>
      <trkpt lat="43.75172" lon="4.72143">
        <ele>104.44</ele>
        <time>2025-04-04T14:00:06Z</time>
      </trkpt>
      <trkpt lat="43.75162" lon="4.72128">
        <ele>104.44</ele>
        <time>2025-04-04T14:00:18Z</time>
      </trkpt>
      <trkpt lat="43.75148" lon="4.72112">
        <ele>105.88</ele>
        <time>2025-04-04T14:00:36Z</time>
      </trkpt>
      <trkpt lat="43.75143" lon="4.72106">
        <ele>106.84</ele>
        <time>2025-04-04T14:00:43Z</time>
      </trkpt>
      <trkpt lat="43.75131" lon="4.72094">
        <ele>106.84</ele>
        <time>2025-04-04T14:00:55Z</time>
      </trkpt>
      <trkpt lat="43.75118" lon="4.72079">
        <ele>106.36</ele>
        <time>2025-04-04T14:01:11Z</time>
      </trkpt>
      <trkpt lat="43.75114" lon="4.72075">
        <ele>107.81</ele>
        <time>2025-04-04T14:01:15Z</time>
      </trkpt>
      <trkpt lat="43.751" lon="4.72054">
        <ele>107.81</ele>
        <time>2025-04-04T14:01:30Z</time>
      </trkpt>
      <trkpt lat="43.75095" lon="4.72049">
        <ele>106.36</ele>
        <time>2025-04-04T14:01:37Z</time>
      </trkpt>
      <trkpt lat="43.75083" lon="4.72041">
        <ele>105.4</ele>
        <time>2025-04-04T14:01:50Z</time>
      </trkpt>
      <trkpt lat="43.75083" lon="4.72037">
        <ele>104.92</ele>
        <time>2025-04-04T14:02:05Z</time>
      </trkpt>
      <trkpt lat="43.75076" lon="4.72027">
        <ele>103.48</ele>
        <time>2025-04-04T14:02:18Z</time>
      </trkpt>
      <trkpt lat="43.7507" lon="4.72012">
        <ele>103</ele>
        <time>2025-04-04T14:02:31Z</time>
      </trkpt>
      <trkpt lat="43.7507" lon="4.72011">
        <ele>102.52</ele>
        <time>2025-04-04T14:02:32Z</time>
      </trkpt>
      <trkpt lat="43.75064" lon="4.71997">
        <ele>101.56</ele>
        <time>2025-04-04T14:02:44Z</time>
      </trkpt>
      <trkpt lat="43.75059" lon="4.71979">
        <ele>101.56</ele>
        <time>2025-04-04T14:02:58Z</time>
      </trkpt>
      <trkpt lat="43.75054" lon="4.71962">
        <ele>99.63</ele>
        <time>2025-04-04T14:03:12Z</time>
      </trkpt>
      <trkpt lat="43.75054" lon="4.71961">
        <ele>99.63</ele>
        <time>2025-04-04T14:03:13Z</time>
      </trkpt>
      <trkpt lat="43.75052" lon="4.71934">
        <ele>97.71</ele>
        <time>2025-04-04T14:03:32Z</time>
      </trkpt>
      <trkpt lat="43.75052" lon="4.71919">
        <ele>96.27</ele>
        <time>2025-04-04T14:03:48Z</time>
      </trkpt>
      <trkpt lat="43.75049" lon="4.71916">
        <ele>96.27</ele>
        <time>2025-04-04T14:04:06Z</time>
      </trkpt>
      <trkpt lat="43.75048" lon="4.71905">
        <ele>95.79</ele>
        <time>2025-04-04T14:04:26Z</time>
      </trkpt>
      <trkpt lat="43.75048" lon="4.71886">
        <ele>94.35</ele>
        <time>2025-04-04T14:04:40Z</time>
      </trkpt>
      <trkpt lat="43.75048" lon="4.71878">
        <ele>93.87</ele>
        <time>2025-04-04T14:04:47Z</time>
      </trkpt>
      <trkpt lat="43.7505" lon="4.71859">
        <ele>92.42</ele>
        <time>2025-04-04T14:05:01Z</time>
      </trkpt>
      <trkpt lat="43.75051" lon="4.71842">
        <ele>90.5</ele>
        <time>2025-04-04T14:05:14Z</time>
      </trkpt>
      <trkpt lat="43.75054" lon="4.71831">
        <ele>90.02</ele>
        <time>2025-04-04T14:05:23Z</time>
      </trkpt>
      <trkpt lat="43.7506" lon="4.71827">
        <ele>89.06</ele>
        <time>2025-04-04T14:05:31Z</time>
      </trkpt>
      <trkpt lat="43.75076" lon="4.71822">
        <ele>87.62</ele>
        <time>2025-04-04T14:05:45Z</time>
      </trkpt>
      <trkpt lat="43.75086" lon="4.71819">
        <ele>86.18</ele>
        <time>2025-04-04T14:05:57Z</time>
      </trkpt>
      <trkpt lat="43.75096" lon="4.71815">
        <ele>84.73</ele>
        <time>2025-04-04T14:06:09Z</time>
      </trkpt>
      <trkpt lat="43.7511" lon="4.71811">
        <ele>83.77</ele>
        <time>2025-04-04T14:06:26Z</time>
      </trkpt>
      <trkpt lat="43.75126" lon="4.71808">
        <ele>83.77</ele>
        <time>2025-04-04T14:06:42Z</time>
      </trkpt>
      <trkpt lat="43.75142" lon="4.71813">
        <ele>83.77</ele>
        <time>2025-04-04T14:06:56Z</time>
      </trkpt>
      <trkpt lat="43.75153" lon="4.71816">
        <ele>84.73</ele>
        <time>2025-04-04T14:07:08Z</time>
      </trkpt>
      <trkpt lat="43.75162" lon="4.71825">
        <ele>86.18</ele>
        <time>2025-04-04T14:07:22Z</time>
      </trkpt>
      <trkpt lat="43.75171" lon="4.71833">
        <ele>87.62</ele>
        <time>2025-04-04T14:07:36Z</time>
      </trkpt>
      <trkpt lat="43.75179" lon="4.71844">
        <ele>89.54</ele>
        <time>2025-04-04T14:07:51Z</time>
      </trkpt>
      <trkpt lat="43.75186" lon="4.71855">
        <ele>90.98</ele>
        <time>2025-04-04T14:08:07Z</time>
      </trkpt>
      <trkpt lat="43.75195" lon="4.71866">
        <ele>93.39</ele>
        <time>2025-04-04T14:08:24Z</time>
      </trkpt>
      <trkpt lat="43.75203" lon="4.71867">
        <ele>94.35</ele>
        <time>2025-04-04T14:08:33Z</time>
      </trkpt>
      <trkpt lat="43.75206" lon="4.71861">
        <ele>94.83</ele>
        <time>2025-04-04T14:08:39Z</time>
      </trkpt>
      <trkpt lat="43.75205" lon="4.71854">
        <ele>95.31</ele>
        <time>2025-04-04T14:08:45Z</time>
      </trkpt>
      <trkpt lat="43.75199" lon="4.71831">
        <ele>95.79</ele>
        <time>2025-04-04T14:09:03Z</time>
      </trkpt>
      <trkpt lat="43.75195" lon="4.7181">
        <ele>96.75</ele>
        <time>2025-04-04T14:09:19Z</time>
      </trkpt>
      <trkpt lat="43.7519" lon="4.71788">
        <ele>97.71</ele>
        <time>2025-04-04T14:09:35Z</time>
      </trkpt>
      <trkpt lat="43.75182" lon="4.71765">
        <ele>99.15</ele>
        <time>2025-04-04T14:09:53Z</time>
      </trkpt>
      <trkpt lat="43.75176" lon="4.71741">
        <ele>100.6</ele>
        <time>2025-04-04T14:10:11Z</time>
      </trkpt>
      <trkpt lat="43.75176" lon="4.71738">
        <ele>100.6</ele>
        <time>2025-04-04T14:10:13Z</time>
      </trkpt>
      <trkpt lat="43.7518" lon="4.71729">
        <ele>101.56</ele>
        <time>2025-04-04T14:10:20Z</time>
      </trkpt>
      <trkpt lat="43.75196" lon="4.7173">
        <ele>104.44</ele>
        <time>2025-04-04T14:10:38Z</time>
      </trkpt>
      <trkpt lat="43.75211" lon="4.71739">
        <ele>106.84</ele>
        <time>2025-04-04T14:10:56Z</time>
      </trkpt>
      <trkpt lat="43.75224" lon="4.71748">
        <ele>108.29</ele>
        <time>2025-04-04T14:11:12Z</time>
      </trkpt>
      <trkpt lat="43.75231" lon="4.71753">
        <ele>108.77</ele>
        <time>2025-04-04T14:11:19Z</time>
      </trkpt>
      <trkpt lat="43.75239" lon="4.71768">
        <ele>110.69</ele>
        <time>2025-04-04T14:11:34Z</time>
      </trkpt>
      <trkpt lat="43.75244" lon="4.71778">
        <ele>112.13</ele>
        <time>2025-04-04T14:11:44Z</time>
      </trkpt>
      <trkpt lat="43.75252" lon="4.71792">
        <ele>113.57</ele>
        <time>2025-04-04T14:11:57Z</time>
      </trkpt>
      <trkpt lat="43.75254" lon="4.71794">
        <ele>113.57</ele>
        <time>2025-04-04T14:12:00Z</time>
      </trkpt>
      <trkpt lat="43.75262" lon="4.7181">
        <ele>115.5</ele>
        <time>2025-04-04T14:12:14Z</time>
      </trkpt>
      <trkpt lat="43.75268" lon="4.71824">
        <ele>116.94</ele>
        <time>2025-04-04T14:12:27Z</time>
      </trkpt>
      <trkpt lat="43.75272" lon="4.71836">
        <ele>118.86</ele>
        <time>2025-04-04T14:12:40Z</time>
      </trkpt>
      <trkpt lat="43.75273" lon="4.71836">
        <ele>118.86</ele>
        <time>2025-04-04T14:12:41Z</time>
      </trkpt>
      <trkpt lat="43.75279" lon="4.71837">
        <ele>120.78</ele>
        <time>2025-04-04T14:12:48Z</time>
      </trkpt>
      <trkpt lat="43.7529" lon="4.71832">
        <ele>121.74</ele>
        <time>2025-04-04T14:12:57Z</time>
      </trkpt>
      <trkpt lat="43.753" lon="4.71826">
        <ele>123.19</ele>
        <time>2025-04-04T14:13:10Z</time>
      </trkpt>
      <trkpt lat="43.75306" lon="4.71824">
        <ele>123.67</ele>
        <time>2025-04-04T14:13:18Z</time>
      </trkpt>
      <trkpt lat="43.75315" lon="4.71828">
        <ele>124.63</ele>
        <time>2025-04-04T14:13:30Z</time>
      </trkpt>
      <trkpt lat="43.75324" lon="4.71839">
        <ele>126.55</ele>
        <time>2025-04-04T14:13:43Z</time>
      </trkpt>
      <trkpt lat="43.75331" lon="4.71845">
        <ele>127.99</ele>
        <time>2025-04-04T14:13:53Z</time>
      </trkpt>
      <trkpt lat="43.75335" lon="4.71848">
        <ele>128.47</ele>
        <time>2025-04-04T14:13:58Z</time>
      </trkpt>
      <trkpt lat="43.75339" lon="4.71854">
        <ele>129.43</ele>
        <time>2025-04-04T14:14:04Z</time>
      </trkpt>
      <trkpt lat="43.75343" lon="4.71856">
        <ele>130.4</ele>
        <time>2025-04-04T14:14:19Z</time>
      </trkpt>
      <trkpt lat="43.75352" lon="4.71863">
        <ele>131.36</ele>
        <time>2025-04-04T14:14:35Z</time>
      </trkpt>
      <trkpt lat="43.75359" lon="4.7187">
        <ele>131.84</ele>
        <time>2025-04-04T14:14:46Z</time>
      </trkpt>
      <trkpt lat="43.75358" lon="4.7187">
        <ele>131.84</ele>
        <time>2025-04-04T14:14:56Z</time>
      </trkpt>
      <trkpt lat="43.75363" lon="4.71875">
        <ele>132.32</ele>
        <time>2025-04-04T14:15:03Z</time>
      </trkpt>
      <trkpt lat="43.75375" lon="4.71886">
        <ele>133.76</ele>
        <time>2025-04-04T14:15:16Z</time>
      </trkpt>
      <trkpt lat="43.75387" lon="4.71897">
        <ele>134.72</ele>
        <time>2025-04-04T14:15:31Z</time>
      </trkpt>
      <trkpt lat="43.75397" lon="4.71907">
        <ele>136.16</ele>
        <time>2025-04-04T14:15:45Z</time>
      </trkpt>
      <trkpt lat="43.75408" lon="4.71917">
        <ele>137.61</ele>
        <time>2025-04-04T14:15:58Z</time>
      </trkpt>
      <trkpt lat="43.75417" lon="4.71926">
        <ele>138.57</ele>
        <time>2025-04-04T14:16:10Z</time>
      </trkpt>
      <trkpt lat="43.75428" lon="4.71936">
        <ele>140.49</ele>
        <time>2025-04-04T14:16:24Z</time>
      </trkpt>
      <trkpt lat="43.75432" lon="4.71939">
        <ele>140.49</ele>
        <time>2025-04-04T14:16:28Z</time>
      </trkpt>
      <trkpt lat="43.75439" lon="4.71946">
        <ele>140.97</ele>
        <time>2025-04-04T14:16:36Z</time>
      </trkpt>
      <trkpt lat="43.75452" lon="4.71959">
        <ele>142.41</ele>
        <time>2025-04-04T14:16:49Z</time>
      </trkpt>
      <trkpt lat="43.75462" lon="4.71973">
        <ele>143.85</ele>
        <time>2025-04-04T14:17:03Z</time>
      </trkpt>
      <trkpt lat="43.75474" lon="4.71985">
        <ele>144.34</ele>
        <time>2025-04-04T14:17:17Z</time>
      </trkpt>
      <trkpt lat="43.75484" lon="4.71997">
        <ele>145.3</ele>
        <time>2025-04-04T14:17:30Z</time>
      </trkpt>
      <trkpt lat="43.75497" lon="4.72007">
        <ele>146.26</ele>
        <time>2025-04-04T14:17:44Z</time>
      </trkpt>
      <trkpt lat="43.75508" lon="4.72018">
        <ele>147.7</ele>
        <time>2025-04-04T14:17:57Z</time>
      </trkpt>
      <trkpt lat="43.75513" lon="4.72022">
        <ele>148.18</ele>
        <time>2025-04-04T14:18:09Z</time>
      </trkpt>
      <trkpt lat="43.75519" lon="4.72026">
        <ele>148.66</ele>
        <time>2025-04-04T14:18:22Z</time>
      </trkpt>
      <trkpt lat="43.75526" lon="4.72031">
        <ele>148.66</ele>
        <time>2025-04-04T14:18:29Z</time>
      </trkpt>
      <trkpt lat="43.75538" lon="4.72038">
        <ele>150.1</ele>
        <time>2025-04-04T14:18:44Z</time>
      </trkpt>
      <trkpt lat="43.75543" lon="4.72041">
        <ele>150.1</ele>
        <time>2025-04-04T14:19:02Z</time>
      </trkpt>
      <trkpt lat="43.75552" lon="4.7205">
        <ele>151.06</ele>
        <time>2025-04-04T14:19:17Z</time>
      </trkpt>
      <trkpt lat="43.75564" lon="4.72062">
        <ele>151.54</ele>
        <time>2025-04-04T14:19:33Z</time>
      </trkpt>
      <trkpt lat="43.75574" lon="4.72071">
        <ele>152.03</ele>
        <time>2025-04-04T14:19:48Z</time>
      </trkpt>
      <trkpt lat="43.75585" lon="4.72081">
        <ele>152.99</ele>
        <time>2025-04-04T14:20:02Z</time>
      </trkpt>
      <trkpt lat="43.75597" lon="4.7209">
        <ele>153.47</ele>
        <time>2025-04-04T14:20:18Z</time>
      </trkpt>
      <trkpt lat="43.75604" lon="4.72097">
        <ele>154.43</ele>
        <time>2025-04-04T14:20:28Z</time>
      </trkpt>
      <trkpt lat="43.75622" lon="4.72103">
        <ele>155.39</ele>
        <time>2025-04-04T14:20:45Z</time>
      </trkpt>
      <trkpt lat="43.75627" lon="4.72104">
        <ele>156.35</ele>
        <time>2025-04-04T14:20:50Z</time>
      </trkpt>
      <trkpt lat="43.75633" lon="4.72103">
        <ele>156.35</ele>
        <time>2025-04-04T14:20:55Z</time>
      </trkpt>
      <trkpt lat="43.7565" lon="4.72106">
        <ele>156.35</ele>
        <time>2025-04-04T14:21:12Z</time>
      </trkpt>
      <trkpt lat="43.75666" lon="4.72111">
        <ele>156.35</ele>
        <time>2025-04-04T14:21:28Z</time>
      </trkpt>
      <trkpt lat="43.7567" lon="4.7211">
        <ele>154.91</ele>
        <time>2025-04-04T14:21:34Z</time>
      </trkpt>
      <trkpt lat="43.7568" lon="4.72089">
        <ele>154.43</ele>
        <time>2025-04-04T14:21:51Z</time>
      </trkpt>
      <trkpt lat="43.75684" lon="4.72065">
        <ele>153.95</ele>
        <time>2025-04-04T14:22:08Z</time>
      </trkpt>
      <trkpt lat="43.75683" lon="4.72049">
        <ele>152.99</ele>
        <time>2025-04-04T14:22:18Z</time>
      </trkpt>
      <trkpt lat="43.75684" lon="4.72025">
        <ele>152.51</ele>
        <time>2025-04-04T14:22:36Z</time>
      </trkpt>
      <trkpt lat="43.75692" lon="4.72022">
        <ele>152.03</ele>
        <time>2025-04-04T14:22:49Z</time>
      </trkpt>
      <trkpt lat="43.75694" lon="4.72012">
        <ele>151.54</ele>
        <time>2025-04-04T14:23:03Z</time>
      </trkpt>
      <trkpt lat="43.75695" lon="4.72007">
        <ele>151.06</ele>
        <time>2025-04-04T14:23:16Z</time>
      </trkpt>
      <trkpt lat="43.75693" lon="4.72014">
        <ele>151.06</ele>
        <time>2025-04-04T14:23:29Z</time>
      </trkpt>
      <trkpt lat="43.75691" lon="4.72025">
        <ele>153.47</ele>
        <time>2025-04-04T14:23:43Z</time>
      </trkpt>
      <trkpt lat="43.75691" lon="4.72025">
        <ele>153.47</ele>
        <time>2025-04-04T14:23:44Z</time>
      </trkpt>
      <trkpt lat="43.7569" lon="4.72025">
        <ele>151.54</ele>
        <time>2025-04-04T14:23:58Z</time>
      </trkpt>
      <trkpt lat="43.7569" lon="4.72025">
        <ele>151.54</ele>
        <time>2025-04-04T14:24:14Z</time>
      </trkpt>
      <trkpt lat="43.75688" lon="4.72022">
        <ele>151.54</ele>
        <time>2025-04-04T14:24:40Z</time>
      </trkpt>
      <trkpt lat="43.75688" lon="4.72022">
        <ele>151.54</ele>
        <time>2025-04-04T14:24:41Z</time>
      </trkpt>
      <trkpt lat="43.75685" lon="4.72017">
        <ele>152.99</ele>
        <time>2025-04-04T14:24:46Z</time>
      </trkpt>
      <trkpt lat="43.75683" lon="4.71997">
        <ele>151.54</ele>
        <time>2025-04-04T14:25:01Z</time>
      </trkpt>
      <trkpt lat="43.75681" lon="4.71976">
        <ele>152.03</ele>
        <time>2025-04-04T14:25:14Z</time>
      </trkpt>
      <trkpt lat="43.75677" lon="4.71952">
        <ele>151.06</ele>
        <time>2025-04-04T14:25:29Z</time>
      </trkpt>
      <trkpt lat="43.75674" lon="4.71941">
        <ele>151.06</ele>
        <time>2025-04-04T14:25:36Z</time>
      </trkpt>
      <trkpt lat="43.7567" lon="4.71921">
        <ele>150.1</ele>
        <time>2025-04-04T14:25:52Z</time>
      </trkpt>
      <trkpt lat="43.75665" lon="4.71903">
        <ele>149.62</ele>
        <time>2025-04-04T14:26:06Z</time>
      </trkpt>
      <trkpt lat="43.7566" lon="4.71887">
        <ele>148.66</ele>
        <time>2025-04-04T14:26:19Z</time>
      </trkpt>
      <trkpt lat="43.75655" lon="4.71869">
        <ele>148.18</ele>
        <time>2025-04-04T14:26:33Z</time>
      </trkpt>
      <trkpt lat="43.75649" lon="4.71851">
        <ele>147.22</ele>
        <time>2025-04-04T14:26:48Z</time>
      </trkpt>
      <trkpt lat="43.7564" lon="4.71829">
        <ele>146.74</ele>
        <time>2025-04-04T14:27:06Z</time>
      </trkpt>
      <trkpt lat="43.75637" lon="4.71825">
        <ele>146.26</ele>
        <time>2025-04-04T14:27:11Z</time>
      </trkpt>
      <trkpt lat="43.75623" lon="4.71809">
        <ele>145.78</ele>
        <time>2025-04-04T14:27:27Z</time>
      </trkpt>
      <trkpt lat="43.75612" lon="4.71802">
        <ele>144.82</ele>
        <time>2025-04-04T14:27:39Z</time>
      </trkpt>
      <trkpt lat="43.75599" lon="4.71795">
        <ele>144.34</ele>
        <time>2025-04-04T14:27:53Z</time>
      </trkpt>
      <trkpt lat="43.75583" lon="4.71792">
        <ele>143.85</ele>
        <time>2025-04-04T14:28:08Z</time>
      </trkpt>
      <trkpt lat="43.75569" lon="4.71793">
        <ele>145.3</ele>
        <time>2025-04-04T14:28:21Z</time>
      </trkpt>
      <trkpt lat="43.75566" lon="4.71793">
        <ele>143.37</ele>
        <time>2025-04-04T14:28:23Z</time>
      </trkpt>
      <trkpt lat="43.7555" lon="4.71792">
        <ele>142.89</ele>
        <time>2025-04-04T14:28:37Z</time>
      </trkpt>
      <trkpt lat="43.7555" lon="4.71789">
        <ele>142.89</ele>
        <time>2025-04-04T14:30:21Z</time>
      </trkpt>
      <trkpt lat="43.75571" lon="4.7179">
        <ele>143.85</ele>
        <time>2025-04-04T14:30:41Z</time>
      </trkpt>
      <trkpt lat="43.75578" lon="4.71787">
        <ele>144.34</ele>
        <time>2025-04-04T14:30:48Z</time>
      </trkpt>
      <trkpt lat="43.75581" lon="4.71778">
        <ele>144.34</ele>
        <time>2025-04-04T14:30:56Z</time>
      </trkpt>
      <trkpt lat="43.7558" lon="4.71776">
        <ele>142.89</ele>
        <time>2025-04-04T14:30:58Z</time>
      </trkpt>
      <trkpt lat="43.75578" lon="4.71758">
        <ele>141.93</ele>
        <time>2025-04-04T14:31:12Z</time>
      </trkpt>
      <trkpt lat="43.75576" lon="4.71743">
        <ele>141.45</ele>
        <time>2025-04-04T14:31:24Z</time>
      </trkpt>
      <trkpt lat="43.75573" lon="4.71727">
        <ele>140.49</ele>
        <time>2025-04-04T14:31:36Z</time>
      </trkpt>
      <trkpt lat="43.75571" lon="4.71707">
        <ele>139.05</ele>
        <time>2025-04-04T14:31:53Z</time>
      </trkpt>
      <trkpt lat="43.75572" lon="4.71702">
        <ele>138.57</ele>
        <time>2025-04-04T14:31:59Z</time>
      </trkpt>
      <trkpt lat="43.75577" lon="4.7169">
        <ele>137.13</ele>
        <time>2025-04-04T14:32:12Z</time>
      </trkpt>
      <trkpt lat="43.7559" lon="4.71685">
        <ele>136.16</ele>
        <time>2025-04-04T14:32:28Z</time>
      </trkpt>
      <trkpt lat="43.75603" lon="4.71682">
        <ele>134.72</ele>
        <time>2025-04-04T14:32:43Z</time>
      </trkpt>
      <trkpt lat="43.75613" lon="4.71687">
        <ele>134.24</ele>
        <time>2025-04-04T14:32:57Z</time>
      </trkpt>
      <trkpt lat="43.75622" lon="4.71698">
        <ele>132.8</ele>
        <time>2025-04-04T14:33:12Z</time>
      </trkpt>
      <trkpt lat="43.75622" lon="4.71699">
        <ele>132.32</ele>
        <time>2025-04-04T14:33:13Z</time>
      </trkpt>
      <trkpt lat="43.75623" lon="4.71702">
        <ele>132.32</ele>
        <time>2025-04-04T14:33:15Z</time>
      </trkpt>
      <trkpt lat="43.75632" lon="4.71711">
        <ele>131.84</ele>
        <time>2025-04-04T14:33:28Z</time>
      </trkpt>
      <trkpt lat="43.75642" lon="4.7172">
        <ele>130.88</ele>
        <time>2025-04-04T14:33:40Z</time>
      </trkpt>
      <trkpt lat="43.75649" lon="4.71738">
        <ele>130.4</ele>
        <time>2025-04-04T14:33:55Z</time>
      </trkpt>
      <trkpt lat="43.75658" lon="4.71753">
        <ele>129.92</ele>
        <time>2025-04-04T14:34:09Z</time>
      </trkpt>
      <trkpt lat="43.75667" lon="4.71768">
        <ele>128.95</ele>
        <time>2025-04-04T14:34:23Z</time>
      </trkpt>
      <trkpt lat="43.75669" lon="4.71771">
        <ele>128.95</ele>
        <time>2025-04-04T14:34:26Z</time>
      </trkpt>
      <trkpt lat="43.75674" lon="4.71787">
        <ele>128.47</ele>
        <time>2025-04-04T14:34:40Z</time>
      </trkpt>
      <trkpt lat="43.75674" lon="4.71788">
        <ele>127.99</ele>
        <time>2025-04-04T14:34:41Z</time>
      </trkpt>
      <trkpt lat="43.75679" lon="4.71796">
        <ele>127.03</ele>
        <time>2025-04-04T14:34:49Z</time>
      </trkpt>
      <trkpt lat="43.75684" lon="4.71802">
        <ele>126.55</ele>
        <time>2025-04-04T14:34:56Z</time>
      </trkpt>
      <trkpt lat="43.75694" lon="4.71816">
        <ele>125.11</ele>
        <time>2025-04-04T14:35:09Z</time>
      </trkpt>
      <trkpt lat="43.75694" lon="4.71817">
        <ele>125.11</ele>
        <time>2025-04-04T14:35:10Z</time>
      </trkpt>
      <trkpt lat="43.75701" lon="4.71834">
        <ele>123.19</ele>
        <time>2025-04-04T14:35:24Z</time>
      </trkpt>
      <trkpt lat="43.75703" lon="4.71847">
        <ele>122.71</ele>
        <time>2025-04-04T14:35:38Z</time>
      </trkpt>
      <trkpt lat="43.75706" lon="4.71851">
        <ele>122.22</ele>
        <time>2025-04-04T14:35:42Z</time>
      </trkpt>
      <trkpt lat="43.75711" lon="4.71861">
        <ele>121.26</ele>
        <time>2025-04-04T14:35:50Z</time>
      </trkpt>
      <trkpt lat="43.75721" lon="4.71879">
        <ele>121.26</ele>
        <time>2025-04-04T14:36:05Z</time>
      </trkpt>
      <trkpt lat="43.75726" lon="4.71892">
        <ele>119.82</ele>
        <time>2025-04-04T14:36:15Z</time>
      </trkpt>
      <trkpt lat="43.75728" lon="4.71904">
        <ele>119.82</ele>
        <time>2025-04-04T14:36:23Z</time>
      </trkpt>
      <trkpt lat="43.75731" lon="4.71913">
        <ele>119.82</ele>
        <time>2025-04-04T14:36:30Z</time>
      </trkpt>
      <trkpt lat="43.75731" lon="4.71916">
        <ele>119.34</ele>
        <time>2025-04-04T14:36:32Z</time>
      </trkpt>
      <trkpt lat="43.75738" lon="4.71936">
        <ele>119.34</ele>
        <time>2025-04-04T14:36:46Z</time>
      </trkpt>
      <trkpt lat="43.75742" lon="4.71957">
        <ele>118.86</ele>
        <time>2025-04-04T14:37:01Z</time>
      </trkpt>
      <trkpt lat="43.75742" lon="4.71962">
        <ele>118.86</ele>
        <time>2025-04-04T14:37:04Z</time>
      </trkpt>
      <trkpt lat="43.75745" lon="4.71982">
        <ele>118.38</ele>
        <time>2025-04-04T14:37:19Z</time>
      </trkpt>
      <trkpt lat="43.75753" lon="4.71988">
        <ele>116.94</ele>
        <time>2025-04-04T14:37:33Z</time>
      </trkpt>
      <trkpt lat="43.75757" lon="4.71984">
        <ele>116.46</ele>
        <time>2025-04-04T14:37:48Z</time>
      </trkpt>
      <trkpt lat="43.7576" lon="4.7198">
        <ele>116.46</ele>
        <time>2025-04-04T14:37:59Z</time>
      </trkpt>
      <trkpt lat="43.75761" lon="4.71978">
        <ele>115.98</ele>
        <time>2025-04-04T14:38:14Z</time>
      </trkpt>
      <trkpt lat="43.75762" lon="4.71977">
        <ele>115.98</ele>
        <time>2025-04-04T14:38:21Z</time>
      </trkpt>
      <trkpt lat="43.75764" lon="4.71958">
        <ele>115.5</ele>
        <time>2025-04-04T14:38:36Z</time>
      </trkpt>
      <trkpt lat="43.75767" lon="4.71936">
        <ele>116.94</ele>
        <time>2025-04-04T14:38:52Z</time>
      </trkpt>
      <trkpt lat="43.75771" lon="4.71921">
        <ele>117.42</ele>
        <time>2025-04-04T14:39:05Z</time>
      </trkpt>
      <trkpt lat="43.75782" lon="4.71897">
        <ele>117.9</ele>
        <time>2025-04-04T14:39:21Z</time>
      </trkpt>
      <trkpt lat="43.75783" lon="4.71895">
        <ele>118.86</ele>
        <time>2025-04-04T14:39:23Z</time>
      </trkpt>
      <trkpt lat="43.7579" lon="4.71875">
        <ele>119.82</ele>
        <time>2025-04-04T14:39:38Z</time>
      </trkpt>
      <trkpt lat="43.75791" lon="4.71858">
        <ele>120.78</ele>
        <time>2025-04-04T14:39:52Z</time>
      </trkpt>
      <trkpt lat="43.75793" lon="4.71834">
        <ele>122.22</ele>
        <time>2025-04-04T14:40:07Z</time>
      </trkpt>
      <trkpt lat="43.75793" lon="4.71828">
        <ele>122.22</ele>
        <time>2025-04-04T14:40:11Z</time>
      </trkpt>
      <trkpt lat="43.7579" lon="4.71823">
        <ele>123.19</ele>
        <time>2025-04-04T14:40:15Z</time>
      </trkpt>
      <trkpt lat="43.75787" lon="4.718">
        <ele>123.67</ele>
        <time>2025-04-04T14:40:30Z</time>
      </trkpt>
      <trkpt lat="43.75787" lon="4.71773">
        <ele>125.11</ele>
        <time>2025-04-04T14:40:47Z</time>
      </trkpt>
      <trkpt lat="43.75787" lon="4.71757">
        <ele>126.55</ele>
        <time>2025-04-04T14:40:59Z</time>
      </trkpt>
      <trkpt lat="43.75787" lon="4.71753">
        <ele>126.07</ele>
        <time>2025-04-04T14:41:03Z</time>
      </trkpt>
      <trkpt lat="43.75787" lon="4.71737">
        <ele>128.47</ele>
        <time>2025-04-04T14:41:15Z</time>
      </trkpt>
      <trkpt lat="43.75787" lon="4.71724">
        <ele>128.47</ele>
        <time>2025-04-04T14:41:27Z</time>
      </trkpt>
      <trkpt lat="43.75787" lon="4.71708">
        <ele>129.92</ele>
        <time>2025-04-04T14:41:39Z</time>
      </trkpt>
      <trkpt lat="43.75784" lon="4.71685">
        <ele>130.88</ele>
        <time>2025-04-04T14:41:55Z</time>
      </trkpt>
      <trkpt lat="43.75784" lon="4.71668">
        <ele>132.32</ele>
        <time>2025-04-04T14:42:07Z</time>
      </trkpt>
      <trkpt lat="43.75784" lon="4.71655">
        <ele>133.28</ele>
        <time>2025-04-04T14:42:18Z</time>
      </trkpt>
      <trkpt lat="43.75783" lon="4.71653">
        <ele>133.76</ele>
        <time>2025-04-04T14:42:20Z</time>
      </trkpt>
      <trkpt lat="43.75783" lon="4.71647">
        <ele>134.24</ele>
        <time>2025-04-04T14:42:26Z</time>
      </trkpt>
      <trkpt lat="43.75782" lon="4.7164">
        <ele>133.76</ele>
        <time>2025-04-04T14:42:31Z</time>
      </trkpt>
      <trkpt lat="43.75782" lon="4.7164">
        <ele>135.2</ele>
        <time>2025-04-04T14:42:33Z</time>
      </trkpt>
      <trkpt lat="43.7578" lon="4.71622">
        <ele>136.64</ele>
        <time>2025-04-04T14:42:45Z</time>
      </trkpt>
      <trkpt lat="43.7578" lon="4.71619">
        <ele>137.13</ele>
        <time>2025-04-04T14:42:49Z</time>
      </trkpt>
      <trkpt lat="43.75778" lon="4.71604">
        <ele>138.09</ele>
        <time>2025-04-04T14:43:02Z</time>
      </trkpt>
      <trkpt lat="43.75776" lon="4.71588">
        <ele>139.05</ele>
        <time>2025-04-04T14:43:16Z</time>
      </trkpt>
      <trkpt lat="43.75776" lon="4.71569">
        <ele>138.57</ele>
        <time>2025-04-04T14:43:27Z</time>
      </trkpt>
      <trkpt lat="43.75776" lon="4.71566">
        <ele>140.49</ele>
        <time>2025-04-04T14:43:30Z</time>
      </trkpt>
      <trkpt lat="43.75776" lon="4.71558">
        <ele>139.05</ele>
        <time>2025-04-04T14:43:36Z</time>
      </trkpt>
      <trkpt lat="43.75778" lon="4.71536">
        <ele>138.09</ele>
        <time>2025-04-04T14:43:52Z</time>
      </trkpt>
      <trkpt lat="43.75774" lon="4.7151">
        <ele>137.13</ele>
        <time>2025-04-04T14:44:13Z</time>
      </trkpt>
      <trkpt lat="43.75777" lon="4.71506">
        <ele>137.13</ele>
        <time>2025-04-04T14:44:32Z</time>
      </trkpt>
      <trkpt lat="43.75778" lon="4.71496">
        <ele>137.13</ele>
        <time>2025-04-04T14:44:46Z</time>
      </trkpt>
      <trkpt lat="43.7578" lon="4.71484">
        <ele>137.13</ele>
        <time>2025-04-04T14:45:05Z</time>
      </trkpt>
      <trkpt lat="43.75781" lon="4.71475">
        <ele>136.64</ele>
        <time>2025-04-04T14:45:20Z</time>
      </trkpt>
      <trkpt lat="43.75782" lon="4.71469">
        <ele>137.61</ele>
        <time>2025-04-04T14:45:33Z</time>
      </trkpt>
      <trkpt lat="43.75782" lon="4.71466">
        <ele>136.16</ele>
        <time>2025-04-04T14:45:37Z</time>
      </trkpt>
      <trkpt lat="43.75784" lon="4.71448">
        <ele>135.68</ele>
        <time>2025-04-04T14:45:54Z</time>
      </trkpt>
      <trkpt lat="43.75787" lon="4.71437">
        <ele>135.68</ele>
        <time>2025-04-04T14:46:03Z</time>
      </trkpt>
      <trkpt lat="43.75791" lon="4.71415">
        <ele>134.24</ele>
        <time>2025-04-04T14:46:20Z</time>
      </trkpt>
      <trkpt lat="43.75793" lon="4.71404">
        <ele>131.84</ele>
        <time>2025-04-04T14:46:33Z</time>
      </trkpt>
      <trkpt lat="43.75794" lon="4.71392">
        <ele>130.4</ele>
        <time>2025-04-04T14:46:47Z</time>
      </trkpt>
      <trkpt lat="43.75795" lon="4.71379">
        <ele>128.95</ele>
        <time>2025-04-04T14:47:03Z</time>
      </trkpt>
      <trkpt lat="43.75798" lon="4.71371">
        <ele>127.03</ele>
        <time>2025-04-04T14:47:19Z</time>
      </trkpt>
      <trkpt lat="43.75802" lon="4.7136">
        <ele>124.63</ele>
        <time>2025-04-04T14:47:34Z</time>
      </trkpt>
      <trkpt lat="43.75802" lon="4.7135">
        <ele>122.71</ele>
        <time>2025-04-04T14:47:49Z</time>
      </trkpt>
      <trkpt lat="43.75805" lon="4.71341">
        <ele>120.78</ele>
        <time>2025-04-04T14:48:03Z</time>
      </trkpt>
      <trkpt lat="43.75806" lon="4.71333">
        <ele>118.86</ele>
        <time>2025-04-04T14:48:15Z</time>
      </trkpt>
      <trkpt lat="43.75807" lon="4.71326">
        <ele>117.9</ele>
        <time>2025-04-04T14:48:36Z</time>
      </trkpt>
      <trkpt lat="43.7581" lon="4.71318">
        <ele>116.46</ele>
        <time>2025-04-04T14:48:48Z</time>
      </trkpt>
      <trkpt lat="43.75812" lon="4.71311">
        <ele>115.01</ele>
        <time>2025-04-04T14:49:01Z</time>
      </trkpt>
      <trkpt lat="43.75812" lon="4.71306">
        <ele>113.57</ele>
        <time>2025-04-04T14:49:14Z</time>
      </trkpt>
      <trkpt lat="43.75812" lon="4.71299">
        <ele>111.17</ele>
        <time>2025-04-04T14:49:28Z</time>
      </trkpt>
      <trkpt lat="43.75813" lon="4.71291">
        <ele>110.69</ele>
        <time>2025-04-04T14:49:39Z</time>
      </trkpt>
      <trkpt lat="43.75813" lon="4.71288">
        <ele>109.25</ele>
        <time>2025-04-04T14:49:51Z</time>
      </trkpt>
      <trkpt lat="43.75816" lon="4.71283">
        <ele>107.32</ele>
        <time>2025-04-04T14:50:07Z</time>
      </trkpt>
      <trkpt lat="43.75817" lon="4.71275">
        <ele>105.4</ele>
        <time>2025-04-04T14:50:22Z</time>
      </trkpt>
      <trkpt lat="43.75817" lon="4.71259">
        <ele>103.48</ele>
        <time>2025-04-04T14:50:39Z</time>
      </trkpt>
      <trkpt lat="43.75821" lon="4.71241">
        <ele>103.48</ele>
        <time>2025-04-04T14:50:57Z</time>
      </trkpt>
      <trkpt lat="43.75823" lon="4.71223">
        <ele>106.36</ele>
        <time>2025-04-04T14:51:12Z</time>
      </trkpt>
      <trkpt lat="43.75823" lon="4.71222">
        <ele>106.36</ele>
        <time>2025-04-04T14:51:13Z</time>
      </trkpt>
      <trkpt lat="43.75827" lon="4.71203">
        <ele>108.29</ele>
        <time>2025-04-04T14:51:30Z</time>
      </trkpt>
      <trkpt lat="43.7583" lon="4.71191">
        <ele>110.69</ele>
        <time>2025-04-04T14:51:44Z</time>
      </trkpt>
      <trkpt lat="43.75833" lon="4.71176">
        <ele>114.05</ele>
        <time>2025-04-04T14:52:03Z</time>
      </trkpt>
      <trkpt lat="43.75838" lon="4.71157">
        <ele>116.46</ele>
        <time>2025-04-04T14:52:23Z</time>
      </trkpt>
      <trkpt lat="43.75843" lon="4.71136">
        <ele>116.94</ele>
        <time>2025-04-04T14:52:38Z</time>
      </trkpt>
      <trkpt lat="43.75846" lon="4.71112">
        <ele>117.42</ele>
        <time>2025-04-04T14:52:55Z</time>
      </trkpt>
      <trkpt lat="43.75852" lon="4.71087">
        <ele>117.42</ele>
        <time>2025-04-04T14:53:12Z</time>
      </trkpt>
      <trkpt lat="43.75854" lon="4.71062">
        <ele>115.98</ele>
        <time>2025-04-04T14:53:29Z</time>
      </trkpt>
      <trkpt lat="43.75857" lon="4.7104">
        <ele>115.01</ele>
        <time>2025-04-04T14:53:44Z</time>
      </trkpt>
      <trkpt lat="43.75861" lon="4.71019">
        <ele>114.05</ele>
        <time>2025-04-04T14:53:57Z</time>
      </trkpt>
      <trkpt lat="43.75864" lon="4.71001">
        <ele>113.57</ele>
        <time>2025-04-04T14:54:11Z</time>
      </trkpt>
      <trkpt lat="43.75867" lon="4.7099">
        <ele>113.09</ele>
        <time>2025-04-04T14:54:20Z</time>
      </trkpt>
      <trkpt lat="43.7587" lon="4.7097">
        <ele>111.17</ele>
        <time>2025-04-04T14:54:33Z</time>
      </trkpt>
      <trkpt lat="43.75871" lon="4.70959">
        <ele>110.69</ele>
        <time>2025-04-04T14:54:41Z</time>
      </trkpt>
      <trkpt lat="43.75874" lon="4.70939">
        <ele>110.21</ele>
        <time>2025-04-04T14:54:55Z</time>
      </trkpt>
      <trkpt lat="43.75874" lon="4.70935">
        <ele>109.73</ele>
        <time>2025-04-04T14:54:59Z</time>
      </trkpt>
      <trkpt lat="43.75874" lon="4.7093">
        <ele>109.73</ele>
        <time>2025-04-04T14:55:02Z</time>
      </trkpt>
      <trkpt lat="43.75875" lon="4.7092">
        <ele>108.77</ele>
        <time>2025-04-04T14:55:09Z</time>
      </trkpt>
      <trkpt lat="43.75879" lon="4.70898">
        <ele>107.32</ele>
        <time>2025-04-04T14:55:25Z</time>
      </trkpt>
      <trkpt lat="43.75881" lon="4.70886">
        <ele>106.84</ele>
        <time>2025-04-04T14:55:33Z</time>
      </trkpt>
      <trkpt lat="43.75886" lon="4.70867">
        <ele>105.4</ele>
        <time>2025-04-04T14:55:47Z</time>
      </trkpt>
      <trkpt lat="43.75889" lon="4.70848">
        <ele>103.96</ele>
        <time>2025-04-04T14:56:01Z</time>
      </trkpt>
      <trkpt lat="43.75891" lon="4.70836">
        <ele>103</ele>
        <time>2025-04-04T14:56:09Z</time>
      </trkpt>
      <trkpt lat="43.75892" lon="4.7083">
        <ele>102.52</ele>
        <time>2025-04-04T14:56:13Z</time>
      </trkpt>
      <trkpt lat="43.75897" lon="4.70813">
        <ele>101.56</ele>
        <time>2025-04-04T14:56:29Z</time>
      </trkpt>
      <trkpt lat="43.75899" lon="4.70792">
        <ele>100.11</ele>
        <time>2025-04-04T14:56:43Z</time>
      </trkpt>
      <trkpt lat="43.75902" lon="4.70777">
        <ele>99.63</ele>
        <time>2025-04-04T14:56:54Z</time>
      </trkpt>
      <trkpt lat="43.75902" lon="4.70776">
        <ele>99.15</ele>
        <time>2025-04-04T14:56:57Z</time>
      </trkpt>
      <trkpt lat="43.75903" lon="4.70767">
        <ele>98.67</ele>
        <time>2025-04-04T14:57:05Z</time>
      </trkpt>
      <trkpt lat="43.75903" lon="4.70758">
        <ele>97.71</ele>
        <time>2025-04-04T14:57:13Z</time>
      </trkpt>
      <trkpt lat="43.75906" lon="4.70751">
        <ele>97.23</ele>
        <time>2025-04-04T14:57:20Z</time>
      </trkpt>
      <trkpt lat="43.75907" lon="4.70743">
        <ele>96.27</ele>
        <time>2025-04-04T14:57:27Z</time>
      </trkpt>
      <trkpt lat="43.75908" lon="4.7074">
        <ele>96.27</ele>
        <time>2025-04-04T14:57:29Z</time>
      </trkpt>
      <trkpt lat="43.7591" lon="4.7073">
        <ele>95.79</ele>
        <time>2025-04-04T14:57:36Z</time>
      </trkpt>
      <trkpt lat="43.7591" lon="4.70728">
        <ele>95.31</ele>
        <time>2025-04-04T14:57:38Z</time>
      </trkpt>
      <trkpt lat="43.75914" lon="4.70705">
        <ele>94.83</ele>
        <time>2025-04-04T14:57:53Z</time>
      </trkpt>
      <trkpt lat="43.75916" lon="4.70687">
        <ele>93.87</ele>
        <time>2025-04-04T14:58:07Z</time>
      </trkpt>
      <trkpt lat="43.75921" lon="4.70665">
        <ele>93.87</ele>
        <time>2025-04-04T14:58:21Z</time>
      </trkpt>
      <trkpt lat="43.75921" lon="4.70661">
        <ele>93.87</ele>
        <time>2025-04-04T14:58:25Z</time>
      </trkpt>
      <trkpt lat="43.75922" lon="4.70647">
        <ele>93.39</ele>
        <time>2025-04-04T14:58:35Z</time>
      </trkpt>
      <trkpt lat="43.75927" lon="4.70628">
        <ele>92.42</ele>
        <time>2025-04-04T14:58:48Z</time>
      </trkpt>
      <trkpt lat="43.75929" lon="4.70614">
        <ele>91.94</ele>
        <time>2025-04-04T14:58:58Z</time>
      </trkpt>
      <trkpt lat="43.75928" lon="4.70601">
        <ele>91.46</ele>
        <time>2025-04-04T14:59:07Z</time>
      </trkpt>
      <trkpt lat="43.75929" lon="4.70594">
        <ele>91.46</ele>
        <time>2025-04-04T14:59:13Z</time>
      </trkpt>
      <trkpt lat="43.75928" lon="4.70592">
        <ele>90.98</ele>
        <time>2025-04-04T14:59:16Z</time>
      </trkpt>
      <trkpt lat="43.75928" lon="4.70591">
        <ele>90.98</ele>
        <time>2025-04-04T14:59:17Z</time>
      </trkpt>
      <trkpt lat="43.75918" lon="4.70584">
        <ele>90.5</ele>
        <time>2025-04-04T14:59:31Z</time>
      </trkpt>
      <trkpt lat="43.75908" lon="4.7058">
        <ele>88.58</ele>
        <time>2025-04-04T14:59:42Z</time>
      </trkpt>
      <trkpt lat="43.75907" lon="4.7058">
        <ele>88.58</ele>
        <time>2025-04-04T14:59:43Z</time>
      </trkpt>
      <trkpt lat="43.7589" lon="4.7057">
        <ele>87.62</ele>
        <time>2025-04-04T14:59:57Z</time>
      </trkpt>
      <trkpt lat="43.75878" lon="4.70566">
        <ele>87.62</ele>
        <time>2025-04-04T15:00:10Z</time>
      </trkpt>
      <trkpt lat="43.75867" lon="4.70554">
        <ele>86.66</ele>
        <time>2025-04-04T15:00:25Z</time>
      </trkpt>
      <trkpt lat="43.75866" lon="4.70547">
        <ele>86.18</ele>
        <time>2025-04-04T15:00:31Z</time>
      </trkpt>
      <trkpt lat="43.75867" lon="4.70545">
        <ele>85.69</ele>
        <time>2025-04-04T15:00:32Z</time>
      </trkpt>
      <trkpt lat="43.7587" lon="4.70535">
        <ele>85.21</ele>
        <time>2025-04-04T15:00:41Z</time>
      </trkpt>
      <trkpt lat="43.75871" lon="4.70534">
        <ele>85.21</ele>
        <time>2025-04-04T15:00:42Z</time>
      </trkpt>
      <trkpt lat="43.7589" lon="4.7052">
        <ele>85.21</ele>
        <time>2025-04-04T15:01:02Z</time>
      </trkpt>
      <trkpt lat="43.75908" lon="4.70516">
        <ele>85.21</ele>
        <time>2025-04-04T15:01:19Z</time>
      </trkpt>
      <trkpt lat="43.75924" lon="4.70517">
        <ele>85.21</ele>
        <time>2025-04-04T15:01:33Z</time>
      </trkpt>
      <trkpt lat="43.75944" lon="4.70525">
        <ele>85.21</ele>
        <time>2025-04-04T15:01:52Z</time>
      </trkpt>
      <trkpt lat="43.75964" lon="4.70531">
        <ele>86.18</ele>
        <time>2025-04-04T15:02:09Z</time>
      </trkpt>
      <trkpt lat="43.75984" lon="4.70533">
        <ele>87.14</ele>
        <time>2025-04-04T15:02:27Z</time>
      </trkpt>
      <trkpt lat="43.75991" lon="4.70531">
        <ele>87.14</ele>
        <time>2025-04-04T15:02:33Z</time>
      </trkpt>
      <trkpt lat="43.76007" lon="4.70519">
        <ele>87.14</ele>
        <time>2025-04-04T15:02:47Z</time>
      </trkpt>
      <trkpt lat="43.76007" lon="4.70518">
        <ele>87.14</ele>
        <time>2025-04-04T15:02:48Z</time>
      </trkpt>
      <trkpt lat="43.76022" lon="4.70504">
        <ele>86.18</ele>
        <time>2025-04-04T15:03:04Z</time>
      </trkpt>
      <trkpt lat="43.76038" lon="4.7049">
        <ele>86.18</ele>
        <time>2025-04-04T15:03:20Z</time>
      </trkpt>
      <trkpt lat="43.76057" lon="4.70479">
        <ele>87.14</ele>
        <time>2025-04-04T15:03:38Z</time>
      </trkpt>
      <trkpt lat="43.76074" lon="4.70471">
        <ele>87.14</ele>
        <time>2025-04-04T15:03:53Z</time>
      </trkpt>
      <trkpt lat="43.76093" lon="4.70467">
        <ele>87.14</ele>
        <time>2025-04-04T15:04:09Z</time>
      </trkpt>
      <trkpt lat="43.76109" lon="4.70466">
        <ele>87.14</ele>
        <time>2025-04-04T15:04:25Z</time>
      </trkpt>
      <trkpt lat="43.76121" lon="4.70468">
        <ele>88.1</ele>
        <time>2025-04-04T15:04:41Z</time>
      </trkpt>
      <trkpt lat="43.76125" lon="4.70469">
        <ele>88.1</ele>
        <time>2025-04-04T15:04:45Z</time>
      </trkpt>
      <trkpt lat="43.7614" lon="4.70476">
        <ele>88.58</ele>
        <time>2025-04-04T15:05:01Z</time>
      </trkpt>
      <trkpt lat="43.76156" lon="4.70489">
        <ele>89.06</ele>
        <time>2025-04-04T15:05:18Z</time>
      </trkpt>
      <trkpt lat="43.76168" lon="4.70513">
        <ele>89.54</ele>
        <time>2025-04-04T15:05:35Z</time>
      </trkpt>
      <trkpt lat="43.76177" lon="4.70526">
        <ele>89.54</ele>
        <time>2025-04-04T15:05:47Z</time>
      </trkpt>
      <trkpt lat="43.76185" lon="4.70525">
        <ele>89.54</ele>
        <time>2025-04-04T15:05:54Z</time>
      </trkpt>
      <trkpt lat="43.76192" lon="4.70505">
        <ele>89.54</ele>
        <time>2025-04-04T15:06:10Z</time>
      </trkpt>
      <trkpt lat="43.76193" lon="4.705">
        <ele>89.54</ele>
        <time>2025-04-04T15:06:13Z</time>
      </trkpt>
      <trkpt lat="43.76194" lon="4.70484">
        <ele>88.1</ele>
        <time>2025-04-04T15:06:25Z</time>
      </trkpt>
      <trkpt lat="43.76201" lon="4.7046">
        <ele>87.62</ele>
        <time>2025-04-04T15:06:42Z</time>
      </trkpt>
      <trkpt lat="43.76204" lon="4.7045">
        <ele>87.14</ele>
        <time>2025-04-04T15:06:49Z</time>
      </trkpt>
      <trkpt lat="43.76217" lon="4.7043">
        <ele>86.66</ele>
        <time>2025-04-04T15:07:07Z</time>
      </trkpt>
      <trkpt lat="43.76233" lon="4.70414">
        <ele>86.18</ele>
        <time>2025-04-04T15:07:24Z</time>
      </trkpt>
      <trkpt lat="43.76251" lon="4.70409">
        <ele>86.18</ele>
        <time>2025-04-04T15:07:42Z</time>
      </trkpt>
      <trkpt lat="43.76262" lon="4.70408">
        <ele>86.18</ele>
        <time>2025-04-04T15:07:53Z</time>
      </trkpt>
      <trkpt lat="43.76275" lon="4.70398">
        <ele>86.18</ele>
        <time>2025-04-04T15:08:08Z</time>
      </trkpt>
      <trkpt lat="43.76285" lon="4.70388">
        <ele>86.18</ele>
        <time>2025-04-04T15:08:20Z</time>
      </trkpt>
      <trkpt lat="43.76286" lon="4.70387">
        <ele>86.18</ele>
        <time>2025-04-04T15:08:21Z</time>
      </trkpt>
      <trkpt lat="43.76286" lon="4.70383">
        <ele>86.18</ele>
        <time>2025-04-04T15:08:24Z</time>
      </trkpt>
      <trkpt lat="43.76278" lon="4.70365">
        <ele>85.21</ele>
        <time>2025-04-04T15:08:40Z</time>
      </trkpt>
      <trkpt lat="43.76265" lon="4.7035">
        <ele>83.77</ele>
        <time>2025-04-04T15:08:57Z</time>
      </trkpt>
      <trkpt lat="43.76255" lon="4.70338">
        <ele>83.29</ele>
        <time>2025-04-04T15:09:09Z</time>
      </trkpt>
      <trkpt lat="43.76254" lon="4.70336">
        <ele>83.29</ele>
        <time>2025-04-04T15:09:10Z</time>
      </trkpt>
      <trkpt lat="43.76254" lon="4.70335">
        <ele>83.29</ele>
        <time>2025-04-04T15:09:11Z</time>
      </trkpt>
      <trkpt lat="43.76253" lon="4.70334">
        <ele>83.29</ele>
        <time>2025-04-04T15:09:12Z</time>
      </trkpt>
      <trkpt lat="43.76252" lon="4.70333">
        <ele>83.29</ele>
        <time>2025-04-04T15:09:13Z</time>
      </trkpt>
      <trkpt lat="43.76239" lon="4.70316">
        <ele>81.37</ele>
        <time>2025-04-04T15:09:30Z</time>
      </trkpt>
      <trkpt lat="43.76228" lon="4.70302">
        <ele>80.41</ele>
        <time>2025-04-04T15:09:45Z</time>
      </trkpt>
      <trkpt lat="43.76218" lon="4.70288">
        <ele>79.45</ele>
        <time>2025-04-04T15:09:58Z</time>
      </trkpt>
      <trkpt lat="43.76205" lon="4.70272">
        <ele>78.97</ele>
        <time>2025-04-04T15:10:13Z</time>
      </trkpt>
      <trkpt lat="43.76195" lon="4.70257">
        <ele>77.52</ele>
        <time>2025-04-04T15:10:27Z</time>
      </trkpt>
      <trkpt lat="43.76187" lon="4.70241">
        <ele>76.08</ele>
        <time>2025-04-04T15:10:41Z</time>
      </trkpt>
      <trkpt lat="43.76179" lon="4.7023">
        <ele>75.6</ele>
        <time>2025-04-04T15:10:55Z</time>
      </trkpt>
      <trkpt lat="43.76168" lon="4.70218">
        <ele>74.64</ele>
        <time>2025-04-04T15:11:07Z</time>
      </trkpt>
      <trkpt lat="43.7616" lon="4.70204">
        <ele>73.2</ele>
        <time>2025-04-04T15:11:18Z</time>
      </trkpt>
      <trkpt lat="43.76159" lon="4.70204">
        <ele>73.2</ele>
        <time>2025-04-04T15:11:19Z</time>
      </trkpt>
      <trkpt lat="43.76158" lon="4.70202">
        <ele>73.2</ele>
        <time>2025-04-04T15:11:20Z</time>
      </trkpt>
      <trkpt lat="43.76157" lon="4.70201">
        <ele>73.2</ele>
        <time>2025-04-04T15:11:21Z</time>
      </trkpt>
      <trkpt lat="43.76156" lon="4.70199">
        <ele>72.72</ele>
        <time>2025-04-04T15:11:22Z</time>
      </trkpt>
      <trkpt lat="43.76143" lon="4.70184">
        <ele>72.24</ele>
        <time>2025-04-04T15:11:36Z</time>
      </trkpt>
      <trkpt lat="43.76141" lon="4.70183">
        <ele>73.2</ele>
        <time>2025-04-04T15:11:38Z</time>
      </trkpt>
      <trkpt lat="43.76139" lon="4.70179">
        <ele>71.76</ele>
        <time>2025-04-04T15:11:42Z</time>
      </trkpt>
      <trkpt lat="43.76126" lon="4.70162">
        <ele>70.79</ele>
        <time>2025-04-04T15:11:57Z</time>
      </trkpt>
      <trkpt lat="43.76125" lon="4.70162">
        <ele>70.79</ele>
        <time>2025-04-04T15:11:58Z</time>
      </trkpt>
      <trkpt lat="43.76122" lon="4.70159">
        <ele>70.79</ele>
        <time>2025-04-04T15:12:01Z</time>
      </trkpt>
      <trkpt lat="43.76121" lon="4.70158">
        <ele>70.31</ele>
        <time>2025-04-04T15:12:02Z</time>
      </trkpt>
      <trkpt lat="43.76121" lon="4.70157">
        <ele>70.31</ele>
        <time>2025-04-04T15:12:03Z</time>
      </trkpt>
      <trkpt lat="43.7612" lon="4.70156">
        <ele>70.31</ele>
        <time>2025-04-04T15:12:04Z</time>
      </trkpt>
      <trkpt lat="43.76116" lon="4.70148">
        <ele>68.87</ele>
        <time>2025-04-04T15:12:12Z</time>
      </trkpt>
      <trkpt lat="43.76115" lon="4.70147">
        <ele>68.87</ele>
        <time>2025-04-04T15:12:13Z</time>
      </trkpt>
      <trkpt lat="43.76114" lon="4.70145">
        <ele>68.87</ele>
        <time>2025-04-04T15:12:14Z</time>
      </trkpt>
      <trkpt lat="43.76106" lon="4.70132">
        <ele>68.87</ele>
        <time>2025-04-04T15:12:27Z</time>
      </trkpt>
      <trkpt lat="43.76105" lon="4.7013">
        <ele>68.39</ele>
        <time>2025-04-04T15:12:29Z</time>
      </trkpt>
      <trkpt lat="43.76104" lon="4.70123">
        <ele>67.91</ele>
        <time>2025-04-04T15:12:34Z</time>
      </trkpt>
      <trkpt lat="43.76103" lon="4.70122">
        <ele>67.91</ele>
        <time>2025-04-04T15:12:35Z</time>
      </trkpt>
      <trkpt lat="43.76098" lon="4.70097">
        <ele>66.95</ele>
        <time>2025-04-04T15:12:51Z</time>
      </trkpt>
      <trkpt lat="43.76105" lon="4.70075">
        <ele>65.51</ele>
        <time>2025-04-04T15:13:07Z</time>
      </trkpt>
      <trkpt lat="43.7611" lon="4.70064">
        <ele>64.07</ele>
        <time>2025-04-04T15:13:18Z</time>
      </trkpt>
      <trkpt lat="43.76121" lon="4.70054">
        <ele>63.1</ele>
        <time>2025-04-04T15:13:32Z</time>
      </trkpt>
      <trkpt lat="43.76123" lon="4.70053">
        <ele>63.1</ele>
        <time>2025-04-04T15:13:34Z</time>
      </trkpt>
      <trkpt lat="43.76124" lon="4.70052">
        <ele>63.1</ele>
        <time>2025-04-04T15:13:35Z</time>
      </trkpt>
      <trkpt lat="43.76126" lon="4.70051">
        <ele>63.1</ele>
        <time>2025-04-04T15:13:36Z</time>
      </trkpt>
      <trkpt lat="43.76127" lon="4.7005">
        <ele>63.1</ele>
        <time>2025-04-04T15:13:37Z</time>
      </trkpt>
      <trkpt lat="43.7614" lon="4.70043">
        <ele>62.14</ele>
        <time>2025-04-04T15:13:51Z</time>
      </trkpt>
      <trkpt lat="43.76151" lon="4.70034">
        <ele>60.7</ele>
        <time>2025-04-04T15:14:04Z</time>
      </trkpt>
      <trkpt lat="43.76159" lon="4.70027">
        <ele>60.22</ele>
        <time>2025-04-04T15:14:13Z</time>
      </trkpt>
      <trkpt lat="43.7616" lon="4.70025">
        <ele>60.22</ele>
        <time>2025-04-04T15:14:14Z</time>
      </trkpt>
      <trkpt lat="43.76162" lon="4.70024">
        <ele>60.22</ele>
        <time>2025-04-04T15:14:15Z</time>
      </trkpt>
      <trkpt lat="43.76163" lon="4.70023">
        <ele>60.22</ele>
        <time>2025-04-04T15:14:16Z</time>
      </trkpt>
      <trkpt lat="43.76175" lon="4.70012">
        <ele>59.74</ele>
        <time>2025-04-04T15:14:30Z</time>
      </trkpt>
      <trkpt lat="43.76186" lon="4.7">
        <ele>58.3</ele>
        <time>2025-04-04T15:14:44Z</time>
      </trkpt>
      <trkpt lat="43.76199" lon="4.69987">
        <ele>57.34</ele>
        <time>2025-04-04T15:14:58Z</time>
      </trkpt>
      <trkpt lat="43.76207" lon="4.6997">
        <ele>55.89</ele>
        <time>2025-04-04T15:15:12Z</time>
      </trkpt>
      <trkpt lat="43.76208" lon="4.69966">
        <ele>55.41</ele>
        <time>2025-04-04T15:15:15Z</time>
      </trkpt>
      <trkpt lat="43.76213" lon="4.69945">
        <ele>54.45</ele>
        <time>2025-04-04T15:15:30Z</time>
      </trkpt>
      <trkpt lat="43.76217" lon="4.69926">
        <ele>53.01</ele>
        <time>2025-04-04T15:15:43Z</time>
      </trkpt>
      <trkpt lat="43.76216" lon="4.69916">
        <ele>53.01</ele>
        <time>2025-04-04T15:15:58Z</time>
      </trkpt>
      <trkpt lat="43.76223" lon="4.69902">
        <ele>51.57</ele>
        <time>2025-04-04T15:16:18Z</time>
      </trkpt>
      <trkpt lat="43.76235" lon="4.69888">
        <ele>51.09</ele>
        <time>2025-04-04T15:16:32Z</time>
      </trkpt>
      <trkpt lat="43.76245" lon="4.69887">
        <ele>51.09</ele>
        <time>2025-04-04T15:16:41Z</time>
      </trkpt>
      <trkpt lat="43.76265" lon="4.6989">
        <ele>52.05</ele>
        <time>2025-04-04T15:16:58Z</time>
      </trkpt>
      <trkpt lat="43.76282" lon="4.69891">
        <ele>52.05</ele>
        <time>2025-04-04T15:17:14Z</time>
      </trkpt>
      <trkpt lat="43.76301" lon="4.69895">
        <ele>52.05</ele>
        <time>2025-04-04T15:17:32Z</time>
      </trkpt>
      <trkpt lat="43.76323" lon="4.69907">
        <ele>52.05</ele>
        <time>2025-04-04T15:17:51Z</time>
      </trkpt>
      <trkpt lat="43.7634" lon="4.69919">
        <ele>52.05</ele>
        <time>2025-04-04T15:18:06Z</time>
      </trkpt>
      <trkpt lat="43.76354" lon="4.69922">
        <ele>50.61</ele>
        <time>2025-04-04T15:18:20Z</time>
      </trkpt>
      <trkpt lat="43.76371" lon="4.69931">
        <ele>50.61</ele>
        <time>2025-04-04T15:18:38Z</time>
      </trkpt>
      <trkpt lat="43.76377" lon="4.69934">
        <ele>52.05</ele>
        <time>2025-04-04T15:18:43Z</time>
      </trkpt>
      <trkpt lat="43.76391" lon="4.69939">
        <ele>54.45</ele>
        <time>2025-04-04T15:19:00Z</time>
      </trkpt>
      <trkpt lat="43.76392" lon="4.69938">
        <ele>54.45</ele>
        <time>2025-04-04T15:19:01Z</time>
      </trkpt>
      <trkpt lat="43.76393" lon="4.69938">
        <ele>54.45</ele>
        <time>2025-04-04T15:19:02Z</time>
      </trkpt>
      <trkpt lat="43.76394" lon="4.69937">
        <ele>54.93</ele>
        <time>2025-04-04T15:19:03Z</time>
      </trkpt>
      <trkpt lat="43.76401" lon="4.69931">
        <ele>55.41</ele>
        <time>2025-04-04T15:19:10Z</time>
      </trkpt>
      <trkpt lat="43.76414" lon="4.69913">
        <ele>56.86</ele>
        <time>2025-04-04T15:19:26Z</time>
      </trkpt>
      <trkpt lat="43.76417" lon="4.69912">
        <ele>56.86</ele>
        <time>2025-04-04T15:19:30Z</time>
      </trkpt>
      <trkpt lat="43.76434" lon="4.69911">
        <ele>57.34</ele>
        <time>2025-04-04T15:19:45Z</time>
      </trkpt>
      <trkpt lat="43.76448" lon="4.69915">
        <ele>58.3</ele>
        <time>2025-04-04T15:19:59Z</time>
      </trkpt>
      <trkpt lat="43.76454" lon="4.69917">
        <ele>58.3</ele>
        <time>2025-04-04T15:20:05Z</time>
      </trkpt>
      <trkpt lat="43.76469" lon="4.69921">
        <ele>58.78</ele>
        <time>2025-04-04T15:20:19Z</time>
      </trkpt>
      <trkpt lat="43.7647" lon="4.69921">
        <ele>58.78</ele>
        <time>2025-04-04T15:20:20Z</time>
      </trkpt>
      <trkpt lat="43.76486" lon="4.69925">
        <ele>60.22</ele>
        <time>2025-04-04T15:20:33Z</time>
      </trkpt>
      <trkpt lat="43.76505" lon="4.69926">
        <ele>60.22</ele>
        <time>2025-04-04T15:20:48Z</time>
      </trkpt>
      <trkpt lat="43.7651" lon="4.69927">
        <ele>60.22</ele>
        <time>2025-04-04T15:20:52Z</time>
      </trkpt>
      <trkpt lat="43.76517" lon="4.69927">
        <ele>60.22</ele>
        <time>2025-04-04T15:20:58Z</time>
      </trkpt>
      <trkpt lat="43.76534" lon="4.69926">
        <ele>60.22</ele>
        <time>2025-04-04T15:21:14Z</time>
      </trkpt>
      <trkpt lat="43.76535" lon="4.69926">
        <ele>60.22</ele>
        <time>2025-04-04T15:21:15Z</time>
      </trkpt>
      <trkpt lat="43.76537" lon="4.69926">
        <ele>60.22</ele>
        <time>2025-04-04T15:21:16Z</time>
      </trkpt>
      <trkpt lat="43.76554" lon="4.69918">
        <ele>58.3</ele>
        <time>2025-04-04T15:21:32Z</time>
      </trkpt>
      <trkpt lat="43.76567" lon="4.69907">
        <ele>57.82</ele>
        <time>2025-04-04T15:21:45Z</time>
      </trkpt>
      <trkpt lat="43.76576" lon="4.69897">
        <ele>57.34</ele>
        <time>2025-04-04T15:21:58Z</time>
      </trkpt>
      <trkpt lat="43.76584" lon="4.69892">
        <ele>56.37</ele>
        <time>2025-04-04T15:22:06Z</time>
      </trkpt>
      <trkpt lat="43.76595" lon="4.69882">
        <ele>56.37</ele>
        <time>2025-04-04T15:22:19Z</time>
      </trkpt>
      <trkpt lat="43.76603" lon="4.69875">
        <ele>55.41</ele>
        <time>2025-04-04T15:22:28Z</time>
      </trkpt>
      <trkpt lat="43.76604" lon="4.69874">
        <ele>55.41</ele>
        <time>2025-04-04T15:22:29Z</time>
      </trkpt>
      <trkpt lat="43.76605" lon="4.69872">
        <ele>55.41</ele>
        <time>2025-04-04T15:22:30Z</time>
      </trkpt>
      <trkpt lat="43.76615" lon="4.69859">
        <ele>54.45</ele>
        <time>2025-04-04T15:22:43Z</time>
      </trkpt>
      <trkpt lat="43.76623" lon="4.69847">
        <ele>54.45</ele>
        <time>2025-04-04T15:22:58Z</time>
      </trkpt>
      <trkpt lat="43.76636" lon="4.69833">
        <ele>54.45</ele>
        <time>2025-04-04T15:23:12Z</time>
      </trkpt>
      <trkpt lat="43.76643" lon="4.6982">
        <ele>53.01</ele>
        <time>2025-04-04T15:23:31Z</time>
      </trkpt>
      <trkpt lat="43.76642" lon="4.69809">
        <ele>51.57</ele>
        <time>2025-04-04T15:23:44Z</time>
      </trkpt>
      <trkpt lat="43.76643" lon="4.69804">
        <ele>51.57</ele>
        <time>2025-04-04T15:23:49Z</time>
      </trkpt>
      <trkpt lat="43.76643" lon="4.69795">
        <ele>51.09</ele>
        <time>2025-04-04T15:23:55Z</time>
      </trkpt>
      <trkpt lat="43.76644" lon="4.69774">
        <ele>49.16</ele>
        <time>2025-04-04T15:24:09Z</time>
      </trkpt>
      <trkpt lat="43.76645" lon="4.69761">
        <ele>48.2</ele>
        <time>2025-04-04T15:24:21Z</time>
      </trkpt>
      <trkpt lat="43.76645" lon="4.69759">
        <ele>47.72</ele>
        <time>2025-04-04T15:24:27Z</time>
      </trkpt>
      <trkpt lat="43.76648" lon="4.69746">
        <ele>46.76</ele>
        <time>2025-04-04T15:24:41Z</time>
      </trkpt>
      <trkpt lat="43.76648" lon="4.69744">
        <ele>46.28</ele>
        <time>2025-04-04T15:24:43Z</time>
      </trkpt>
      <trkpt lat="43.76649" lon="4.69732">
        <ele>45.8</ele>
        <time>2025-04-04T15:24:51Z</time>
      </trkpt>
      <trkpt lat="43.76652" lon="4.69719">
        <ele>43.88</ele>
        <time>2025-04-04T15:25:00Z</time>
      </trkpt>
      <trkpt lat="43.76654" lon="4.69706">
        <ele>42.92</ele>
        <time>2025-04-04T15:25:09Z</time>
      </trkpt>
      <trkpt lat="43.76656" lon="4.69685">
        <ele>40.99</ele>
        <time>2025-04-04T15:25:27Z</time>
      </trkpt>
      <trkpt lat="43.76656" lon="4.69666">
        <ele>40.03</ele>
        <time>2025-04-04T15:25:41Z</time>
      </trkpt>
      <trkpt lat="43.76657" lon="4.69645">
        <ele>38.11</ele>
        <time>2025-04-04T15:25:54Z</time>
      </trkpt>
      <trkpt lat="43.76658" lon="4.69628">
        <ele>35.71</ele>
        <time>2025-04-04T15:26:08Z</time>
      </trkpt>
      <trkpt lat="43.76656" lon="4.6962">
        <ele>34.26</ele>
        <time>2025-04-04T15:26:16Z</time>
      </trkpt>
      <trkpt lat="43.76657" lon="4.69606">
        <ele>32.34</ele>
        <time>2025-04-04T15:26:29Z</time>
      </trkpt>
      <trkpt lat="43.7666" lon="4.69597">
        <ele>31.38</ele>
        <time>2025-04-04T15:26:38Z</time>
      </trkpt>
      <trkpt lat="43.7666" lon="4.69593">
        <ele>30.42</ele>
        <time>2025-04-04T15:26:41Z</time>
      </trkpt>
      <trkpt lat="43.76662" lon="4.69583">
        <ele>28.5</ele>
        <time>2025-04-04T15:26:53Z</time>
      </trkpt>
      <trkpt lat="43.76662" lon="4.69569">
        <ele>26.09</ele>
        <time>2025-04-04T15:27:09Z</time>
      </trkpt>
      <trkpt lat="43.76662" lon="4.69559">
        <ele>25.13</ele>
        <time>2025-04-04T15:27:23Z</time>
      </trkpt>
      <trkpt lat="43.76662" lon="4.69549">
        <ele>23.69</ele>
        <time>2025-04-04T15:27:38Z</time>
      </trkpt>
      <trkpt lat="43.76662" lon="4.6954">
        <ele>22.25</ele>
        <time>2025-04-04T15:27:50Z</time>
      </trkpt>
      <trkpt lat="43.76658" lon="4.69533">
        <ele>20.32</ele>
        <time>2025-04-04T15:28:01Z</time>
      </trkpt>
      <trkpt lat="43.76658" lon="4.69525">
        <ele>18.88</ele>
        <time>2025-04-04T15:28:21Z</time>
      </trkpt>
      <trkpt lat="43.76664" lon="4.69519">
        <ele>18.4</ele>
        <time>2025-04-04T15:28:43Z</time>
      </trkpt>
      <trkpt lat="43.76662" lon="4.6952">
        <ele>17.92</ele>
        <time>2025-04-04T15:29:03Z</time>
      </trkpt>
      <trkpt lat="43.7666" lon="4.69521">
        <ele>19.36</ele>
        <time>2025-04-04T15:29:22Z</time>
      </trkpt>
      <trkpt lat="43.7666" lon="4.69521">
        <ele>17.92</ele>
        <time>2025-04-04T15:29:24Z</time>
      </trkpt>
      <trkpt lat="43.76657" lon="4.69529">
        <ele>17.44</ele>
        <time>2025-04-04T15:29:46Z</time>
      </trkpt>
      <trkpt lat="43.76656" lon="4.69525">
        <ele>16.96</ele>
        <time>2025-04-04T15:30:13Z</time>
      </trkpt>
      <trkpt lat="43.76656" lon="4.69516">
        <ele>18.4</ele>
        <time>2025-04-04T15:30:36Z</time>
      </trkpt>
      <trkpt lat="43.76656" lon="4.69517">
        <ele>17.44</ele>
        <time>2025-04-04T15:30:42Z</time>
      </trkpt>
      <trkpt lat="43.76656" lon="4.69517">
        <ele>16.96</ele>
        <time>2025-04-04T15:30:58Z</time>
      </trkpt>
      <trkpt lat="43.76656" lon="4.69516">
        <ele>16.96</ele>
        <time>2025-04-04T15:30:59Z</time>
      </trkpt>
      <trkpt lat="43.76653" lon="4.69503">
        <ele>15.52</ele>
        <time>2025-04-04T15:31:16Z</time>
      </trkpt>
      <trkpt lat="43.76653" lon="4.69491">
        <ele>14.08</ele>
        <time>2025-04-04T15:31:33Z</time>
      </trkpt>
      <trkpt lat="43.76656" lon="4.69489">
        <ele>14.08</ele>
        <time>2025-04-04T15:31:46Z</time>
      </trkpt>
      <trkpt lat="43.76654" lon="4.69484">
        <ele>14.08</ele>
        <time>2025-04-04T15:32:10Z</time>
      </trkpt>
      <trkpt lat="43.76658" lon="4.69484">
        <ele>14.08</ele>
        <time>2025-04-04T15:32:24Z</time>
      </trkpt>
      <trkpt lat="43.76668" lon="4.69489">
        <ele>15.04</ele>
        <time>2025-04-04T15:32:38Z</time>
      </trkpt>
      <trkpt lat="43.76666" lon="4.6949">
        <ele>15.04</ele>
        <time>2025-04-04T15:33:05Z</time>
      </trkpt>
      <trkpt lat="43.76662" lon="4.69484">
        <ele>15.04</ele>
        <time>2025-04-04T15:33:19Z</time>
      </trkpt>
      <trkpt lat="43.76661" lon="4.6948">
        <ele>13.6</ele>
        <time>2025-04-04T15:34:01Z</time>
      </trkpt>
      <trkpt lat="43.7666" lon="4.69479">
        <ele>14.56</ele>
        <time>2025-04-04T15:34:17Z</time>
      </trkpt>
      <trkpt lat="43.7666" lon="4.69467">
        <ele>11.19</ele>
        <time>2025-04-04T15:34:32Z</time>
      </trkpt>
      <trkpt lat="43.76658" lon="4.69445">
        <ele>10.23</ele>
        <time>2025-04-04T15:34:50Z</time>
      </trkpt>
      <trkpt lat="43.76662" lon="4.69439">
        <ele>10.71</ele>
        <time>2025-04-04T15:35:09Z</time>
      </trkpt>
      <trkpt lat="43.76661" lon="4.69441">
        <ele>10.71</ele>
        <time>2025-04-04T15:35:28Z</time>
      </trkpt>
      <trkpt lat="43.7666" lon="4.69439">
        <ele>10.71</ele>
        <time>2025-04-04T15:35:51Z</time>
      </trkpt>
      <trkpt lat="43.76657" lon="4.69443">
        <ele>9.75</ele>
        <time>2025-04-04T15:36:08Z</time>
      </trkpt>
      <trkpt lat="43.76658" lon="4.69442">
        <ele>10.71</ele>
        <time>2025-04-04T15:36:18Z</time>
      </trkpt>
      <trkpt lat="43.76659" lon="4.69443">
        <ele>8.79</ele>
        <time>2025-04-04T15:36:33Z</time>
      </trkpt>
      <trkpt lat="43.76659" lon="4.69443">
        <ele>10.71</ele>
        <time>2025-04-04T15:36:35Z</time>
      </trkpt>
      <trkpt lat="43.76659" lon="4.69441">
        <ele>9.27</ele>
        <time>2025-04-04T15:37:06Z</time>
      </trkpt>
      <trkpt lat="43.76659" lon="4.69441">
        <ele>10.71</ele>
        <time>2025-04-04T15:37:15Z</time>
      </trkpt>
    </trkseg>
  </trk>
</gpx>